<?xml version="1.0" encoding="UTF-8" standalone="no" ?>
<gpx xmlns="http://www.topografix.com/GPX/1/1" creator="MapSource 6.15.11" version="1.1" xmlns:xsi="http://www.w3.org/2001/XMLSchema-instance" xsi:schemaLocation="http://www.topografix.com/GPX/1/1 http://www.topografix.com/GPX/1/1/gpx.xsd">

  <metadata>
    <link href="http://www.garmin.com">
      <text>Garmin International</text>
    </link>
    <time>2010-05-11T11:19:56Z</time>
    <bounds maxlat="43.9933720" maxlon="7.7969950" minlat="43.9809520" minlon="7.7769930"/>
  </metadata>

  <trk>
    <name>PROMO SPORT</name>
    <extensions>
      <gpxx:TrackExtension xmlns:gpxx="http://www.garmin.com/xmlschemas/GpxExtensions/v3">
        <gpxx:DisplayColor>White</gpxx:DisplayColor>
      </gpxx:TrackExtension>
    </extensions>
    <trkseg>
      <trkpt lat="43.9876580" lon="7.7769930">
        <ele>463.9700000</ele>
        <time>2010-05-09T11:39:23Z</time>
      </trkpt>
      <trkpt lat="43.9876090" lon="7.7770570">
        <ele>463.4900000</ele>
        <time>2010-05-09T11:39:24Z</time>
      </trkpt>
      <trkpt lat="43.9875600" lon="7.7771320">
        <ele>463.4900000</ele>
        <time>2010-05-09T11:39:25Z</time>
      </trkpt>
      <trkpt lat="43.9871200" lon="7.7776860">
        <ele>466.8600000</ele>
        <time>2010-05-09T11:39:33Z</time>
      </trkpt>
      <trkpt lat="43.9870570" lon="7.7777470">
        <ele>467.3400000</ele>
        <time>2010-05-09T11:39:34Z</time>
      </trkpt>
      <trkpt lat="43.9868000" lon="7.7779720">
        <ele>470.2200000</ele>
        <time>2010-05-09T11:39:38Z</time>
      </trkpt>
      <trkpt lat="43.9864870" lon="7.7782680">
        <ele>473.5900000</ele>
        <time>2010-05-09T11:39:43Z</time>
      </trkpt>
      <trkpt lat="43.9864360" lon="7.7783470">
        <ele>475.0300000</ele>
        <time>2010-05-09T11:39:44Z</time>
      </trkpt>
      <trkpt lat="43.9863920" lon="7.7784320">
        <ele>475.5100000</ele>
        <time>2010-05-09T11:39:45Z</time>
      </trkpt>
      <trkpt lat="43.9863570" lon="7.7785250">
        <ele>475.9900000</ele>
        <time>2010-05-09T11:39:46Z</time>
      </trkpt>
      <trkpt lat="43.9863280" lon="7.7786240">
        <ele>477.4300000</ele>
        <time>2010-05-09T11:39:47Z</time>
      </trkpt>
      <trkpt lat="43.9863000" lon="7.7787210">
        <ele>478.3900000</ele>
        <time>2010-05-09T11:39:48Z</time>
      </trkpt>
      <trkpt lat="43.9861910" lon="7.7791360">
        <ele>482.2400000</ele>
        <time>2010-05-09T11:39:52Z</time>
      </trkpt>
      <trkpt lat="43.9861080" lon="7.7794630">
        <ele>484.6400000</ele>
        <time>2010-05-09T11:39:55Z</time>
      </trkpt>
      <trkpt lat="43.9860960" lon="7.7795770">
        <ele>485.1200000</ele>
        <time>2010-05-09T11:39:56Z</time>
      </trkpt>
      <trkpt lat="43.9860990" lon="7.7796980">
        <ele>486.0800000</ele>
        <time>2010-05-09T11:39:57Z</time>
      </trkpt>
      <trkpt lat="43.9861160" lon="7.7798230">
        <ele>486.0800000</ele>
        <time>2010-05-09T11:39:58Z</time>
      </trkpt>
      <trkpt lat="43.9861380" lon="7.7799390">
        <ele>486.5600000</ele>
        <time>2010-05-09T11:39:59Z</time>
      </trkpt>
      <trkpt lat="43.9861650" lon="7.7801540">
        <ele>487.0500000</ele>
        <time>2010-05-09T11:40:01Z</time>
      </trkpt>
      <trkpt lat="43.9861600" lon="7.7802670">
        <ele>488.0100000</ele>
        <time>2010-05-09T11:40:02Z</time>
      </trkpt>
      <trkpt lat="43.9861410" lon="7.7803850">
        <ele>488.4900000</ele>
        <time>2010-05-09T11:40:03Z</time>
      </trkpt>
      <trkpt lat="43.9861240" lon="7.7805070">
        <ele>488.9700000</ele>
        <time>2010-05-09T11:40:04Z</time>
      </trkpt>
      <trkpt lat="43.9861170" lon="7.7806350">
        <ele>490.4100000</ele>
        <time>2010-05-09T11:40:05Z</time>
      </trkpt>
      <trkpt lat="43.9861240" lon="7.7807640">
        <ele>491.3700000</ele>
        <time>2010-05-09T11:40:06Z</time>
      </trkpt>
      <trkpt lat="43.9861400" lon="7.7808930">
        <ele>491.3700000</ele>
        <time>2010-05-09T11:40:07Z</time>
      </trkpt>
      <trkpt lat="43.9861530" lon="7.7810200">
        <ele>492.3300000</ele>
        <time>2010-05-09T11:40:08Z</time>
      </trkpt>
      <trkpt lat="43.9861550" lon="7.7811440">
        <ele>493.2900000</ele>
        <time>2010-05-09T11:40:09Z</time>
      </trkpt>
      <trkpt lat="43.9861440" lon="7.7812600">
        <ele>494.2600000</ele>
        <time>2010-05-09T11:40:10Z</time>
      </trkpt>
      <trkpt lat="43.9861160" lon="7.7813710">
        <ele>493.7700000</ele>
        <time>2010-05-09T11:40:11Z</time>
      </trkpt>
      <trkpt lat="43.9860770" lon="7.7814880">
        <ele>494.7400000</ele>
        <time>2010-05-09T11:40:12Z</time>
      </trkpt>
      <trkpt lat="43.9859340" lon="7.7818560">
        <ele>496.1800000</ele>
        <time>2010-05-09T11:40:15Z</time>
      </trkpt>
      <trkpt lat="43.9858690" lon="7.7819740">
        <ele>497.6200000</ele>
        <time>2010-05-09T11:40:16Z</time>
      </trkpt>
      <trkpt lat="43.9856050" lon="7.7824760">
        <ele>502.4300000</ele>
        <time>2010-05-09T11:40:20Z</time>
      </trkpt>
      <trkpt lat="43.9854630" lon="7.7829040">
        <ele>505.7900000</ele>
        <time>2010-05-09T11:40:23Z</time>
      </trkpt>
      <trkpt lat="43.9853640" lon="7.7833090">
        <ele>508.6700000</ele>
        <time>2010-05-09T11:40:26Z</time>
      </trkpt>
      <trkpt lat="43.9853430" lon="7.7834300">
        <ele>509.6400000</ele>
        <time>2010-05-09T11:40:27Z</time>
      </trkpt>
      <trkpt lat="43.9853430" lon="7.7835580">
        <ele>511.5600000</ele>
        <time>2010-05-09T11:40:28Z</time>
      </trkpt>
      <trkpt lat="43.9853590" lon="7.7836880">
        <ele>512.5200000</ele>
        <time>2010-05-09T11:40:29Z</time>
      </trkpt>
      <trkpt lat="43.9854500" lon="7.7840860">
        <ele>515.4000000</ele>
        <time>2010-05-09T11:40:32Z</time>
      </trkpt>
      <trkpt lat="43.9855150" lon="7.7843450">
        <ele>519.2500000</ele>
        <time>2010-05-09T11:40:34Z</time>
      </trkpt>
      <trkpt lat="43.9855570" lon="7.7844580">
        <ele>520.2100000</ele>
        <time>2010-05-09T11:40:35Z</time>
      </trkpt>
      <trkpt lat="43.9856140" lon="7.7845630">
        <ele>521.6500000</ele>
        <time>2010-05-09T11:40:36Z</time>
      </trkpt>
      <trkpt lat="43.9858190" lon="7.7848560">
        <ele>525.0200000</ele>
        <time>2010-05-09T11:40:39Z</time>
      </trkpt>
      <trkpt lat="43.9861870" lon="7.7853230">
        <ele>528.3800000</ele>
        <time>2010-05-09T11:40:44Z</time>
      </trkpt>
      <trkpt lat="43.9862330" lon="7.7854330">
        <ele>528.8600000</ele>
        <time>2010-05-09T11:40:45Z</time>
      </trkpt>
      <trkpt lat="43.9862560" lon="7.7855560">
        <ele>529.8200000</ele>
        <time>2010-05-09T11:40:46Z</time>
      </trkpt>
      <trkpt lat="43.9862730" lon="7.7856840">
        <ele>529.8200000</ele>
        <time>2010-05-09T11:40:47Z</time>
      </trkpt>
      <trkpt lat="43.9862940" lon="7.7858120">
        <ele>530.7900000</ele>
        <time>2010-05-09T11:40:48Z</time>
      </trkpt>
      <trkpt lat="43.9863220" lon="7.7859340">
        <ele>531.7500000</ele>
        <time>2010-05-09T11:40:49Z</time>
      </trkpt>
      <trkpt lat="43.9863550" lon="7.7860430">
        <ele>533.1900000</ele>
        <time>2010-05-09T11:40:50Z</time>
      </trkpt>
      <trkpt lat="43.9863790" lon="7.7861430">
        <ele>533.1900000</ele>
        <time>2010-05-09T11:40:51Z</time>
      </trkpt>
      <trkpt lat="43.9863820" lon="7.7862400">
        <ele>533.6700000</ele>
        <time>2010-05-09T11:40:52Z</time>
      </trkpt>
      <trkpt lat="43.9863610" lon="7.7863330">
        <ele>534.1500000</ele>
        <time>2010-05-09T11:40:53Z</time>
      </trkpt>
      <trkpt lat="43.9863300" lon="7.7864280">
        <ele>535.1100000</ele>
        <time>2010-05-09T11:40:54Z</time>
      </trkpt>
      <trkpt lat="43.9863060" lon="7.7865320">
        <ele>535.5900000</ele>
        <time>2010-05-09T11:40:55Z</time>
      </trkpt>
      <trkpt lat="43.9862960" lon="7.7866420">
        <ele>535.5900000</ele>
        <time>2010-05-09T11:40:56Z</time>
      </trkpt>
      <trkpt lat="43.9863070" lon="7.7867510">
        <ele>536.5500000</ele>
        <time>2010-05-09T11:40:57Z</time>
      </trkpt>
      <trkpt lat="43.9863410" lon="7.7868450">
        <ele>537.0300000</ele>
        <time>2010-05-09T11:40:58Z</time>
      </trkpt>
      <trkpt lat="43.9863930" lon="7.7869230">
        <ele>537.0300000</ele>
        <time>2010-05-09T11:40:59Z</time>
      </trkpt>
      <trkpt lat="43.9864480" lon="7.7869860">
        <ele>537.0300000</ele>
        <time>2010-05-09T11:41:00Z</time>
      </trkpt>
      <trkpt lat="43.9864870" lon="7.7870480">
        <ele>536.5500000</ele>
        <time>2010-05-09T11:41:01Z</time>
      </trkpt>
      <trkpt lat="43.9865060" lon="7.7871140">
        <ele>537.0300000</ele>
        <time>2010-05-09T11:41:02Z</time>
      </trkpt>
      <trkpt lat="43.9864970" lon="7.7871790">
        <ele>537.5100000</ele>
        <time>2010-05-09T11:41:03Z</time>
      </trkpt>
      <trkpt lat="43.9864640" lon="7.7872300">
        <ele>537.5100000</ele>
        <time>2010-05-09T11:41:04Z</time>
      </trkpt>
      <trkpt lat="43.9864160" lon="7.7872770">
        <ele>537.5100000</ele>
        <time>2010-05-09T11:41:05Z</time>
      </trkpt>
      <trkpt lat="43.9863140" lon="7.7873930">
        <ele>537.9900000</ele>
        <time>2010-05-09T11:41:07Z</time>
      </trkpt>
      <trkpt lat="43.9862760" lon="7.7874720">
        <ele>538.4800000</ele>
        <time>2010-05-09T11:41:08Z</time>
      </trkpt>
      <trkpt lat="43.9862530" lon="7.7875560">
        <ele>538.9600000</ele>
        <time>2010-05-09T11:41:09Z</time>
      </trkpt>
      <trkpt lat="43.9862060" lon="7.7878260">
        <ele>539.4400000</ele>
        <time>2010-05-09T11:41:16Z</time>
      </trkpt>
      <trkpt lat="43.9861980" lon="7.7878950">
        <ele>540.4000000</ele>
        <time>2010-05-09T11:41:18Z</time>
      </trkpt>
      <trkpt lat="43.9861820" lon="7.7880400">
        <ele>540.8800000</ele>
        <time>2010-05-09T11:41:21Z</time>
      </trkpt>
      <trkpt lat="43.9861720" lon="7.7882250">
        <ele>543.2800000</ele>
        <time>2010-05-09T11:41:23Z</time>
      </trkpt>
      <trkpt lat="43.9861720" lon="7.7886050">
        <ele>547.1300000</ele>
        <time>2010-05-09T11:41:26Z</time>
      </trkpt>
      <trkpt lat="43.9861260" lon="7.7889890">
        <ele>550.4900000</ele>
        <time>2010-05-09T11:41:29Z</time>
      </trkpt>
      <trkpt lat="43.9860950" lon="7.7891120">
        <ele>551.9300000</ele>
        <time>2010-05-09T11:41:30Z</time>
      </trkpt>
      <trkpt lat="43.9860540" lon="7.7892340">
        <ele>552.9000000</ele>
        <time>2010-05-09T11:41:31Z</time>
      </trkpt>
      <trkpt lat="43.9860130" lon="7.7893530">
        <ele>553.8600000</ele>
        <time>2010-05-09T11:41:32Z</time>
      </trkpt>
      <trkpt lat="43.9859850" lon="7.7894780">
        <ele>554.3400000</ele>
        <time>2010-05-09T11:41:33Z</time>
      </trkpt>
      <trkpt lat="43.9859740" lon="7.7896120">
        <ele>553.8600000</ele>
        <time>2010-05-09T11:41:34Z</time>
      </trkpt>
      <trkpt lat="43.9859710" lon="7.7897510">
        <ele>556.7400000</ele>
        <time>2010-05-09T11:41:35Z</time>
      </trkpt>
      <trkpt lat="43.9859250" lon="7.7901990">
        <ele>560.5900000</ele>
        <time>2010-05-09T11:41:38Z</time>
      </trkpt>
      <trkpt lat="43.9859110" lon="7.7903460">
        <ele>561.5500000</ele>
        <time>2010-05-09T11:41:39Z</time>
      </trkpt>
      <trkpt lat="43.9859050" lon="7.7906430">
        <ele>564.9100000</ele>
        <time>2010-05-09T11:41:41Z</time>
      </trkpt>
      <trkpt lat="43.9859010" lon="7.7909320">
        <ele>566.3500000</ele>
        <time>2010-05-09T11:41:43Z</time>
      </trkpt>
      <trkpt lat="43.9858810" lon="7.7910670">
        <ele>567.3200000</ele>
        <time>2010-05-09T11:41:44Z</time>
      </trkpt>
      <trkpt lat="43.9858450" lon="7.7911920">
        <ele>568.2800000</ele>
        <time>2010-05-09T11:41:45Z</time>
      </trkpt>
      <trkpt lat="43.9857960" lon="7.7913010">
        <ele>568.7600000</ele>
        <time>2010-05-09T11:41:46Z</time>
      </trkpt>
      <trkpt lat="43.9857420" lon="7.7913930">
        <ele>569.2400000</ele>
        <time>2010-05-09T11:41:47Z</time>
      </trkpt>
      <trkpt lat="43.9856950" lon="7.7914780">
        <ele>569.7200000</ele>
        <time>2010-05-09T11:41:48Z</time>
      </trkpt>
      <trkpt lat="43.9856620" lon="7.7915730">
        <ele>570.6800000</ele>
        <time>2010-05-09T11:41:49Z</time>
      </trkpt>
      <trkpt lat="43.9856480" lon="7.7916740">
        <ele>570.6800000</ele>
        <time>2010-05-09T11:41:50Z</time>
      </trkpt>
      <trkpt lat="43.9856470" lon="7.7917650">
        <ele>571.6400000</ele>
        <time>2010-05-09T11:41:51Z</time>
      </trkpt>
      <trkpt lat="43.9856520" lon="7.7918500">
        <ele>571.6400000</ele>
        <time>2010-05-09T11:41:52Z</time>
      </trkpt>
      <trkpt lat="43.9856670" lon="7.7919220">
        <ele>572.1200000</ele>
        <time>2010-05-09T11:41:53Z</time>
      </trkpt>
      <trkpt lat="43.9856990" lon="7.7919680">
        <ele>572.1200000</ele>
        <time>2010-05-09T11:41:54Z</time>
      </trkpt>
      <trkpt lat="43.9857420" lon="7.7919730">
        <ele>572.6000000</ele>
        <time>2010-05-09T11:41:55Z</time>
      </trkpt>
      <trkpt lat="43.9857800" lon="7.7919320">
        <ele>573.0800000</ele>
        <time>2010-05-09T11:41:56Z</time>
      </trkpt>
      <trkpt lat="43.9858040" lon="7.7918690">
        <ele>572.6000000</ele>
        <time>2010-05-09T11:41:57Z</time>
      </trkpt>
      <trkpt lat="43.9858180" lon="7.7918060">
        <ele>573.0800000</ele>
        <time>2010-05-09T11:41:58Z</time>
      </trkpt>
      <trkpt lat="43.9858590" lon="7.7916660">
        <ele>574.0400000</ele>
        <time>2010-05-09T11:42:00Z</time>
      </trkpt>
      <trkpt lat="43.9858980" lon="7.7915860">
        <ele>574.5300000</ele>
        <time>2010-05-09T11:42:01Z</time>
      </trkpt>
      <trkpt lat="43.9859530" lon="7.7914990">
        <ele>575.4900000</ele>
        <time>2010-05-09T11:42:02Z</time>
      </trkpt>
      <trkpt lat="43.9860850" lon="7.7912950">
        <ele>578.8500000</ele>
        <time>2010-05-09T11:42:04Z</time>
      </trkpt>
      <trkpt lat="43.9862720" lon="7.7909810">
        <ele>581.7300000</ele>
        <time>2010-05-09T11:42:07Z</time>
      </trkpt>
      <trkpt lat="43.9864680" lon="7.7906190">
        <ele>585.1000000</ele>
        <time>2010-05-09T11:42:10Z</time>
      </trkpt>
      <trkpt lat="43.9865230" lon="7.7904790">
        <ele>587.0200000</ele>
        <time>2010-05-09T11:42:11Z</time>
      </trkpt>
      <trkpt lat="43.9866780" lon="7.7900700">
        <ele>589.9100000</ele>
        <time>2010-05-09T11:42:14Z</time>
      </trkpt>
      <trkpt lat="43.9867250" lon="7.7899650">
        <ele>589.9100000</ele>
        <time>2010-05-09T11:42:15Z</time>
      </trkpt>
      <trkpt lat="43.9867840" lon="7.7897980">
        <ele>589.9100000</ele>
        <time>2010-05-09T11:42:20Z</time>
      </trkpt>
      <trkpt lat="43.9868080" lon="7.7896400">
        <ele>591.8300000</ele>
        <time>2010-05-09T11:42:24Z</time>
      </trkpt>
      <trkpt lat="43.9868130" lon="7.7895670">
        <ele>591.8300000</ele>
        <time>2010-05-09T11:42:25Z</time>
      </trkpt>
      <trkpt lat="43.9868310" lon="7.7892770">
        <ele>593.7500000</ele>
        <time>2010-05-09T11:42:29Z</time>
      </trkpt>
      <trkpt lat="43.9868460" lon="7.7891910">
        <ele>593.7500000</ele>
        <time>2010-05-09T11:42:30Z</time>
      </trkpt>
      <trkpt lat="43.9868700" lon="7.7891110">
        <ele>594.2300000</ele>
        <time>2010-05-09T11:42:31Z</time>
      </trkpt>
      <trkpt lat="43.9869030" lon="7.7890490">
        <ele>594.7100000</ele>
        <time>2010-05-09T11:42:32Z</time>
      </trkpt>
      <trkpt lat="43.9869380" lon="7.7890190">
        <ele>595.1900000</ele>
        <time>2010-05-09T11:42:33Z</time>
      </trkpt>
      <trkpt lat="43.9869790" lon="7.7890200">
        <ele>595.1900000</ele>
        <time>2010-05-09T11:42:34Z</time>
      </trkpt>
      <trkpt lat="43.9870230" lon="7.7890540">
        <ele>595.6700000</ele>
        <time>2010-05-09T11:42:35Z</time>
      </trkpt>
      <trkpt lat="43.9870520" lon="7.7891280">
        <ele>596.6400000</ele>
        <time>2010-05-09T11:42:36Z</time>
      </trkpt>
      <trkpt lat="43.9870700" lon="7.7892300">
        <ele>597.6000000</ele>
        <time>2010-05-09T11:42:37Z</time>
      </trkpt>
      <trkpt lat="43.9870820" lon="7.7893420">
        <ele>598.0800000</ele>
        <time>2010-05-09T11:42:38Z</time>
      </trkpt>
      <trkpt lat="43.9870990" lon="7.7894680">
        <ele>599.0400000</ele>
        <time>2010-05-09T11:42:39Z</time>
      </trkpt>
      <trkpt lat="43.9871220" lon="7.7896020">
        <ele>599.5200000</ele>
        <time>2010-05-09T11:42:40Z</time>
      </trkpt>
      <trkpt lat="43.9871440" lon="7.7897320">
        <ele>600.0000000</ele>
        <time>2010-05-09T11:42:41Z</time>
      </trkpt>
      <trkpt lat="43.9872340" lon="7.7902960">
        <ele>603.8500000</ele>
        <time>2010-05-09T11:42:45Z</time>
      </trkpt>
      <trkpt lat="43.9872450" lon="7.7904520">
        <ele>604.3300000</ele>
        <time>2010-05-09T11:42:46Z</time>
      </trkpt>
      <trkpt lat="43.9872450" lon="7.7906120">
        <ele>606.7300000</ele>
        <time>2010-05-09T11:42:47Z</time>
      </trkpt>
      <trkpt lat="43.9872030" lon="7.7910900">
        <ele>609.6100000</ele>
        <time>2010-05-09T11:42:50Z</time>
      </trkpt>
      <trkpt lat="43.9870830" lon="7.7916910">
        <ele>612.9800000</ele>
        <time>2010-05-09T11:42:54Z</time>
      </trkpt>
      <trkpt lat="43.9869630" lon="7.7920440">
        <ele>614.9000000</ele>
        <time>2010-05-09T11:42:57Z</time>
      </trkpt>
      <trkpt lat="43.9868590" lon="7.7922910">
        <ele>615.8600000</ele>
        <time>2010-05-09T11:43:00Z</time>
      </trkpt>
      <trkpt lat="43.9868550" lon="7.7923650">
        <ele>615.3800000</ele>
        <time>2010-05-09T11:43:01Z</time>
      </trkpt>
      <trkpt lat="43.9868790" lon="7.7924320">
        <ele>616.8200000</ele>
        <time>2010-05-09T11:43:02Z</time>
      </trkpt>
      <trkpt lat="43.9869270" lon="7.7924640">
        <ele>616.8200000</ele>
        <time>2010-05-09T11:43:03Z</time>
      </trkpt>
      <trkpt lat="43.9869830" lon="7.7924400">
        <ele>617.3000000</ele>
        <time>2010-05-09T11:43:04Z</time>
      </trkpt>
      <trkpt lat="43.9870330" lon="7.7923680">
        <ele>617.7800000</ele>
        <time>2010-05-09T11:43:05Z</time>
      </trkpt>
      <trkpt lat="43.9870770" lon="7.7922640">
        <ele>618.7500000</ele>
        <time>2010-05-09T11:43:06Z</time>
      </trkpt>
      <trkpt lat="43.9871130" lon="7.7921570">
        <ele>619.2300000</ele>
        <time>2010-05-09T11:43:07Z</time>
      </trkpt>
      <trkpt lat="43.9871490" lon="7.7920560">
        <ele>619.2300000</ele>
        <time>2010-05-09T11:43:08Z</time>
      </trkpt>
      <trkpt lat="43.9872250" lon="7.7918780">
        <ele>621.1500000</ele>
        <time>2010-05-09T11:43:10Z</time>
      </trkpt>
      <trkpt lat="43.9872800" lon="7.7917880">
        <ele>622.1100000</ele>
        <time>2010-05-09T11:43:11Z</time>
      </trkpt>
      <trkpt lat="43.9873450" lon="7.7917000">
        <ele>624.0300000</ele>
        <time>2010-05-09T11:43:12Z</time>
      </trkpt>
      <trkpt lat="43.9875650" lon="7.7914100">
        <ele>627.4000000</ele>
        <time>2010-05-09T11:43:15Z</time>
      </trkpt>
      <trkpt lat="43.9876380" lon="7.7913020">
        <ele>628.3600000</ele>
        <time>2010-05-09T11:43:16Z</time>
      </trkpt>
      <trkpt lat="43.9877040" lon="7.7911840">
        <ele>629.8000000</ele>
        <time>2010-05-09T11:43:17Z</time>
      </trkpt>
      <trkpt lat="43.9877640" lon="7.7910560">
        <ele>629.8000000</ele>
        <time>2010-05-09T11:43:18Z</time>
      </trkpt>
      <trkpt lat="43.9878140" lon="7.7909210">
        <ele>631.7200000</ele>
        <time>2010-05-09T11:43:19Z</time>
      </trkpt>
      <trkpt lat="43.9878490" lon="7.7907820">
        <ele>632.6800000</ele>
        <time>2010-05-09T11:43:20Z</time>
      </trkpt>
      <trkpt lat="43.9878710" lon="7.7906460">
        <ele>633.6500000</ele>
        <time>2010-05-09T11:43:21Z</time>
      </trkpt>
      <trkpt lat="43.9878850" lon="7.7905180">
        <ele>633.1700000</ele>
        <time>2010-05-09T11:43:22Z</time>
      </trkpt>
      <trkpt lat="43.9878910" lon="7.7903980">
        <ele>633.6500000</ele>
        <time>2010-05-09T11:43:23Z</time>
      </trkpt>
      <trkpt lat="43.9878920" lon="7.7902960">
        <ele>634.6100000</ele>
        <time>2010-05-09T11:43:24Z</time>
      </trkpt>
      <trkpt lat="43.9878930" lon="7.7902120">
        <ele>634.1300000</ele>
        <time>2010-05-09T11:43:25Z</time>
      </trkpt>
      <trkpt lat="43.9878990" lon="7.7901490">
        <ele>634.6100000</ele>
        <time>2010-05-09T11:43:26Z</time>
      </trkpt>
      <trkpt lat="43.9879180" lon="7.7900980">
        <ele>635.0900000</ele>
        <time>2010-05-09T11:43:27Z</time>
      </trkpt>
      <trkpt lat="43.9879420" lon="7.7900680">
        <ele>635.0900000</ele>
        <time>2010-05-09T11:43:28Z</time>
      </trkpt>
      <trkpt lat="43.9879710" lon="7.7900800">
        <ele>635.5700000</ele>
        <time>2010-05-09T11:43:29Z</time>
      </trkpt>
      <trkpt lat="43.9879910" lon="7.7901240">
        <ele>635.5700000</ele>
        <time>2010-05-09T11:43:30Z</time>
      </trkpt>
      <trkpt lat="43.9879880" lon="7.7901900">
        <ele>636.0500000</ele>
        <time>2010-05-09T11:43:31Z</time>
      </trkpt>
      <trkpt lat="43.9879680" lon="7.7902770">
        <ele>636.5300000</ele>
        <time>2010-05-09T11:43:32Z</time>
      </trkpt>
      <trkpt lat="43.9879500" lon="7.7903850">
        <ele>637.0100000</ele>
        <time>2010-05-09T11:43:33Z</time>
      </trkpt>
      <trkpt lat="43.9879070" lon="7.7907940">
        <ele>641.3400000</ele>
        <time>2010-05-09T11:43:36Z</time>
      </trkpt>
      <trkpt lat="43.9878910" lon="7.7910640">
        <ele>641.8200000</ele>
        <time>2010-05-09T11:43:38Z</time>
      </trkpt>
      <trkpt lat="43.9878700" lon="7.7913450">
        <ele>645.1800000</ele>
        <time>2010-05-09T11:43:40Z</time>
      </trkpt>
      <trkpt lat="43.9878380" lon="7.7914790">
        <ele>645.1800000</ele>
        <time>2010-05-09T11:43:41Z</time>
      </trkpt>
      <trkpt lat="43.9877870" lon="7.7916080">
        <ele>646.1400000</ele>
        <time>2010-05-09T11:43:42Z</time>
      </trkpt>
      <trkpt lat="43.9876150" lon="7.7920230">
        <ele>649.9900000</ele>
        <time>2010-05-09T11:43:45Z</time>
      </trkpt>
      <trkpt lat="43.9875310" lon="7.7923040">
        <ele>651.4300000</ele>
        <time>2010-05-09T11:43:47Z</time>
      </trkpt>
      <trkpt lat="43.9874160" lon="7.7926360">
        <ele>652.3900000</ele>
        <time>2010-05-09T11:43:50Z</time>
      </trkpt>
      <trkpt lat="43.9873490" lon="7.7927900">
        <ele>652.8700000</ele>
        <time>2010-05-09T11:43:52Z</time>
      </trkpt>
      <trkpt lat="43.9873400" lon="7.7928620">
        <ele>652.8700000</ele>
        <time>2010-05-09T11:43:53Z</time>
      </trkpt>
      <trkpt lat="43.9873530" lon="7.7929350">
        <ele>653.3500000</ele>
        <time>2010-05-09T11:43:54Z</time>
      </trkpt>
      <trkpt lat="43.9873900" lon="7.7929930">
        <ele>654.3100000</ele>
        <time>2010-05-09T11:43:55Z</time>
      </trkpt>
      <trkpt lat="43.9874450" lon="7.7930140">
        <ele>654.3100000</ele>
        <time>2010-05-09T11:43:56Z</time>
      </trkpt>
      <trkpt lat="43.9875010" lon="7.7929840">
        <ele>655.2800000</ele>
        <time>2010-05-09T11:43:57Z</time>
      </trkpt>
      <trkpt lat="43.9875360" lon="7.7929080">
        <ele>656.2400000</ele>
        <time>2010-05-09T11:43:58Z</time>
      </trkpt>
      <trkpt lat="43.9875520" lon="7.7928120">
        <ele>657.2000000</ele>
        <time>2010-05-09T11:43:59Z</time>
      </trkpt>
      <trkpt lat="43.9875640" lon="7.7927060">
        <ele>657.6800000</ele>
        <time>2010-05-09T11:44:00Z</time>
      </trkpt>
      <trkpt lat="43.9875840" lon="7.7925950">
        <ele>659.1200000</ele>
        <time>2010-05-09T11:44:01Z</time>
      </trkpt>
      <trkpt lat="43.9876210" lon="7.7924850">
        <ele>660.0800000</ele>
        <time>2010-05-09T11:44:02Z</time>
      </trkpt>
      <trkpt lat="43.9876680" lon="7.7923830">
        <ele>661.5200000</ele>
        <time>2010-05-09T11:44:03Z</time>
      </trkpt>
      <trkpt lat="43.9877210" lon="7.7922900">
        <ele>661.5200000</ele>
        <time>2010-05-09T11:44:04Z</time>
      </trkpt>
      <trkpt lat="43.9877770" lon="7.7922110">
        <ele>662.0100000</ele>
        <time>2010-05-09T11:44:05Z</time>
      </trkpt>
      <trkpt lat="43.9878400" lon="7.7921440">
        <ele>662.9700000</ele>
        <time>2010-05-09T11:44:06Z</time>
      </trkpt>
      <trkpt lat="43.9879110" lon="7.7920900">
        <ele>664.4100000</ele>
        <time>2010-05-09T11:44:07Z</time>
      </trkpt>
      <trkpt lat="43.9879880" lon="7.7920480">
        <ele>665.3700000</ele>
        <time>2010-05-09T11:44:08Z</time>
      </trkpt>
      <trkpt lat="43.9880720" lon="7.7920000">
        <ele>666.3300000</ele>
        <time>2010-05-09T11:44:09Z</time>
      </trkpt>
      <trkpt lat="43.9881570" lon="7.7919290">
        <ele>668.2500000</ele>
        <time>2010-05-09T11:44:10Z</time>
      </trkpt>
      <trkpt lat="43.9882360" lon="7.7918330">
        <ele>669.2200000</ele>
        <time>2010-05-09T11:44:11Z</time>
      </trkpt>
      <trkpt lat="43.9883090" lon="7.7917100">
        <ele>670.1800000</ele>
        <time>2010-05-09T11:44:12Z</time>
      </trkpt>
      <trkpt lat="43.9883750" lon="7.7915750">
        <ele>671.6200000</ele>
        <time>2010-05-09T11:44:13Z</time>
      </trkpt>
      <trkpt lat="43.9884400" lon="7.7914400">
        <ele>673.0600000</ele>
        <time>2010-05-09T11:44:14Z</time>
      </trkpt>
      <trkpt lat="43.9885910" lon="7.7911770">
        <ele>677.3900000</ele>
        <time>2010-05-09T11:44:16Z</time>
      </trkpt>
      <trkpt lat="43.9887580" lon="7.7909220">
        <ele>680.7500000</ele>
        <time>2010-05-09T11:44:18Z</time>
      </trkpt>
      <trkpt lat="43.9889440" lon="7.7906750">
        <ele>684.1200000</ele>
        <time>2010-05-09T11:44:20Z</time>
      </trkpt>
      <trkpt lat="43.9892390" lon="7.7903060">
        <ele>687.0000000</ele>
        <time>2010-05-09T11:44:23Z</time>
      </trkpt>
      <trkpt lat="43.9893250" lon="7.7901610">
        <ele>687.9600000</ele>
        <time>2010-05-09T11:44:24Z</time>
      </trkpt>
      <trkpt lat="43.9893990" lon="7.7900010">
        <ele>688.9200000</ele>
        <time>2010-05-09T11:44:25Z</time>
      </trkpt>
      <trkpt lat="43.9895310" lon="7.7896520">
        <ele>693.2500000</ele>
        <time>2010-05-09T11:44:27Z</time>
      </trkpt>
      <trkpt lat="43.9896560" lon="7.7892900">
        <ele>697.0900000</ele>
        <time>2010-05-09T11:44:29Z</time>
      </trkpt>
      <trkpt lat="43.9897210" lon="7.7891120">
        <ele>697.0900000</ele>
        <time>2010-05-09T11:44:30Z</time>
      </trkpt>
      <trkpt lat="43.9898500" lon="7.7887560">
        <ele>700.4600000</ele>
        <time>2010-05-09T11:44:32Z</time>
      </trkpt>
      <trkpt lat="43.9900410" lon="7.7882450">
        <ele>703.8200000</ele>
        <time>2010-05-09T11:44:35Z</time>
      </trkpt>
      <trkpt lat="43.9901190" lon="7.7880910">
        <ele>705.2600000</ele>
        <time>2010-05-09T11:44:36Z</time>
      </trkpt>
      <trkpt lat="43.9902080" lon="7.7879550">
        <ele>706.2300000</ele>
        <time>2010-05-09T11:44:37Z</time>
      </trkpt>
      <trkpt lat="43.9905410" lon="7.7874180">
        <ele>710.5500000</ele>
        <time>2010-05-09T11:44:41Z</time>
      </trkpt>
      <trkpt lat="43.9906760" lon="7.7871450">
        <ele>714.4000000</ele>
        <time>2010-05-09T11:44:43Z</time>
      </trkpt>
      <trkpt lat="43.9907660" lon="7.7868870">
        <ele>712.9500000</ele>
        <time>2010-05-09T11:44:45Z</time>
      </trkpt>
      <trkpt lat="43.9908140" lon="7.7866580">
        <ele>714.4000000</ele>
        <time>2010-05-09T11:44:47Z</time>
      </trkpt>
      <trkpt lat="43.9908570" lon="7.7864350">
        <ele>714.4000000</ele>
        <time>2010-05-09T11:44:50Z</time>
      </trkpt>
      <trkpt lat="43.9908820" lon="7.7864010">
        <ele>714.4000000</ele>
        <time>2010-05-09T11:44:51Z</time>
      </trkpt>
      <trkpt lat="43.9909130" lon="7.7863990">
        <ele>714.8800000</ele>
        <time>2010-05-09T11:44:52Z</time>
      </trkpt>
      <trkpt lat="43.9909430" lon="7.7864310">
        <ele>715.3600000</ele>
        <time>2010-05-09T11:44:53Z</time>
      </trkpt>
      <trkpt lat="43.9909530" lon="7.7864890">
        <ele>715.8400000</ele>
        <time>2010-05-09T11:44:54Z</time>
      </trkpt>
      <trkpt lat="43.9909380" lon="7.7865610">
        <ele>715.8400000</ele>
        <time>2010-05-09T11:44:55Z</time>
      </trkpt>
      <trkpt lat="43.9909100" lon="7.7866400">
        <ele>716.3200000</ele>
        <time>2010-05-09T11:44:56Z</time>
      </trkpt>
      <trkpt lat="43.9908920" lon="7.7867180">
        <ele>716.8000000</ele>
        <time>2010-05-09T11:44:57Z</time>
      </trkpt>
      <trkpt lat="43.9908810" lon="7.7867860">
        <ele>717.2800000</ele>
        <time>2010-05-09T11:44:58Z</time>
      </trkpt>
      <trkpt lat="43.9908630" lon="7.7869000">
        <ele>717.2800000</ele>
        <time>2010-05-09T11:45:00Z</time>
      </trkpt>
      <trkpt lat="43.9908540" lon="7.7869570">
        <ele>718.2400000</ele>
        <time>2010-05-09T11:45:01Z</time>
      </trkpt>
      <trkpt lat="43.9908390" lon="7.7870100">
        <ele>718.7200000</ele>
        <time>2010-05-09T11:45:02Z</time>
      </trkpt>
      <trkpt lat="43.9908260" lon="7.7870660">
        <ele>719.2000000</ele>
        <time>2010-05-09T11:45:03Z</time>
      </trkpt>
      <trkpt lat="43.9908140" lon="7.7871380">
        <ele>719.6800000</ele>
        <time>2010-05-09T11:45:04Z</time>
      </trkpt>
      <trkpt lat="43.9907610" lon="7.7874610">
        <ele>723.5300000</ele>
        <time>2010-05-09T11:45:07Z</time>
      </trkpt>
      <trkpt lat="43.9907510" lon="7.7877130">
        <ele>725.4500000</ele>
        <time>2010-05-09T11:45:09Z</time>
      </trkpt>
      <trkpt lat="43.9907780" lon="7.7880860">
        <ele>727.8600000</ele>
        <time>2010-05-09T11:45:12Z</time>
      </trkpt>
      <trkpt lat="43.9907880" lon="7.7882020">
        <ele>728.8200000</ele>
        <time>2010-05-09T11:45:13Z</time>
      </trkpt>
      <trkpt lat="43.9907870" lon="7.7883100">
        <ele>729.7800000</ele>
        <time>2010-05-09T11:45:14Z</time>
      </trkpt>
      <trkpt lat="43.9907710" lon="7.7884210">
        <ele>730.2600000</ele>
        <time>2010-05-09T11:45:15Z</time>
      </trkpt>
      <trkpt lat="43.9907400" lon="7.7885280">
        <ele>731.7000000</ele>
        <time>2010-05-09T11:45:16Z</time>
      </trkpt>
      <trkpt lat="43.9906940" lon="7.7886230">
        <ele>732.6600000</ele>
        <time>2010-05-09T11:45:17Z</time>
      </trkpt>
      <trkpt lat="43.9906410" lon="7.7887110">
        <ele>733.6200000</ele>
        <time>2010-05-09T11:45:18Z</time>
      </trkpt>
      <trkpt lat="43.9905890" lon="7.7888070">
        <ele>734.5800000</ele>
        <time>2010-05-09T11:45:19Z</time>
      </trkpt>
      <trkpt lat="43.9905490" lon="7.7889160">
        <ele>735.5500000</ele>
        <time>2010-05-09T11:45:20Z</time>
      </trkpt>
      <trkpt lat="43.9905230" lon="7.7890390">
        <ele>736.9900000</ele>
        <time>2010-05-09T11:45:21Z</time>
      </trkpt>
      <trkpt lat="43.9905150" lon="7.7891690">
        <ele>738.4300000</ele>
        <time>2010-05-09T11:45:22Z</time>
      </trkpt>
      <trkpt lat="43.9905220" lon="7.7893030">
        <ele>739.8700000</ele>
        <time>2010-05-09T11:45:23Z</time>
      </trkpt>
      <trkpt lat="43.9905310" lon="7.7894380">
        <ele>740.8300000</ele>
        <time>2010-05-09T11:45:24Z</time>
      </trkpt>
      <trkpt lat="43.9905260" lon="7.7897100">
        <ele>743.2400000</ele>
        <time>2010-05-09T11:45:26Z</time>
      </trkpt>
      <trkpt lat="43.9905070" lon="7.7898430">
        <ele>744.6800000</ele>
        <time>2010-05-09T11:45:27Z</time>
      </trkpt>
      <trkpt lat="43.9904770" lon="7.7899760">
        <ele>746.1200000</ele>
        <time>2010-05-09T11:45:28Z</time>
      </trkpt>
      <trkpt lat="43.9904390" lon="7.7901070">
        <ele>746.6000000</ele>
        <time>2010-05-09T11:45:29Z</time>
      </trkpt>
      <trkpt lat="43.9902730" lon="7.7906200">
        <ele>749.9700000</ele>
        <time>2010-05-09T11:45:33Z</time>
      </trkpt>
      <trkpt lat="43.9901300" lon="7.7910040">
        <ele>754.2900000</ele>
        <time>2010-05-09T11:45:36Z</time>
      </trkpt>
      <trkpt lat="43.9900230" lon="7.7912220">
        <ele>755.2500000</ele>
        <time>2010-05-09T11:45:38Z</time>
      </trkpt>
      <trkpt lat="43.9898800" lon="7.7914680">
        <ele>757.1800000</ele>
        <time>2010-05-09T11:45:41Z</time>
      </trkpt>
      <trkpt lat="43.9898570" lon="7.7915490">
        <ele>757.1800000</ele>
        <time>2010-05-09T11:45:42Z</time>
      </trkpt>
      <trkpt lat="43.9898610" lon="7.7916320">
        <ele>758.1400000</ele>
        <time>2010-05-09T11:45:43Z</time>
      </trkpt>
      <trkpt lat="43.9898930" lon="7.7916990">
        <ele>758.6200000</ele>
        <time>2010-05-09T11:45:44Z</time>
      </trkpt>
      <trkpt lat="43.9899480" lon="7.7917410">
        <ele>759.1000000</ele>
        <time>2010-05-09T11:45:45Z</time>
      </trkpt>
      <trkpt lat="43.9900110" lon="7.7917540">
        <ele>759.1000000</ele>
        <time>2010-05-09T11:45:46Z</time>
      </trkpt>
      <trkpt lat="43.9900810" lon="7.7917540">
        <ele>759.5800000</ele>
        <time>2010-05-09T11:45:47Z</time>
      </trkpt>
      <trkpt lat="43.9901560" lon="7.7917450">
        <ele>759.5800000</ele>
        <time>2010-05-09T11:45:48Z</time>
      </trkpt>
      <trkpt lat="43.9902310" lon="7.7917110">
        <ele>760.0600000</ele>
        <time>2010-05-09T11:45:49Z</time>
      </trkpt>
      <trkpt lat="43.9903020" lon="7.7916530">
        <ele>761.0200000</ele>
        <time>2010-05-09T11:45:50Z</time>
      </trkpt>
      <trkpt lat="43.9903660" lon="7.7915750">
        <ele>761.9800000</ele>
        <time>2010-05-09T11:45:51Z</time>
      </trkpt>
      <trkpt lat="43.9904310" lon="7.7914920">
        <ele>764.3900000</ele>
        <time>2010-05-09T11:45:52Z</time>
      </trkpt>
      <trkpt lat="43.9905070" lon="7.7914170">
        <ele>765.3500000</ele>
        <time>2010-05-09T11:45:53Z</time>
      </trkpt>
      <trkpt lat="43.9906030" lon="7.7913600">
        <ele>766.7900000</ele>
        <time>2010-05-09T11:45:54Z</time>
      </trkpt>
      <trkpt lat="43.9907110" lon="7.7913300">
        <ele>768.2300000</ele>
        <time>2010-05-09T11:45:55Z</time>
      </trkpt>
      <trkpt lat="43.9910670" lon="7.7913040">
        <ele>771.6000000</ele>
        <time>2010-05-09T11:45:58Z</time>
      </trkpt>
      <trkpt lat="43.9913260" lon="7.7913150">
        <ele>774.9600000</ele>
        <time>2010-05-09T11:46:00Z</time>
      </trkpt>
      <trkpt lat="43.9916950" lon="7.7913280">
        <ele>778.8100000</ele>
        <time>2010-05-09T11:46:03Z</time>
      </trkpt>
      <trkpt lat="43.9918010" lon="7.7913320">
        <ele>778.8100000</ele>
        <time>2010-05-09T11:46:04Z</time>
      </trkpt>
      <trkpt lat="43.9918940" lon="7.7913470">
        <ele>780.2500000</ele>
        <time>2010-05-09T11:46:05Z</time>
      </trkpt>
      <trkpt lat="43.9919730" lon="7.7913930">
        <ele>780.2500000</ele>
        <time>2010-05-09T11:46:06Z</time>
      </trkpt>
      <trkpt lat="43.9920430" lon="7.7914720">
        <ele>781.2100000</ele>
        <time>2010-05-09T11:46:07Z</time>
      </trkpt>
      <trkpt lat="43.9921000" lon="7.7915810">
        <ele>782.6500000</ele>
        <time>2010-05-09T11:46:08Z</time>
      </trkpt>
      <trkpt lat="43.9921410" lon="7.7917100">
        <ele>783.6100000</ele>
        <time>2010-05-09T11:46:09Z</time>
      </trkpt>
      <trkpt lat="43.9921850" lon="7.7918400">
        <ele>784.5700000</ele>
        <time>2010-05-09T11:46:10Z</time>
      </trkpt>
      <trkpt lat="43.9922320" lon="7.7919610">
        <ele>785.5300000</ele>
        <time>2010-05-09T11:46:11Z</time>
      </trkpt>
      <trkpt lat="43.9922740" lon="7.7920790">
        <ele>786.5000000</ele>
        <time>2010-05-09T11:46:12Z</time>
      </trkpt>
      <trkpt lat="43.9922970" lon="7.7922060">
        <ele>786.9800000</ele>
        <time>2010-05-09T11:46:13Z</time>
      </trkpt>
      <trkpt lat="43.9923090" lon="7.7923330">
        <ele>787.4600000</ele>
        <time>2010-05-09T11:46:14Z</time>
      </trkpt>
      <trkpt lat="43.9923140" lon="7.7924520">
        <ele>789.3800000</ele>
        <time>2010-05-09T11:46:15Z</time>
      </trkpt>
      <trkpt lat="43.9923020" lon="7.7925610">
        <ele>790.3400000</ele>
        <time>2010-05-09T11:46:16Z</time>
      </trkpt>
      <trkpt lat="43.9922690" lon="7.7926630">
        <ele>790.8200000</ele>
        <time>2010-05-09T11:46:17Z</time>
      </trkpt>
      <trkpt lat="43.9922280" lon="7.7927600">
        <ele>791.3000000</ele>
        <time>2010-05-09T11:46:18Z</time>
      </trkpt>
      <trkpt lat="43.9921940" lon="7.7928640">
        <ele>792.2600000</ele>
        <time>2010-05-09T11:46:19Z</time>
      </trkpt>
      <trkpt lat="43.9921800" lon="7.7929750">
        <ele>792.7400000</ele>
        <time>2010-05-09T11:46:20Z</time>
      </trkpt>
      <trkpt lat="43.9921980" lon="7.7930810">
        <ele>794.1900000</ele>
        <time>2010-05-09T11:46:21Z</time>
      </trkpt>
      <trkpt lat="43.9922430" lon="7.7931750">
        <ele>794.6700000</ele>
        <time>2010-05-09T11:46:22Z</time>
      </trkpt>
      <trkpt lat="43.9923040" lon="7.7932590">
        <ele>796.1100000</ele>
        <time>2010-05-09T11:46:23Z</time>
      </trkpt>
      <trkpt lat="43.9923700" lon="7.7933400">
        <ele>797.5500000</ele>
        <time>2010-05-09T11:46:24Z</time>
      </trkpt>
      <trkpt lat="43.9924350" lon="7.7934300">
        <ele>798.5100000</ele>
        <time>2010-05-09T11:46:25Z</time>
      </trkpt>
      <trkpt lat="43.9925000" lon="7.7935320">
        <ele>799.9500000</ele>
        <time>2010-05-09T11:46:26Z</time>
      </trkpt>
      <trkpt lat="43.9926900" lon="7.7938470">
        <ele>802.3600000</ele>
        <time>2010-05-09T11:46:29Z</time>
      </trkpt>
      <trkpt lat="43.9928180" lon="7.7940210">
        <ele>804.7600000</ele>
        <time>2010-05-09T11:46:31Z</time>
      </trkpt>
      <trkpt lat="43.9928890" lon="7.7940870">
        <ele>805.7200000</ele>
        <time>2010-05-09T11:46:32Z</time>
      </trkpt>
      <trkpt lat="43.9929650" lon="7.7941340">
        <ele>807.1600000</ele>
        <time>2010-05-09T11:46:33Z</time>
      </trkpt>
      <trkpt lat="43.9930400" lon="7.7941660">
        <ele>807.6400000</ele>
        <time>2010-05-09T11:46:34Z</time>
      </trkpt>
      <trkpt lat="43.9931080" lon="7.7941890">
        <ele>808.1300000</ele>
        <time>2010-05-09T11:46:35Z</time>
      </trkpt>
      <trkpt lat="43.9933030" lon="7.7942980">
        <ele>808.1300000</ele>
        <time>2010-05-09T11:46:42Z</time>
      </trkpt>
      <trkpt lat="43.9933070" lon="7.7943000">
        <ele>807.6400000</ele>
        <time>2010-05-09T11:47:12Z</time>
      </trkpt>
      <trkpt lat="43.9932840" lon="7.7942920">
        <ele>806.2000000</ele>
        <time>2010-05-09T11:47:53Z</time>
      </trkpt>
      <trkpt lat="43.9932480" lon="7.7942620">
        <ele>811.4900000</ele>
        <time>2010-05-09T11:48:01Z</time>
      </trkpt>
      <trkpt lat="43.9932480" lon="7.7942620">
        <ele>806.2000000</ele>
        <time>2010-05-09T11:48:02Z</time>
      </trkpt>
      <trkpt lat="43.9932480" lon="7.7942620">
        <ele>812.9300000</ele>
        <time>2010-05-09T11:48:05Z</time>
      </trkpt>
      <trkpt lat="43.9932480" lon="7.7942620">
        <ele>801.4000000</ele>
        <time>2010-05-09T11:48:06Z</time>
      </trkpt>
      <trkpt lat="43.9932480" lon="7.7942620">
        <ele>808.6100000</ele>
        <time>2010-05-09T11:48:07Z</time>
      </trkpt>
      <trkpt lat="43.9932480" lon="7.7942620">
        <ele>804.2800000</ele>
        <time>2010-05-09T11:48:08Z</time>
      </trkpt>
      <trkpt lat="43.9932480" lon="7.7942620">
        <ele>808.1300000</ele>
        <time>2010-05-09T11:48:09Z</time>
      </trkpt>
      <trkpt lat="43.9932480" lon="7.7942620">
        <ele>812.4500000</ele>
        <time>2010-05-09T11:48:11Z</time>
      </trkpt>
      <trkpt lat="43.9932480" lon="7.7942620">
        <ele>806.2000000</ele>
        <time>2010-05-09T11:48:12Z</time>
      </trkpt>
      <trkpt lat="43.9932480" lon="7.7942620">
        <ele>803.3200000</ele>
        <time>2010-05-09T11:48:19Z</time>
      </trkpt>
      <trkpt lat="43.9932480" lon="7.7942620">
        <ele>797.0700000</ele>
        <time>2010-05-09T11:48:21Z</time>
      </trkpt>
      <trkpt lat="43.9932480" lon="7.7942620">
        <ele>792.2600000</ele>
        <time>2010-05-09T11:48:22Z</time>
      </trkpt>
      <trkpt lat="43.9932480" lon="7.7942620">
        <ele>808.6100000</ele>
        <time>2010-05-09T11:48:23Z</time>
      </trkpt>
      <trkpt lat="43.9932480" lon="7.7942620">
        <ele>806.6800000</ele>
        <time>2010-05-09T11:48:24Z</time>
      </trkpt>
      <trkpt lat="43.9932480" lon="7.7942620">
        <ele>811.9700000</ele>
        <time>2010-05-09T11:48:27Z</time>
      </trkpt>
      <trkpt lat="43.9932480" lon="7.7942620">
        <ele>806.6800000</ele>
        <time>2010-05-09T11:48:28Z</time>
      </trkpt>
      <trkpt lat="43.9932480" lon="7.7942620">
        <ele>778.3200000</ele>
        <time>2010-05-09T11:48:29Z</time>
      </trkpt>
      <trkpt lat="43.9932480" lon="7.7942620">
        <ele>809.5700000</ele>
        <time>2010-05-09T11:48:30Z</time>
      </trkpt>
      <trkpt lat="43.9932480" lon="7.7942620">
        <ele>829.2700000</ele>
        <time>2010-05-09T11:48:31Z</time>
      </trkpt>
      <trkpt lat="43.9932480" lon="7.7942620">
        <ele>806.2000000</ele>
        <time>2010-05-09T11:48:32Z</time>
      </trkpt>
      <trkpt lat="43.9932480" lon="7.7942620">
        <ele>806.2000000</ele>
        <time>2010-05-09T11:48:33Z</time>
      </trkpt>
      <trkpt lat="43.9932480" lon="7.7942620">
        <ele>811.9700000</ele>
        <time>2010-05-09T11:48:35Z</time>
      </trkpt>
      <trkpt lat="43.9932480" lon="7.7942620">
        <ele>825.9100000</ele>
        <time>2010-05-09T11:48:36Z</time>
      </trkpt>
      <trkpt lat="43.9932480" lon="7.7942620">
        <ele>808.6100000</ele>
        <time>2010-05-09T11:48:37Z</time>
      </trkpt>
      <trkpt lat="43.9932470" lon="7.7942630">
        <ele>815.3400000</ele>
        <time>2010-05-09T11:48:43Z</time>
      </trkpt>
      <trkpt lat="43.9932470" lon="7.7942630">
        <ele>819.6600000</ele>
        <time>2010-05-09T11:48:44Z</time>
      </trkpt>
      <trkpt lat="43.9932470" lon="7.7942630">
        <ele>806.6800000</ele>
        <time>2010-05-09T11:48:45Z</time>
      </trkpt>
      <trkpt lat="43.9932470" lon="7.7942630">
        <ele>805.7200000</ele>
        <time>2010-05-09T11:48:47Z</time>
      </trkpt>
      <trkpt lat="43.9932470" lon="7.7942630">
        <ele>810.0500000</ele>
        <time>2010-05-09T11:48:59Z</time>
      </trkpt>
      <trkpt lat="43.9932470" lon="7.7942630">
        <ele>806.6800000</ele>
        <time>2010-05-09T11:49:00Z</time>
      </trkpt>
      <trkpt lat="43.9932470" lon="7.7942630">
        <ele>806.6800000</ele>
        <time>2010-05-09T11:49:01Z</time>
      </trkpt>
      <trkpt lat="43.9933720" lon="7.7942400">
        <ele>806.2000000</ele>
        <time>2010-05-09T11:49:06Z</time>
      </trkpt>
      <trkpt lat="43.9932790" lon="7.7942630">
        <ele>811.4900000</ele>
        <time>2010-05-09T11:49:13Z</time>
      </trkpt>
      <trkpt lat="43.9932700" lon="7.7942510">
        <ele>807.6400000</ele>
        <time>2010-05-09T11:49:14Z</time>
      </trkpt>
      <trkpt lat="43.9932750" lon="7.7942300">
        <ele>808.6100000</ele>
        <time>2010-05-09T11:49:19Z</time>
      </trkpt>
      <trkpt lat="43.9932760" lon="7.7942310">
        <ele>804.2800000</ele>
        <time>2010-05-09T11:49:20Z</time>
      </trkpt>
      <trkpt lat="43.9932810" lon="7.7942330">
        <ele>806.6800000</ele>
        <time>2010-05-09T11:49:21Z</time>
      </trkpt>
      <trkpt lat="43.9932890" lon="7.7942360">
        <ele>802.3600000</ele>
        <time>2010-05-09T11:49:23Z</time>
      </trkpt>
      <trkpt lat="43.9932920" lon="7.7942360">
        <ele>806.6800000</ele>
        <time>2010-05-09T11:49:24Z</time>
      </trkpt>
      <trkpt lat="43.9932960" lon="7.7942350">
        <ele>810.5300000</ele>
        <time>2010-05-09T11:49:26Z</time>
      </trkpt>
      <trkpt lat="43.9932960" lon="7.7942350">
        <ele>810.0500000</ele>
        <time>2010-05-09T11:49:27Z</time>
      </trkpt>
      <trkpt lat="43.9932970" lon="7.7942340">
        <ele>805.7200000</ele>
        <time>2010-05-09T11:49:28Z</time>
      </trkpt>
      <trkpt lat="43.9932970" lon="7.7942340">
        <ele>802.3600000</ele>
        <time>2010-05-09T11:49:29Z</time>
      </trkpt>
      <trkpt lat="43.9932970" lon="7.7942350">
        <ele>810.5300000</ele>
        <time>2010-05-09T11:49:30Z</time>
      </trkpt>
      <trkpt lat="43.9933010" lon="7.7942370">
        <ele>806.2000000</ele>
        <time>2010-05-09T11:49:31Z</time>
      </trkpt>
      <trkpt lat="43.9933040" lon="7.7942420">
        <ele>799.4700000</ele>
        <time>2010-05-09T11:49:32Z</time>
      </trkpt>
      <trkpt lat="43.9933070" lon="7.7942500">
        <ele>807.6400000</ele>
        <time>2010-05-09T11:49:34Z</time>
      </trkpt>
      <trkpt lat="43.9933070" lon="7.7942520">
        <ele>807.1600000</ele>
        <time>2010-05-09T11:49:35Z</time>
      </trkpt>
      <trkpt lat="43.9932670" lon="7.7942630">
        <ele>806.2000000</ele>
        <time>2010-05-09T11:50:12Z</time>
      </trkpt>
      <trkpt lat="43.9932310" lon="7.7942850">
        <ele>806.2000000</ele>
        <time>2010-05-09T11:50:39Z</time>
      </trkpt>
      <trkpt lat="43.9931820" lon="7.7943050">
        <ele>804.2800000</ele>
        <time>2010-05-09T11:50:43Z</time>
      </trkpt>
      <trkpt lat="43.9931060" lon="7.7943140">
        <ele>800.9200000</ele>
        <time>2010-05-09T11:50:46Z</time>
      </trkpt>
      <trkpt lat="43.9930700" lon="7.7943930">
        <ele>797.5500000</ele>
        <time>2010-05-09T11:50:50Z</time>
      </trkpt>
      <trkpt lat="43.9930650" lon="7.7944700">
        <ele>794.6700000</ele>
        <time>2010-05-09T11:50:52Z</time>
      </trkpt>
      <trkpt lat="43.9930620" lon="7.7945470">
        <ele>794.1900000</ele>
        <time>2010-05-09T11:50:54Z</time>
      </trkpt>
      <trkpt lat="43.9930530" lon="7.7945580">
        <ele>793.7100000</ele>
        <time>2010-05-09T11:50:55Z</time>
      </trkpt>
      <trkpt lat="43.9929330" lon="7.7946140">
        <ele>788.4200000</ele>
        <time>2010-05-09T11:51:00Z</time>
      </trkpt>
      <trkpt lat="43.9928770" lon="7.7946530">
        <ele>786.5000000</ele>
        <time>2010-05-09T11:51:02Z</time>
      </trkpt>
      <trkpt lat="43.9928650" lon="7.7947300">
        <ele>783.6100000</ele>
        <time>2010-05-09T11:51:05Z</time>
      </trkpt>
      <trkpt lat="43.9928530" lon="7.7947810">
        <ele>781.6900000</ele>
        <time>2010-05-09T11:51:07Z</time>
      </trkpt>
      <trkpt lat="43.9927830" lon="7.7948160">
        <ele>776.8800000</ele>
        <time>2010-05-09T11:51:11Z</time>
      </trkpt>
      <trkpt lat="43.9927200" lon="7.7948220">
        <ele>773.5200000</ele>
        <time>2010-05-09T11:51:14Z</time>
      </trkpt>
      <trkpt lat="43.9926650" lon="7.7948280">
        <ele>770.6300000</ele>
        <time>2010-05-09T11:51:17Z</time>
      </trkpt>
      <trkpt lat="43.9926030" lon="7.7948720">
        <ele>766.3100000</ele>
        <time>2010-05-09T11:51:21Z</time>
      </trkpt>
      <trkpt lat="43.9924550" lon="7.7948910">
        <ele>761.9800000</ele>
        <time>2010-05-09T11:51:27Z</time>
      </trkpt>
      <trkpt lat="43.9924060" lon="7.7948770">
        <ele>759.5800000</ele>
        <time>2010-05-09T11:51:32Z</time>
      </trkpt>
      <trkpt lat="43.9924170" lon="7.7949610">
        <ele>758.6200000</ele>
        <time>2010-05-09T11:51:35Z</time>
      </trkpt>
      <trkpt lat="43.9925210" lon="7.7951010">
        <ele>754.2900000</ele>
        <time>2010-05-09T11:51:40Z</time>
      </trkpt>
      <trkpt lat="43.9925240" lon="7.7951210">
        <ele>753.8100000</ele>
        <time>2010-05-09T11:51:41Z</time>
      </trkpt>
      <trkpt lat="43.9924610" lon="7.7952670">
        <ele>748.5200000</ele>
        <time>2010-05-09T11:51:45Z</time>
      </trkpt>
      <trkpt lat="43.9924220" lon="7.7953720">
        <ele>745.1600000</ele>
        <time>2010-05-09T11:51:48Z</time>
      </trkpt>
      <trkpt lat="43.9924120" lon="7.7954080">
        <ele>745.1600000</ele>
        <time>2010-05-09T11:51:49Z</time>
      </trkpt>
      <trkpt lat="43.9923480" lon="7.7955410">
        <ele>740.3500000</ele>
        <time>2010-05-09T11:51:52Z</time>
      </trkpt>
      <trkpt lat="43.9923260" lon="7.7955890">
        <ele>739.8700000</ele>
        <time>2010-05-09T11:51:53Z</time>
      </trkpt>
      <trkpt lat="43.9922270" lon="7.7958040">
        <ele>735.5500000</ele>
        <time>2010-05-09T11:51:59Z</time>
      </trkpt>
      <trkpt lat="43.9922290" lon="7.7958370">
        <ele>734.1000000</ele>
        <time>2010-05-09T11:52:01Z</time>
      </trkpt>
      <trkpt lat="43.9922800" lon="7.7958790">
        <ele>732.1800000</ele>
        <time>2010-05-09T11:52:05Z</time>
      </trkpt>
      <trkpt lat="43.9923520" lon="7.7959250">
        <ele>728.3400000</ele>
        <time>2010-05-09T11:52:11Z</time>
      </trkpt>
      <trkpt lat="43.9923460" lon="7.7959370">
        <ele>727.3700000</ele>
        <time>2010-05-09T11:52:12Z</time>
      </trkpt>
      <trkpt lat="43.9923510" lon="7.7959950">
        <ele>724.4900000</ele>
        <time>2010-05-09T11:52:15Z</time>
      </trkpt>
      <trkpt lat="43.9923440" lon="7.7961530">
        <ele>721.1300000</ele>
        <time>2010-05-09T11:52:18Z</time>
      </trkpt>
      <trkpt lat="43.9923160" lon="7.7963640">
        <ele>716.3200000</ele>
        <time>2010-05-09T11:52:22Z</time>
      </trkpt>
      <trkpt lat="43.9923150" lon="7.7964740">
        <ele>712.9500000</ele>
        <time>2010-05-09T11:52:24Z</time>
      </trkpt>
      <trkpt lat="43.9923340" lon="7.7966370">
        <ele>710.0700000</ele>
        <time>2010-05-09T11:52:27Z</time>
      </trkpt>
      <trkpt lat="43.9923180" lon="7.7968240">
        <ele>705.2600000</ele>
        <time>2010-05-09T11:52:31Z</time>
      </trkpt>
      <trkpt lat="43.9923100" lon="7.7968570">
        <ele>704.3000000</ele>
        <time>2010-05-09T11:52:32Z</time>
      </trkpt>
      <trkpt lat="43.9923110" lon="7.7969060">
        <ele>702.8600000</ele>
        <time>2010-05-09T11:52:34Z</time>
      </trkpt>
      <trkpt lat="43.9923000" lon="7.7969600">
        <ele>701.4200000</ele>
        <time>2010-05-09T11:52:36Z</time>
      </trkpt>
      <trkpt lat="43.9921840" lon="7.7969950">
        <ele>698.0500000</ele>
        <time>2010-05-09T11:52:41Z</time>
      </trkpt>
      <trkpt lat="43.9921540" lon="7.7969670">
        <ele>696.6100000</ele>
        <time>2010-05-09T11:52:44Z</time>
      </trkpt>
      <trkpt lat="43.9921000" lon="7.7969220">
        <ele>692.7700000</ele>
        <time>2010-05-09T11:52:48Z</time>
      </trkpt>
      <trkpt lat="43.9919780" lon="7.7968630">
        <ele>690.3600000</ele>
        <time>2010-05-09T11:52:52Z</time>
      </trkpt>
      <trkpt lat="43.9919530" lon="7.7968320">
        <ele>690.8400000</ele>
        <time>2010-05-09T11:53:03Z</time>
      </trkpt>
      <trkpt lat="43.9919430" lon="7.7968300">
        <ele>691.3300000</ele>
        <time>2010-05-09T11:53:18Z</time>
      </trkpt>
      <trkpt lat="43.9918950" lon="7.7967410">
        <ele>691.8100000</ele>
        <time>2010-05-09T11:53:22Z</time>
      </trkpt>
      <trkpt lat="43.9917890" lon="7.7966350">
        <ele>689.8800000</ele>
        <time>2010-05-09T11:53:26Z</time>
      </trkpt>
      <trkpt lat="43.9914560" lon="7.7963660">
        <ele>690.8400000</ele>
        <time>2010-05-09T11:53:37Z</time>
      </trkpt>
      <trkpt lat="43.9913910" lon="7.7963180">
        <ele>692.7700000</ele>
        <time>2010-05-09T11:53:40Z</time>
      </trkpt>
      <trkpt lat="43.9912310" lon="7.7962460">
        <ele>690.3600000</ele>
        <time>2010-05-09T11:53:48Z</time>
      </trkpt>
      <trkpt lat="43.9912420" lon="7.7961370">
        <ele>688.4400000</ele>
        <time>2010-05-09T11:53:52Z</time>
      </trkpt>
      <trkpt lat="43.9912290" lon="7.7960710">
        <ele>687.9600000</ele>
        <time>2010-05-09T11:53:54Z</time>
      </trkpt>
      <trkpt lat="43.9912110" lon="7.7958100">
        <ele>684.6000000</ele>
        <time>2010-05-09T11:53:59Z</time>
      </trkpt>
      <trkpt lat="43.9912200" lon="7.7956960">
        <ele>683.1500000</ele>
        <time>2010-05-09T11:54:01Z</time>
      </trkpt>
      <trkpt lat="43.9911920" lon="7.7955600">
        <ele>677.8700000</ele>
        <time>2010-05-09T11:54:04Z</time>
      </trkpt>
      <trkpt lat="43.9910290" lon="7.7952510">
        <ele>676.9100000</ele>
        <time>2010-05-09T11:54:11Z</time>
      </trkpt>
      <trkpt lat="43.9910120" lon="7.7952550">
        <ele>675.9400000</ele>
        <time>2010-05-09T11:54:12Z</time>
      </trkpt>
      <trkpt lat="43.9909950" lon="7.7952630">
        <ele>675.4600000</ele>
        <time>2010-05-09T11:54:14Z</time>
      </trkpt>
      <trkpt lat="43.9909510" lon="7.7952560">
        <ele>673.0600000</ele>
        <time>2010-05-09T11:54:18Z</time>
      </trkpt>
      <trkpt lat="43.9909190" lon="7.7952460">
        <ele>670.6600000</ele>
        <time>2010-05-09T11:54:24Z</time>
      </trkpt>
      <trkpt lat="43.9908880" lon="7.7952180">
        <ele>669.7000000</ele>
        <time>2010-05-09T11:54:26Z</time>
      </trkpt>
      <trkpt lat="43.9908450" lon="7.7951830">
        <ele>668.2500000</ele>
        <time>2010-05-09T11:54:30Z</time>
      </trkpt>
      <trkpt lat="43.9908070" lon="7.7951320">
        <ele>665.8500000</ele>
        <time>2010-05-09T11:54:35Z</time>
      </trkpt>
      <trkpt lat="43.9908440" lon="7.7950380">
        <ele>664.4100000</ele>
        <time>2010-05-09T11:54:38Z</time>
      </trkpt>
      <trkpt lat="43.9909260" lon="7.7948110">
        <ele>662.4900000</ele>
        <time>2010-05-09T11:54:43Z</time>
      </trkpt>
      <trkpt lat="43.9908960" lon="7.7947050">
        <ele>661.0400000</ele>
        <time>2010-05-09T11:54:47Z</time>
      </trkpt>
      <trkpt lat="43.9907970" lon="7.7945580">
        <ele>662.0100000</ele>
        <time>2010-05-09T11:54:52Z</time>
      </trkpt>
      <trkpt lat="43.9906730" lon="7.7944620">
        <ele>662.0100000</ele>
        <time>2010-05-09T11:54:56Z</time>
      </trkpt>
      <trkpt lat="43.9904760" lon="7.7943820">
        <ele>660.5600000</ele>
        <time>2010-05-09T11:55:01Z</time>
      </trkpt>
      <trkpt lat="43.9903760" lon="7.7943550">
        <ele>660.0800000</ele>
        <time>2010-05-09T11:55:03Z</time>
      </trkpt>
      <trkpt lat="43.9901580" lon="7.7942460">
        <ele>658.6400000</ele>
        <time>2010-05-09T11:55:08Z</time>
      </trkpt>
      <trkpt lat="43.9901290" lon="7.7941030">
        <ele>659.6000000</ele>
        <time>2010-05-09T11:55:15Z</time>
      </trkpt>
      <trkpt lat="43.9901520" lon="7.7937720">
        <ele>658.1600000</ele>
        <time>2010-05-09T11:55:24Z</time>
      </trkpt>
      <trkpt lat="43.9901890" lon="7.7936600">
        <ele>656.2400000</ele>
        <time>2010-05-09T11:55:29Z</time>
      </trkpt>
      <trkpt lat="43.9902000" lon="7.7935500">
        <ele>654.3100000</ele>
        <time>2010-05-09T11:55:34Z</time>
      </trkpt>
      <trkpt lat="43.9901960" lon="7.7935280">
        <ele>653.3500000</ele>
        <time>2010-05-09T11:55:39Z</time>
      </trkpt>
      <trkpt lat="43.9901220" lon="7.7934320">
        <ele>651.9100000</ele>
        <time>2010-05-09T11:55:46Z</time>
      </trkpt>
      <trkpt lat="43.9900100" lon="7.7933670">
        <ele>652.3900000</ele>
        <time>2010-05-09T11:55:51Z</time>
      </trkpt>
      <trkpt lat="43.9899490" lon="7.7933770">
        <ele>649.9900000</ele>
        <time>2010-05-09T11:55:55Z</time>
      </trkpt>
      <trkpt lat="43.9899230" lon="7.7933790">
        <ele>650.4700000</ele>
        <time>2010-05-09T11:55:56Z</time>
      </trkpt>
      <trkpt lat="43.9898440" lon="7.7934000">
        <ele>650.4700000</ele>
        <time>2010-05-09T11:55:58Z</time>
      </trkpt>
      <trkpt lat="43.9896920" lon="7.7933930">
        <ele>652.3900000</ele>
        <time>2010-05-09T11:56:03Z</time>
      </trkpt>
      <trkpt lat="43.9895790" lon="7.7934100">
        <ele>652.8700000</ele>
        <time>2010-05-09T11:56:07Z</time>
      </trkpt>
      <trkpt lat="43.9892600" lon="7.7935080">
        <ele>654.3100000</ele>
        <time>2010-05-09T11:56:17Z</time>
      </trkpt>
      <trkpt lat="43.9891770" lon="7.7937070">
        <ele>652.8700000</ele>
        <time>2010-05-09T11:56:23Z</time>
      </trkpt>
      <trkpt lat="43.9889630" lon="7.7940140">
        <ele>654.3100000</ele>
        <time>2010-05-09T11:56:34Z</time>
      </trkpt>
      <trkpt lat="43.9889190" lon="7.7940500">
        <ele>654.3100000</ele>
        <time>2010-05-09T11:56:45Z</time>
      </trkpt>
      <trkpt lat="43.9887810" lon="7.7941320">
        <ele>656.7200000</ele>
        <time>2010-05-09T11:56:59Z</time>
      </trkpt>
      <trkpt lat="43.9887510" lon="7.7941220">
        <ele>657.6800000</ele>
        <time>2010-05-09T11:57:06Z</time>
      </trkpt>
      <trkpt lat="43.9887040" lon="7.7940890">
        <ele>658.1600000</ele>
        <time>2010-05-09T11:57:10Z</time>
      </trkpt>
      <trkpt lat="43.9885640" lon="7.7938670">
        <ele>660.0800000</ele>
        <time>2010-05-09T11:57:25Z</time>
      </trkpt>
      <trkpt lat="43.9883970" lon="7.7938380">
        <ele>660.5600000</ele>
        <time>2010-05-09T11:57:38Z</time>
      </trkpt>
      <trkpt lat="43.9883410" lon="7.7938300">
        <ele>659.1200000</ele>
        <time>2010-05-09T11:57:41Z</time>
      </trkpt>
      <trkpt lat="43.9882700" lon="7.7938670">
        <ele>657.2000000</ele>
        <time>2010-05-09T11:57:44Z</time>
      </trkpt>
      <trkpt lat="43.9881410" lon="7.7938180">
        <ele>654.8000000</ele>
        <time>2010-05-09T11:57:48Z</time>
      </trkpt>
      <trkpt lat="43.9879510" lon="7.7934090">
        <ele>653.3500000</ele>
        <time>2010-05-09T11:57:57Z</time>
      </trkpt>
      <trkpt lat="43.9879100" lon="7.7933000">
        <ele>652.8700000</ele>
        <time>2010-05-09T11:57:59Z</time>
      </trkpt>
      <trkpt lat="43.9878900" lon="7.7932440">
        <ele>652.8700000</ele>
        <time>2010-05-09T11:58:00Z</time>
      </trkpt>
      <trkpt lat="43.9878770" lon="7.7931880">
        <ele>653.3500000</ele>
        <time>2010-05-09T11:58:01Z</time>
      </trkpt>
      <trkpt lat="43.9878630" lon="7.7931340">
        <ele>653.3500000</ele>
        <time>2010-05-09T11:58:02Z</time>
      </trkpt>
      <trkpt lat="43.9878380" lon="7.7930870">
        <ele>653.8300000</ele>
        <time>2010-05-09T11:58:03Z</time>
      </trkpt>
      <trkpt lat="43.9878090" lon="7.7930410">
        <ele>652.8700000</ele>
        <time>2010-05-09T11:58:04Z</time>
      </trkpt>
      <trkpt lat="43.9877750" lon="7.7929940">
        <ele>652.8700000</ele>
        <time>2010-05-09T11:58:05Z</time>
      </trkpt>
      <trkpt lat="43.9877190" lon="7.7929420">
        <ele>653.3500000</ele>
        <time>2010-05-09T11:58:07Z</time>
      </trkpt>
      <trkpt lat="43.9876540" lon="7.7929130">
        <ele>652.8700000</ele>
        <time>2010-05-09T11:58:17Z</time>
      </trkpt>
      <trkpt lat="43.9875200" lon="7.7929380">
        <ele>648.5500000</ele>
        <time>2010-05-09T11:58:28Z</time>
      </trkpt>
      <trkpt lat="43.9874640" lon="7.7930250">
        <ele>647.5900000</ele>
        <time>2010-05-09T11:58:30Z</time>
      </trkpt>
      <trkpt lat="43.9874290" lon="7.7930480">
        <ele>646.1400000</ele>
        <time>2010-05-09T11:58:31Z</time>
      </trkpt>
      <trkpt lat="43.9874000" lon="7.7930700">
        <ele>646.1400000</ele>
        <time>2010-05-09T11:58:32Z</time>
      </trkpt>
      <trkpt lat="43.9872620" lon="7.7932520">
        <ele>643.2600000</ele>
        <time>2010-05-09T11:58:37Z</time>
      </trkpt>
      <trkpt lat="43.9871840" lon="7.7933130">
        <ele>641.3400000</ele>
        <time>2010-05-09T11:58:40Z</time>
      </trkpt>
      <trkpt lat="43.9871140" lon="7.7933790">
        <ele>639.8900000</ele>
        <time>2010-05-09T11:58:43Z</time>
      </trkpt>
      <trkpt lat="43.9870270" lon="7.7935260">
        <ele>636.0500000</ele>
        <time>2010-05-09T11:58:48Z</time>
      </trkpt>
      <trkpt lat="43.9870050" lon="7.7936570">
        <ele>631.2400000</ele>
        <time>2010-05-09T11:58:53Z</time>
      </trkpt>
      <trkpt lat="43.9870060" lon="7.7936920">
        <ele>631.2400000</ele>
        <time>2010-05-09T11:58:54Z</time>
      </trkpt>
      <trkpt lat="43.9870620" lon="7.7938310">
        <ele>627.4000000</ele>
        <time>2010-05-09T11:58:59Z</time>
      </trkpt>
      <trkpt lat="43.9870680" lon="7.7938490">
        <ele>626.9200000</ele>
        <time>2010-05-09T11:59:00Z</time>
      </trkpt>
      <trkpt lat="43.9869640" lon="7.7939040">
        <ele>624.0300000</ele>
        <time>2010-05-09T11:59:05Z</time>
      </trkpt>
      <trkpt lat="43.9868360" lon="7.7938570">
        <ele>620.6700000</ele>
        <time>2010-05-09T11:59:08Z</time>
      </trkpt>
      <trkpt lat="43.9867430" lon="7.7938260">
        <ele>619.2300000</ele>
        <time>2010-05-09T11:59:10Z</time>
      </trkpt>
      <trkpt lat="43.9866340" lon="7.7937270">
        <ele>616.3400000</ele>
        <time>2010-05-09T11:59:14Z</time>
      </trkpt>
      <trkpt lat="43.9865890" lon="7.7936400">
        <ele>613.9400000</ele>
        <time>2010-05-09T11:59:17Z</time>
      </trkpt>
      <trkpt lat="43.9864800" lon="7.7935330">
        <ele>610.0900000</ele>
        <time>2010-05-09T11:59:22Z</time>
      </trkpt>
      <trkpt lat="43.9864630" lon="7.7935160">
        <ele>609.1300000</ele>
        <time>2010-05-09T11:59:23Z</time>
      </trkpt>
      <trkpt lat="43.9863620" lon="7.7934580">
        <ele>606.2500000</ele>
        <time>2010-05-09T11:59:27Z</time>
      </trkpt>
      <trkpt lat="43.9862550" lon="7.7934190">
        <ele>603.8500000</ele>
        <time>2010-05-09T11:59:31Z</time>
      </trkpt>
      <trkpt lat="43.9861520" lon="7.7934170">
        <ele>600.0000000</ele>
        <time>2010-05-09T11:59:34Z</time>
      </trkpt>
      <trkpt lat="43.9861220" lon="7.7934400">
        <ele>599.5200000</ele>
        <time>2010-05-09T11:59:35Z</time>
      </trkpt>
      <trkpt lat="43.9859980" lon="7.7933850">
        <ele>594.2300000</ele>
        <time>2010-05-09T11:59:41Z</time>
      </trkpt>
      <trkpt lat="43.9860630" lon="7.7930940">
        <ele>589.9100000</ele>
        <time>2010-05-09T11:59:47Z</time>
      </trkpt>
      <trkpt lat="43.9860910" lon="7.7929750">
        <ele>587.5000000</ele>
        <time>2010-05-09T11:59:50Z</time>
      </trkpt>
      <trkpt lat="43.9860510" lon="7.7929280">
        <ele>586.0600000</ele>
        <time>2010-05-09T11:59:53Z</time>
      </trkpt>
      <trkpt lat="43.9860090" lon="7.7929480">
        <ele>585.1000000</ele>
        <time>2010-05-09T11:59:55Z</time>
      </trkpt>
      <trkpt lat="43.9859220" lon="7.7930370">
        <ele>580.7700000</ele>
        <time>2010-05-09T11:59:59Z</time>
      </trkpt>
      <trkpt lat="43.9858200" lon="7.7932000">
        <ele>577.4100000</ele>
        <time>2010-05-09T12:00:04Z</time>
      </trkpt>
      <trkpt lat="43.9858060" lon="7.7932270">
        <ele>576.9300000</ele>
        <time>2010-05-09T12:00:05Z</time>
      </trkpt>
      <trkpt lat="43.9857170" lon="7.7934010">
        <ele>573.0800000</ele>
        <time>2010-05-09T12:00:09Z</time>
      </trkpt>
      <trkpt lat="43.9856520" lon="7.7937370">
        <ele>568.7600000</ele>
        <time>2010-05-09T12:00:16Z</time>
      </trkpt>
      <trkpt lat="43.9856400" lon="7.7938120">
        <ele>567.8000000</ele>
        <time>2010-05-09T12:00:18Z</time>
      </trkpt>
      <trkpt lat="43.9855940" lon="7.7938470">
        <ele>565.8700000</ele>
        <time>2010-05-09T12:00:21Z</time>
      </trkpt>
      <trkpt lat="43.9855210" lon="7.7938130">
        <ele>562.9900000</ele>
        <time>2010-05-09T12:00:25Z</time>
      </trkpt>
      <trkpt lat="43.9854930" lon="7.7938130">
        <ele>561.5500000</ele>
        <time>2010-05-09T12:00:27Z</time>
      </trkpt>
      <trkpt lat="43.9854530" lon="7.7938310">
        <ele>558.6600000</ele>
        <time>2010-05-09T12:00:31Z</time>
      </trkpt>
      <trkpt lat="43.9853710" lon="7.7939480">
        <ele>555.3000000</ele>
        <time>2010-05-09T12:00:36Z</time>
      </trkpt>
      <trkpt lat="43.9853290" lon="7.7940530">
        <ele>552.9000000</ele>
        <time>2010-05-09T12:00:39Z</time>
      </trkpt>
      <trkpt lat="43.9852710" lon="7.7941440">
        <ele>550.9700000</ele>
        <time>2010-05-09T12:00:42Z</time>
      </trkpt>
      <trkpt lat="43.9852390" lon="7.7941590">
        <ele>549.5300000</ele>
        <time>2010-05-09T12:00:44Z</time>
      </trkpt>
      <trkpt lat="43.9851650" lon="7.7941680">
        <ele>548.0900000</ele>
        <time>2010-05-09T12:00:47Z</time>
      </trkpt>
      <trkpt lat="43.9851360" lon="7.7942240">
        <ele>547.1300000</ele>
        <time>2010-05-09T12:00:49Z</time>
      </trkpt>
      <trkpt lat="43.9851180" lon="7.7942470">
        <ele>546.6500000</ele>
        <time>2010-05-09T12:00:50Z</time>
      </trkpt>
      <trkpt lat="43.9850280" lon="7.7943550">
        <ele>542.8000000</ele>
        <time>2010-05-09T12:00:56Z</time>
      </trkpt>
      <trkpt lat="43.9849350" lon="7.7944470">
        <ele>539.9200000</ele>
        <time>2010-05-09T12:01:01Z</time>
      </trkpt>
      <trkpt lat="43.9848000" lon="7.7944370">
        <ele>535.5900000</ele>
        <time>2010-05-09T12:01:06Z</time>
      </trkpt>
      <trkpt lat="43.9847610" lon="7.7944830">
        <ele>533.6700000</ele>
        <time>2010-05-09T12:01:08Z</time>
      </trkpt>
      <trkpt lat="43.9847480" lon="7.7945700">
        <ele>531.7500000</ele>
        <time>2010-05-09T12:01:11Z</time>
      </trkpt>
      <trkpt lat="43.9846630" lon="7.7946450">
        <ele>528.3800000</ele>
        <time>2010-05-09T12:01:14Z</time>
      </trkpt>
      <trkpt lat="43.9845930" lon="7.7946660">
        <ele>527.4200000</ele>
        <time>2010-05-09T12:01:16Z</time>
      </trkpt>
      <trkpt lat="43.9845540" lon="7.7946630">
        <ele>526.4600000</ele>
        <time>2010-05-09T12:01:17Z</time>
      </trkpt>
      <trkpt lat="43.9844720" lon="7.7946310">
        <ele>524.5400000</ele>
        <time>2010-05-09T12:01:19Z</time>
      </trkpt>
      <trkpt lat="43.9842730" lon="7.7946350">
        <ele>520.2100000</ele>
        <time>2010-05-09T12:01:23Z</time>
      </trkpt>
      <trkpt lat="43.9842280" lon="7.7946450">
        <ele>519.7300000</ele>
        <time>2010-05-09T12:01:24Z</time>
      </trkpt>
      <trkpt lat="43.9841450" lon="7.7946750">
        <ele>517.8100000</ele>
        <time>2010-05-09T12:01:26Z</time>
      </trkpt>
      <trkpt lat="43.9839930" lon="7.7948260">
        <ele>513.4800000</ele>
        <time>2010-05-09T12:01:30Z</time>
      </trkpt>
      <trkpt lat="43.9839510" lon="7.7948580">
        <ele>513.4800000</ele>
        <time>2010-05-09T12:01:31Z</time>
      </trkpt>
      <trkpt lat="43.9839140" lon="7.7948710">
        <ele>513.0000000</ele>
        <time>2010-05-09T12:01:32Z</time>
      </trkpt>
      <trkpt lat="43.9838390" lon="7.7948900">
        <ele>509.6400000</ele>
        <time>2010-05-09T12:01:34Z</time>
      </trkpt>
      <trkpt lat="43.9836240" lon="7.7949530">
        <ele>505.3100000</ele>
        <time>2010-05-09T12:01:40Z</time>
      </trkpt>
      <trkpt lat="43.9834910" lon="7.7949830">
        <ele>501.9500000</ele>
        <time>2010-05-09T12:01:45Z</time>
      </trkpt>
      <trkpt lat="43.9834620" lon="7.7949990">
        <ele>500.9800000</ele>
        <time>2010-05-09T12:01:46Z</time>
      </trkpt>
      <trkpt lat="43.9832970" lon="7.7951000">
        <ele>498.1000000</ele>
        <time>2010-05-09T12:01:50Z</time>
      </trkpt>
      <trkpt lat="43.9831980" lon="7.7951650">
        <ele>496.6600000</ele>
        <time>2010-05-09T12:01:53Z</time>
      </trkpt>
      <trkpt lat="43.9830890" lon="7.7951610">
        <ele>494.2600000</ele>
        <time>2010-05-09T12:01:57Z</time>
      </trkpt>
      <trkpt lat="43.9829850" lon="7.7951780">
        <ele>491.8500000</ele>
        <time>2010-05-09T12:02:07Z</time>
      </trkpt>
      <trkpt lat="43.9829690" lon="7.7951810">
        <ele>491.8500000</ele>
        <time>2010-05-09T12:02:14Z</time>
      </trkpt>
      <trkpt lat="43.9829660" lon="7.7951440">
        <ele>489.4500000</ele>
        <time>2010-05-09T12:02:20Z</time>
      </trkpt>
      <trkpt lat="43.9829930" lon="7.7951440">
        <ele>488.0100000</ele>
        <time>2010-05-09T12:02:23Z</time>
      </trkpt>
      <trkpt lat="43.9830250" lon="7.7951070">
        <ele>485.6000000</ele>
        <time>2010-05-09T12:02:29Z</time>
      </trkpt>
      <trkpt lat="43.9829350" lon="7.7950910">
        <ele>483.2000000</ele>
        <time>2010-05-09T12:02:34Z</time>
      </trkpt>
      <trkpt lat="43.9827590" lon="7.7950090">
        <ele>478.8700000</ele>
        <time>2010-05-09T12:02:39Z</time>
      </trkpt>
      <trkpt lat="43.9825880" lon="7.7949740">
        <ele>475.9900000</ele>
        <time>2010-05-09T12:02:43Z</time>
      </trkpt>
      <trkpt lat="43.9825550" lon="7.7949920">
        <ele>475.9900000</ele>
        <time>2010-05-09T12:02:44Z</time>
      </trkpt>
      <trkpt lat="43.9824470" lon="7.7949490">
        <ele>473.1100000</ele>
        <time>2010-05-09T12:02:48Z</time>
      </trkpt>
      <trkpt lat="43.9823580" lon="7.7949410">
        <ele>471.1800000</ele>
        <time>2010-05-09T12:02:51Z</time>
      </trkpt>
      <trkpt lat="43.9822590" lon="7.7949100">
        <ele>467.3400000</ele>
        <time>2010-05-09T12:02:57Z</time>
      </trkpt>
      <trkpt lat="43.9822400" lon="7.7949080">
        <ele>466.8600000</ele>
        <time>2010-05-09T12:02:58Z</time>
      </trkpt>
      <trkpt lat="43.9821170" lon="7.7948750">
        <ele>462.5300000</ele>
        <time>2010-05-09T12:03:03Z</time>
      </trkpt>
      <trkpt lat="43.9820140" lon="7.7948260">
        <ele>459.1700000</ele>
        <time>2010-05-09T12:03:06Z</time>
      </trkpt>
      <trkpt lat="43.9818490" lon="7.7947510">
        <ele>455.3200000</ele>
        <time>2010-05-09T12:03:11Z</time>
      </trkpt>
      <trkpt lat="43.9817280" lon="7.7946730">
        <ele>451.4800000</ele>
        <time>2010-05-09T12:03:18Z</time>
      </trkpt>
      <trkpt lat="43.9816480" lon="7.7946340">
        <ele>448.5900000</ele>
        <time>2010-05-09T12:03:24Z</time>
      </trkpt>
      <trkpt lat="43.9815850" lon="7.7946350">
        <ele>446.1900000</ele>
        <time>2010-05-09T12:03:31Z</time>
      </trkpt>
      <trkpt lat="43.9815450" lon="7.7945310">
        <ele>442.8200000</ele>
        <time>2010-05-09T12:03:35Z</time>
      </trkpt>
      <trkpt lat="43.9815720" lon="7.7944580">
        <ele>441.8600000</ele>
        <time>2010-05-09T12:03:37Z</time>
      </trkpt>
      <trkpt lat="43.9815720" lon="7.7944210">
        <ele>440.9000000</ele>
        <time>2010-05-09T12:03:39Z</time>
      </trkpt>
      <trkpt lat="43.9815230" lon="7.7944570">
        <ele>439.9400000</ele>
        <time>2010-05-09T12:03:42Z</time>
      </trkpt>
      <trkpt lat="43.9814780" lon="7.7945100">
        <ele>438.5000000</ele>
        <time>2010-05-09T12:03:44Z</time>
      </trkpt>
      <trkpt lat="43.9814310" lon="7.7945660">
        <ele>436.5800000</ele>
        <time>2010-05-09T12:03:48Z</time>
      </trkpt>
      <trkpt lat="43.9814190" lon="7.7944480">
        <ele>434.6500000</ele>
        <time>2010-05-09T12:03:52Z</time>
      </trkpt>
      <trkpt lat="43.9814660" lon="7.7943810">
        <ele>433.2100000</ele>
        <time>2010-05-09T12:03:58Z</time>
      </trkpt>
      <trkpt lat="43.9813410" lon="7.7944210">
        <ele>429.8500000</ele>
        <time>2010-05-09T12:04:04Z</time>
      </trkpt>
      <trkpt lat="43.9813010" lon="7.7944330">
        <ele>428.8900000</ele>
        <time>2010-05-09T12:04:08Z</time>
      </trkpt>
      <trkpt lat="43.9813160" lon="7.7943450">
        <ele>427.9200000</ele>
        <time>2010-05-09T12:04:11Z</time>
      </trkpt>
      <trkpt lat="43.9813260" lon="7.7943060">
        <ele>426.4800000</ele>
        <time>2010-05-09T12:04:15Z</time>
      </trkpt>
      <trkpt lat="43.9813540" lon="7.7942880">
        <ele>425.0400000</ele>
        <time>2010-05-09T12:04:19Z</time>
      </trkpt>
      <trkpt lat="43.9813360" lon="7.7942780">
        <ele>424.0800000</ele>
        <time>2010-05-09T12:04:21Z</time>
      </trkpt>
      <trkpt lat="43.9812990" lon="7.7942910">
        <ele>423.6000000</ele>
        <time>2010-05-09T12:04:23Z</time>
      </trkpt>
      <trkpt lat="43.9812150" lon="7.7943930">
        <ele>421.1900000</ele>
        <time>2010-05-09T12:04:27Z</time>
      </trkpt>
      <trkpt lat="43.9811690" lon="7.7944940">
        <ele>419.2700000</ele>
        <time>2010-05-09T12:04:30Z</time>
      </trkpt>
      <trkpt lat="43.9811210" lon="7.7944590">
        <ele>416.8700000</ele>
        <time>2010-05-09T12:04:33Z</time>
      </trkpt>
      <trkpt lat="43.9810930" lon="7.7943020">
        <ele>414.4700000</ele>
        <time>2010-05-09T12:04:37Z</time>
      </trkpt>
      <trkpt lat="43.9810830" lon="7.7942930">
        <ele>419.2700000</ele>
        <time>2010-05-09T12:04:46Z</time>
      </trkpt>
      <trkpt lat="43.9810830" lon="7.7942930">
        <ele>406.7700000</ele>
        <time>2010-05-09T12:04:47Z</time>
      </trkpt>
      <trkpt lat="43.9810830" lon="7.7942930">
        <ele>409.6600000</ele>
        <time>2010-05-09T12:04:48Z</time>
      </trkpt>
      <trkpt lat="43.9810830" lon="7.7942930">
        <ele>415.9100000</ele>
        <time>2010-05-09T12:04:49Z</time>
      </trkpt>
      <trkpt lat="43.9810830" lon="7.7942930">
        <ele>411.1000000</ele>
        <time>2010-05-09T12:04:50Z</time>
      </trkpt>
      <trkpt lat="43.9810830" lon="7.7942930">
        <ele>414.4700000</ele>
        <time>2010-05-09T12:04:51Z</time>
      </trkpt>
      <trkpt lat="43.9810830" lon="7.7942930">
        <ele>412.0600000</ele>
        <time>2010-05-09T12:05:03Z</time>
      </trkpt>
      <trkpt lat="43.9810830" lon="7.7942930">
        <ele>416.3900000</ele>
        <time>2010-05-09T12:05:04Z</time>
      </trkpt>
      <trkpt lat="43.9810830" lon="7.7942930">
        <ele>415.4300000</ele>
        <time>2010-05-09T12:05:06Z</time>
      </trkpt>
      <trkpt lat="43.9810830" lon="7.7942930">
        <ele>411.5800000</ele>
        <time>2010-05-09T12:05:07Z</time>
      </trkpt>
      <trkpt lat="43.9810720" lon="7.7942340">
        <ele>413.9800000</ele>
        <time>2010-05-09T12:05:23Z</time>
      </trkpt>
      <trkpt lat="43.9809710" lon="7.7942050">
        <ele>410.1400000</ele>
        <time>2010-05-09T12:05:28Z</time>
      </trkpt>
      <trkpt lat="43.9809520" lon="7.7942000">
        <ele>409.6600000</ele>
        <time>2010-05-09T12:05:29Z</time>
      </trkpt>
      <trkpt lat="43.9809550" lon="7.7941540">
        <ele>409.6600000</ele>
        <time>2010-05-09T12:05:33Z</time>
      </trkpt>
      <trkpt lat="43.9809870" lon="7.7941480">
        <ele>409.6600000</ele>
        <time>2010-05-09T12:05:36Z</time>
      </trkpt>
      <trkpt lat="43.9811110" lon="7.7941330">
        <ele>409.6600000</ele>
        <time>2010-05-09T12:05:48Z</time>
      </trkpt>
      <trkpt lat="43.9811050" lon="7.7941400">
        <ele>415.4300000</ele>
        <time>2010-05-09T12:09:24Z</time>
      </trkpt>
      <trkpt lat="43.9811050" lon="7.7941400">
        <ele>409.6600000</ele>
        <time>2010-05-09T12:09:25Z</time>
      </trkpt>
      <trkpt lat="43.9810950" lon="7.7941330">
        <ele>408.7000000</ele>
        <time>2010-05-09T12:10:35Z</time>
      </trkpt>
      <trkpt lat="43.9811030" lon="7.7940900">
        <ele>408.2200000</ele>
        <time>2010-05-09T12:16:44Z</time>
      </trkpt>
      <trkpt lat="43.9813760" lon="7.7939980">
        <ele>407.7400000</ele>
        <time>2010-05-09T12:16:56Z</time>
      </trkpt>
      <trkpt lat="43.9818050" lon="7.7940340">
        <ele>407.7400000</ele>
        <time>2010-05-09T12:17:10Z</time>
      </trkpt>
      <trkpt lat="43.9821960" lon="7.7940160">
        <ele>408.2200000</ele>
        <time>2010-05-09T12:17:23Z</time>
      </trkpt>
      <trkpt lat="43.9825970" lon="7.7938610">
        <ele>408.7000000</ele>
        <time>2010-05-09T12:17:36Z</time>
      </trkpt>
      <trkpt lat="43.9830830" lon="7.7935990">
        <ele>410.6200000</ele>
        <time>2010-05-09T12:17:53Z</time>
      </trkpt>
      <trkpt lat="43.9834450" lon="7.7932820">
        <ele>413.5000000</ele>
        <time>2010-05-09T12:18:08Z</time>
      </trkpt>
      <trkpt lat="43.9836680" lon="7.7929970">
        <ele>414.9500000</ele>
        <time>2010-05-09T12:18:19Z</time>
      </trkpt>
      <trkpt lat="43.9838300" lon="7.7926300">
        <ele>418.3100000</ele>
        <time>2010-05-09T12:18:30Z</time>
      </trkpt>
      <trkpt lat="43.9838690" lon="7.7921570">
        <ele>420.2300000</ele>
        <time>2010-05-09T12:18:42Z</time>
      </trkpt>
      <trkpt lat="43.9838380" lon="7.7917110">
        <ele>421.1900000</ele>
        <time>2010-05-09T12:18:53Z</time>
      </trkpt>
      <trkpt lat="43.9836900" lon="7.7910590">
        <ele>422.6400000</ele>
        <time>2010-05-09T12:19:10Z</time>
      </trkpt>
      <trkpt lat="43.9834690" lon="7.7904220">
        <ele>425.0400000</ele>
        <time>2010-05-09T12:19:27Z</time>
      </trkpt>
      <trkpt lat="43.9832880" lon="7.7898860">
        <ele>426.9600000</ele>
        <time>2010-05-09T12:19:42Z</time>
      </trkpt>
      <trkpt lat="43.9833310" lon="7.7892590">
        <ele>429.8500000</ele>
        <time>2010-05-09T12:19:57Z</time>
      </trkpt>
      <trkpt lat="43.9835850" lon="7.7888400">
        <ele>432.2500000</ele>
        <time>2010-05-09T12:20:10Z</time>
      </trkpt>
      <trkpt lat="43.9840050" lon="7.7884390">
        <ele>434.1700000</ele>
        <time>2010-05-09T12:20:26Z</time>
      </trkpt>
      <trkpt lat="43.9843900" lon="7.7879580">
        <ele>435.1300000</ele>
        <time>2010-05-09T12:20:42Z</time>
      </trkpt>
      <trkpt lat="43.9847600" lon="7.7874700">
        <ele>437.5400000</ele>
        <time>2010-05-09T12:20:56Z</time>
      </trkpt>
      <trkpt lat="43.9848730" lon="7.7868840">
        <ele>438.0200000</ele>
        <time>2010-05-09T12:21:08Z</time>
      </trkpt>
      <trkpt lat="43.9849530" lon="7.7861090">
        <ele>440.4200000</ele>
        <time>2010-05-09T12:21:23Z</time>
      </trkpt>
      <trkpt lat="43.9849030" lon="7.7851290">
        <ele>441.3800000</ele>
        <time>2010-05-09T12:21:42Z</time>
      </trkpt>
      <trkpt lat="43.9847680" lon="7.7840480">
        <ele>442.3400000</ele>
        <time>2010-05-09T12:22:03Z</time>
      </trkpt>
      <trkpt lat="43.9846470" lon="7.7830900">
        <ele>443.7900000</ele>
        <time>2010-05-09T12:22:22Z</time>
      </trkpt>
      <trkpt lat="43.9849330" lon="7.7823500">
        <ele>444.2700000</ele>
        <time>2010-05-09T12:22:38Z</time>
      </trkpt>
      <trkpt lat="43.9854110" lon="7.7817440">
        <ele>445.7100000</ele>
        <time>2010-05-09T12:22:54Z</time>
      </trkpt>
      <trkpt lat="43.9857470" lon="7.7812850">
        <ele>447.6300000</ele>
        <time>2010-05-09T12:23:06Z</time>
      </trkpt>
      <trkpt lat="43.9857580" lon="7.7812340">
        <ele>447.6300000</ele>
        <time>2010-05-09T12:23:07Z</time>
      </trkpt>
      <trkpt lat="43.9857670" lon="7.7811800">
        <ele>447.1500000</ele>
        <time>2010-05-09T12:23:08Z</time>
      </trkpt>
      <trkpt lat="43.9858040" lon="7.7809390">
        <ele>447.6300000</ele>
        <time>2010-05-09T12:23:12Z</time>
      </trkpt>
      <trkpt lat="43.9858340" lon="7.7802480">
        <ele>448.1100000</ele>
        <time>2010-05-09T12:23:24Z</time>
      </trkpt>
      <trkpt lat="43.9858900" lon="7.7791810">
        <ele>448.5900000</ele>
        <time>2010-05-09T12:23:42Z</time>
      </trkpt>
      <trkpt lat="43.9860500" lon="7.7787530">
        <ele>449.0700000</ele>
        <time>2010-05-09T12:23:50Z</time>
      </trkpt>
      <trkpt lat="43.9862760" lon="7.7783040">
        <ele>449.5500000</ele>
        <time>2010-05-09T12:23:59Z</time>
      </trkpt>
      <trkpt lat="43.9863750" lon="7.7781690">
        <ele>449.5500000</ele>
        <time>2010-05-09T12:24:02Z</time>
      </trkpt>
      <trkpt lat="43.9867760" lon="7.7777710">
        <ele>450.5200000</ele>
        <time>2010-05-09T12:24:13Z</time>
      </trkpt>
      <trkpt lat="43.9870370" lon="7.7775220">
        <ele>451.0000000</ele>
        <time>2010-05-09T12:24:20Z</time>
      </trkpt>
      <trkpt lat="43.9871870" lon="7.7773800">
        <ele>451.0000000</ele>
        <time>2010-05-09T12:24:24Z</time>
      </trkpt>
      <trkpt lat="43.9873720" lon="7.7771590">
        <ele>451.4800000</ele>
        <time>2010-05-09T12:24:30Z</time>
      </trkpt>
      <trkpt lat="43.9873730" lon="7.7771090">
        <ele>451.4800000</ele>
        <time>2010-05-09T12:24:31Z</time>
      </trkpt>
      <trkpt lat="43.9873510" lon="7.7770780">
        <ele>451.4800000</ele>
        <time>2010-05-09T12:24:32Z</time>
      </trkpt>
    </trkseg>
  </trk>

  <trk>
    <name>PS1</name>
    <extensions>
      <gpxx:TrackExtension xmlns:gpxx="http://www.garmin.com/xmlschemas/GpxExtensions/v3">
        <gpxx:DisplayColor>Green</gpxx:DisplayColor>
      </gpxx:TrackExtension>
    </extensions>
    <trkseg>
      <trkpt lat="43.9933010" lon="7.7942370">
        <ele>806.2000000</ele>
        <time>2010-05-09T11:49:31Z</time>
      </trkpt>
      <trkpt lat="43.9933040" lon="7.7942420">
        <ele>799.4700000</ele>
        <time>2010-05-09T11:49:32Z</time>
      </trkpt>
      <trkpt lat="43.9933070" lon="7.7942500">
        <ele>807.6400000</ele>
        <time>2010-05-09T11:49:34Z</time>
      </trkpt>
      <trkpt lat="43.9933070" lon="7.7942520">
        <ele>807.1600000</ele>
        <time>2010-05-09T11:49:35Z</time>
      </trkpt>
      <trkpt lat="43.9932670" lon="7.7942630">
        <ele>806.2000000</ele>
        <time>2010-05-09T11:50:12Z</time>
      </trkpt>
      <trkpt lat="43.9932310" lon="7.7942850">
        <ele>806.2000000</ele>
        <time>2010-05-09T11:50:39Z</time>
      </trkpt>
      <trkpt lat="43.9931820" lon="7.7943050">
        <ele>804.2800000</ele>
        <time>2010-05-09T11:50:43Z</time>
      </trkpt>
      <trkpt lat="43.9931060" lon="7.7943140">
        <ele>800.9200000</ele>
        <time>2010-05-09T11:50:46Z</time>
      </trkpt>
      <trkpt lat="43.9930700" lon="7.7943930">
        <ele>797.5500000</ele>
        <time>2010-05-09T11:50:50Z</time>
      </trkpt>
      <trkpt lat="43.9930650" lon="7.7944700">
        <ele>794.6700000</ele>
        <time>2010-05-09T11:50:52Z</time>
      </trkpt>
      <trkpt lat="43.9930620" lon="7.7945470">
        <ele>794.1900000</ele>
        <time>2010-05-09T11:50:54Z</time>
      </trkpt>
      <trkpt lat="43.9930530" lon="7.7945580">
        <ele>793.7100000</ele>
        <time>2010-05-09T11:50:55Z</time>
      </trkpt>
      <trkpt lat="43.9929330" lon="7.7946140">
        <ele>788.4200000</ele>
        <time>2010-05-09T11:51:00Z</time>
      </trkpt>
      <trkpt lat="43.9928770" lon="7.7946530">
        <ele>786.5000000</ele>
        <time>2010-05-09T11:51:02Z</time>
      </trkpt>
      <trkpt lat="43.9928650" lon="7.7947300">
        <ele>783.6100000</ele>
        <time>2010-05-09T11:51:05Z</time>
      </trkpt>
      <trkpt lat="43.9928530" lon="7.7947810">
        <ele>781.6900000</ele>
        <time>2010-05-09T11:51:07Z</time>
      </trkpt>
      <trkpt lat="43.9927830" lon="7.7948160">
        <ele>776.8800000</ele>
        <time>2010-05-09T11:51:11Z</time>
      </trkpt>
      <trkpt lat="43.9927200" lon="7.7948220">
        <ele>773.5200000</ele>
        <time>2010-05-09T11:51:14Z</time>
      </trkpt>
      <trkpt lat="43.9926650" lon="7.7948280">
        <ele>770.6300000</ele>
        <time>2010-05-09T11:51:17Z</time>
      </trkpt>
      <trkpt lat="43.9926030" lon="7.7948720">
        <ele>766.3100000</ele>
        <time>2010-05-09T11:51:21Z</time>
      </trkpt>
      <trkpt lat="43.9924550" lon="7.7948910">
        <ele>761.9800000</ele>
        <time>2010-05-09T11:51:27Z</time>
      </trkpt>
      <trkpt lat="43.9924060" lon="7.7948770">
        <ele>759.5800000</ele>
        <time>2010-05-09T11:51:32Z</time>
      </trkpt>
      <trkpt lat="43.9924170" lon="7.7949610">
        <ele>758.6200000</ele>
        <time>2010-05-09T11:51:35Z</time>
      </trkpt>
      <trkpt lat="43.9925210" lon="7.7951010">
        <ele>754.2900000</ele>
        <time>2010-05-09T11:51:40Z</time>
      </trkpt>
      <trkpt lat="43.9925240" lon="7.7951210">
        <ele>753.8100000</ele>
        <time>2010-05-09T11:51:41Z</time>
      </trkpt>
      <trkpt lat="43.9924610" lon="7.7952670">
        <ele>748.5200000</ele>
        <time>2010-05-09T11:51:45Z</time>
      </trkpt>
      <trkpt lat="43.9924220" lon="7.7953720">
        <ele>745.1600000</ele>
        <time>2010-05-09T11:51:48Z</time>
      </trkpt>
      <trkpt lat="43.9924120" lon="7.7954080">
        <ele>745.1600000</ele>
        <time>2010-05-09T11:51:49Z</time>
      </trkpt>
      <trkpt lat="43.9923480" lon="7.7955410">
        <ele>740.3500000</ele>
        <time>2010-05-09T11:51:52Z</time>
      </trkpt>
      <trkpt lat="43.9923260" lon="7.7955890">
        <ele>739.8700000</ele>
        <time>2010-05-09T11:51:53Z</time>
      </trkpt>
      <trkpt lat="43.9922270" lon="7.7958040">
        <ele>735.5500000</ele>
        <time>2010-05-09T11:51:59Z</time>
      </trkpt>
      <trkpt lat="43.9922290" lon="7.7958370">
        <ele>734.1000000</ele>
        <time>2010-05-09T11:52:01Z</time>
      </trkpt>
      <trkpt lat="43.9922800" lon="7.7958790">
        <ele>732.1800000</ele>
        <time>2010-05-09T11:52:05Z</time>
      </trkpt>
      <trkpt lat="43.9923520" lon="7.7959250">
        <ele>728.3400000</ele>
        <time>2010-05-09T11:52:11Z</time>
      </trkpt>
      <trkpt lat="43.9923460" lon="7.7959370">
        <ele>727.3700000</ele>
        <time>2010-05-09T11:52:12Z</time>
      </trkpt>
      <trkpt lat="43.9923510" lon="7.7959950">
        <ele>724.4900000</ele>
        <time>2010-05-09T11:52:15Z</time>
      </trkpt>
      <trkpt lat="43.9923440" lon="7.7961530">
        <ele>721.1300000</ele>
        <time>2010-05-09T11:52:18Z</time>
      </trkpt>
      <trkpt lat="43.9923160" lon="7.7963640">
        <ele>716.3200000</ele>
        <time>2010-05-09T11:52:22Z</time>
      </trkpt>
      <trkpt lat="43.9923150" lon="7.7964740">
        <ele>712.9500000</ele>
        <time>2010-05-09T11:52:24Z</time>
      </trkpt>
      <trkpt lat="43.9923340" lon="7.7966370">
        <ele>710.0700000</ele>
        <time>2010-05-09T11:52:27Z</time>
      </trkpt>
      <trkpt lat="43.9923180" lon="7.7968240">
        <ele>705.2600000</ele>
        <time>2010-05-09T11:52:31Z</time>
      </trkpt>
      <trkpt lat="43.9923100" lon="7.7968570">
        <ele>704.3000000</ele>
        <time>2010-05-09T11:52:32Z</time>
      </trkpt>
      <trkpt lat="43.9923110" lon="7.7969060">
        <ele>702.8600000</ele>
        <time>2010-05-09T11:52:34Z</time>
      </trkpt>
      <trkpt lat="43.9923000" lon="7.7969600">
        <ele>701.4200000</ele>
        <time>2010-05-09T11:52:36Z</time>
      </trkpt>
      <trkpt lat="43.9921840" lon="7.7969950">
        <ele>698.0500000</ele>
        <time>2010-05-09T11:52:41Z</time>
      </trkpt>
      <trkpt lat="43.9921540" lon="7.7969670">
        <ele>696.6100000</ele>
        <time>2010-05-09T11:52:44Z</time>
      </trkpt>
      <trkpt lat="43.9921000" lon="7.7969220">
        <ele>692.7700000</ele>
        <time>2010-05-09T11:52:48Z</time>
      </trkpt>
      <trkpt lat="43.9919780" lon="7.7968630">
        <ele>690.3600000</ele>
        <time>2010-05-09T11:52:52Z</time>
      </trkpt>
      <trkpt lat="43.9919530" lon="7.7968320">
        <ele>690.8400000</ele>
        <time>2010-05-09T11:53:03Z</time>
      </trkpt>
      <trkpt lat="43.9919430" lon="7.7968300">
        <ele>691.3300000</ele>
        <time>2010-05-09T11:53:18Z</time>
      </trkpt>
      <trkpt lat="43.9918950" lon="7.7967410">
        <ele>691.8100000</ele>
        <time>2010-05-09T11:53:22Z</time>
      </trkpt>
      <trkpt lat="43.9917890" lon="7.7966350">
        <ele>689.8800000</ele>
        <time>2010-05-09T11:53:26Z</time>
      </trkpt>
      <trkpt lat="43.9914560" lon="7.7963660">
        <ele>690.8400000</ele>
        <time>2010-05-09T11:53:37Z</time>
      </trkpt>
      <trkpt lat="43.9913910" lon="7.7963180">
        <ele>692.7700000</ele>
        <time>2010-05-09T11:53:40Z</time>
      </trkpt>
      <trkpt lat="43.9912310" lon="7.7962460">
        <ele>690.3600000</ele>
        <time>2010-05-09T11:53:48Z</time>
      </trkpt>
      <trkpt lat="43.9912420" lon="7.7961370">
        <ele>688.4400000</ele>
        <time>2010-05-09T11:53:52Z</time>
      </trkpt>
      <trkpt lat="43.9912290" lon="7.7960710">
        <ele>687.9600000</ele>
        <time>2010-05-09T11:53:54Z</time>
      </trkpt>
      <trkpt lat="43.9912110" lon="7.7958100">
        <ele>684.6000000</ele>
        <time>2010-05-09T11:53:59Z</time>
      </trkpt>
      <trkpt lat="43.9912200" lon="7.7956960">
        <ele>683.1500000</ele>
        <time>2010-05-09T11:54:01Z</time>
      </trkpt>
      <trkpt lat="43.9911920" lon="7.7955600">
        <ele>677.8700000</ele>
        <time>2010-05-09T11:54:04Z</time>
      </trkpt>
      <trkpt lat="43.9910290" lon="7.7952510">
        <ele>676.9100000</ele>
        <time>2010-05-09T11:54:11Z</time>
      </trkpt>
      <trkpt lat="43.9910120" lon="7.7952550">
        <ele>675.9400000</ele>
        <time>2010-05-09T11:54:12Z</time>
      </trkpt>
      <trkpt lat="43.9909950" lon="7.7952630">
        <ele>675.4600000</ele>
        <time>2010-05-09T11:54:14Z</time>
      </trkpt>
      <trkpt lat="43.9909510" lon="7.7952560">
        <ele>673.0600000</ele>
        <time>2010-05-09T11:54:18Z</time>
      </trkpt>
      <trkpt lat="43.9909190" lon="7.7952460">
        <ele>670.6600000</ele>
        <time>2010-05-09T11:54:24Z</time>
      </trkpt>
      <trkpt lat="43.9908880" lon="7.7952180">
        <ele>669.7000000</ele>
        <time>2010-05-09T11:54:26Z</time>
      </trkpt>
      <trkpt lat="43.9908450" lon="7.7951830">
        <ele>668.2500000</ele>
        <time>2010-05-09T11:54:30Z</time>
      </trkpt>
      <trkpt lat="43.9908070" lon="7.7951320">
        <ele>665.8500000</ele>
        <time>2010-05-09T11:54:35Z</time>
      </trkpt>
      <trkpt lat="43.9908440" lon="7.7950380">
        <ele>664.4100000</ele>
        <time>2010-05-09T11:54:38Z</time>
      </trkpt>
      <trkpt lat="43.9909260" lon="7.7948110">
        <ele>662.4900000</ele>
        <time>2010-05-09T11:54:43Z</time>
      </trkpt>
      <trkpt lat="43.9908960" lon="7.7947050">
        <ele>661.0400000</ele>
        <time>2010-05-09T11:54:47Z</time>
      </trkpt>
      <trkpt lat="43.9907970" lon="7.7945580">
        <ele>662.0100000</ele>
        <time>2010-05-09T11:54:52Z</time>
      </trkpt>
      <trkpt lat="43.9906730" lon="7.7944620">
        <ele>662.0100000</ele>
        <time>2010-05-09T11:54:56Z</time>
      </trkpt>
      <trkpt lat="43.9904760" lon="7.7943820">
        <ele>660.5600000</ele>
        <time>2010-05-09T11:55:01Z</time>
      </trkpt>
      <trkpt lat="43.9903760" lon="7.7943550">
        <ele>660.0800000</ele>
        <time>2010-05-09T11:55:03Z</time>
      </trkpt>
      <trkpt lat="43.9901580" lon="7.7942460">
        <ele>658.6400000</ele>
        <time>2010-05-09T11:55:08Z</time>
      </trkpt>
      <trkpt lat="43.9901290" lon="7.7941030">
        <ele>659.6000000</ele>
        <time>2010-05-09T11:55:15Z</time>
      </trkpt>
      <trkpt lat="43.9901520" lon="7.7937720">
        <ele>658.1600000</ele>
        <time>2010-05-09T11:55:24Z</time>
      </trkpt>
      <trkpt lat="43.9901890" lon="7.7936600">
        <ele>656.2400000</ele>
        <time>2010-05-09T11:55:29Z</time>
      </trkpt>
      <trkpt lat="43.9902000" lon="7.7935500">
        <ele>654.3100000</ele>
        <time>2010-05-09T11:55:34Z</time>
      </trkpt>
      <trkpt lat="43.9901960" lon="7.7935280">
        <ele>653.3500000</ele>
        <time>2010-05-09T11:55:39Z</time>
      </trkpt>
      <trkpt lat="43.9901220" lon="7.7934320">
        <ele>651.9100000</ele>
        <time>2010-05-09T11:55:46Z</time>
      </trkpt>
      <trkpt lat="43.9900100" lon="7.7933670">
        <ele>652.3900000</ele>
        <time>2010-05-09T11:55:51Z</time>
      </trkpt>
      <trkpt lat="43.9899490" lon="7.7933770">
        <ele>649.9900000</ele>
        <time>2010-05-09T11:55:55Z</time>
      </trkpt>
      <trkpt lat="43.9899230" lon="7.7933790">
        <ele>650.4700000</ele>
        <time>2010-05-09T11:55:56Z</time>
      </trkpt>
      <trkpt lat="43.9898440" lon="7.7934000">
        <ele>650.4700000</ele>
        <time>2010-05-09T11:55:58Z</time>
      </trkpt>
      <trkpt lat="43.9896920" lon="7.7933930">
        <ele>652.3900000</ele>
        <time>2010-05-09T11:56:03Z</time>
      </trkpt>
      <trkpt lat="43.9895790" lon="7.7934100">
        <ele>652.8700000</ele>
        <time>2010-05-09T11:56:07Z</time>
      </trkpt>
      <trkpt lat="43.9892600" lon="7.7935080">
        <ele>654.3100000</ele>
        <time>2010-05-09T11:56:17Z</time>
      </trkpt>
      <trkpt lat="43.9891770" lon="7.7937070">
        <ele>652.8700000</ele>
        <time>2010-05-09T11:56:23Z</time>
      </trkpt>
      <trkpt lat="43.9889630" lon="7.7940140">
        <ele>654.3100000</ele>
        <time>2010-05-09T11:56:34Z</time>
      </trkpt>
      <trkpt lat="43.9889190" lon="7.7940500">
        <ele>654.3100000</ele>
        <time>2010-05-09T11:56:45Z</time>
      </trkpt>
      <trkpt lat="43.9887810" lon="7.7941320">
        <ele>656.7200000</ele>
        <time>2010-05-09T11:56:59Z</time>
      </trkpt>
      <trkpt lat="43.9887510" lon="7.7941220">
        <ele>657.6800000</ele>
        <time>2010-05-09T11:57:06Z</time>
      </trkpt>
      <trkpt lat="43.9887040" lon="7.7940890">
        <ele>658.1600000</ele>
        <time>2010-05-09T11:57:10Z</time>
      </trkpt>
      <trkpt lat="43.9885640" lon="7.7938670">
        <ele>660.0800000</ele>
        <time>2010-05-09T11:57:25Z</time>
      </trkpt>
      <trkpt lat="43.9883970" lon="7.7938380">
        <ele>660.5600000</ele>
        <time>2010-05-09T11:57:38Z</time>
      </trkpt>
      <trkpt lat="43.9883410" lon="7.7938300">
        <ele>659.1200000</ele>
        <time>2010-05-09T11:57:41Z</time>
      </trkpt>
      <trkpt lat="43.9882700" lon="7.7938670">
        <ele>657.2000000</ele>
        <time>2010-05-09T11:57:44Z</time>
      </trkpt>
      <trkpt lat="43.9881410" lon="7.7938180">
        <ele>654.8000000</ele>
        <time>2010-05-09T11:57:48Z</time>
      </trkpt>
      <trkpt lat="43.9879510" lon="7.7934090">
        <ele>653.3500000</ele>
        <time>2010-05-09T11:57:57Z</time>
      </trkpt>
      <trkpt lat="43.9879100" lon="7.7933000">
        <ele>652.8700000</ele>
        <time>2010-05-09T11:57:59Z</time>
      </trkpt>
      <trkpt lat="43.9878900" lon="7.7932440">
        <ele>652.8700000</ele>
        <time>2010-05-09T11:58:00Z</time>
      </trkpt>
      <trkpt lat="43.9878770" lon="7.7931880">
        <ele>653.3500000</ele>
        <time>2010-05-09T11:58:01Z</time>
      </trkpt>
      <trkpt lat="43.9878630" lon="7.7931340">
        <ele>653.3500000</ele>
        <time>2010-05-09T11:58:02Z</time>
      </trkpt>
      <trkpt lat="43.9878380" lon="7.7930870">
        <ele>653.8300000</ele>
        <time>2010-05-09T11:58:03Z</time>
      </trkpt>
      <trkpt lat="43.9878090" lon="7.7930410">
        <ele>652.8700000</ele>
        <time>2010-05-09T11:58:04Z</time>
      </trkpt>
      <trkpt lat="43.9877750" lon="7.7929940">
        <ele>652.8700000</ele>
        <time>2010-05-09T11:58:05Z</time>
      </trkpt>
      <trkpt lat="43.9877190" lon="7.7929420">
        <ele>653.3500000</ele>
        <time>2010-05-09T11:58:07Z</time>
      </trkpt>
      <trkpt lat="43.9876540" lon="7.7929130">
        <ele>652.8700000</ele>
        <time>2010-05-09T11:58:17Z</time>
      </trkpt>
      <trkpt lat="43.9875200" lon="7.7929380">
        <ele>648.5500000</ele>
        <time>2010-05-09T11:58:28Z</time>
      </trkpt>
      <trkpt lat="43.9874640" lon="7.7930250">
        <ele>647.5900000</ele>
        <time>2010-05-09T11:58:30Z</time>
      </trkpt>
      <trkpt lat="43.9874290" lon="7.7930480">
        <ele>646.1400000</ele>
        <time>2010-05-09T11:58:31Z</time>
      </trkpt>
      <trkpt lat="43.9874000" lon="7.7930700">
        <ele>646.1400000</ele>
        <time>2010-05-09T11:58:32Z</time>
      </trkpt>
      <trkpt lat="43.9872620" lon="7.7932520">
        <ele>643.2600000</ele>
        <time>2010-05-09T11:58:37Z</time>
      </trkpt>
      <trkpt lat="43.9871840" lon="7.7933130">
        <ele>641.3400000</ele>
        <time>2010-05-09T11:58:40Z</time>
      </trkpt>
      <trkpt lat="43.9871140" lon="7.7933790">
        <ele>639.8900000</ele>
        <time>2010-05-09T11:58:43Z</time>
      </trkpt>
      <trkpt lat="43.9870270" lon="7.7935260">
        <ele>636.0500000</ele>
        <time>2010-05-09T11:58:48Z</time>
      </trkpt>
      <trkpt lat="43.9870050" lon="7.7936570">
        <ele>631.2400000</ele>
        <time>2010-05-09T11:58:53Z</time>
      </trkpt>
      <trkpt lat="43.9870060" lon="7.7936920">
        <ele>631.2400000</ele>
        <time>2010-05-09T11:58:54Z</time>
      </trkpt>
      <trkpt lat="43.9870620" lon="7.7938310">
        <ele>627.4000000</ele>
        <time>2010-05-09T11:58:59Z</time>
      </trkpt>
      <trkpt lat="43.9870680" lon="7.7938490">
        <ele>626.9200000</ele>
        <time>2010-05-09T11:59:00Z</time>
      </trkpt>
      <trkpt lat="43.9869640" lon="7.7939040">
        <ele>624.0300000</ele>
        <time>2010-05-09T11:59:05Z</time>
      </trkpt>
      <trkpt lat="43.9868360" lon="7.7938570">
        <ele>620.6700000</ele>
        <time>2010-05-09T11:59:08Z</time>
      </trkpt>
      <trkpt lat="43.9867430" lon="7.7938260">
        <ele>619.2300000</ele>
        <time>2010-05-09T11:59:10Z</time>
      </trkpt>
      <trkpt lat="43.9866340" lon="7.7937270">
        <ele>616.3400000</ele>
        <time>2010-05-09T11:59:14Z</time>
      </trkpt>
      <trkpt lat="43.9865890" lon="7.7936400">
        <ele>613.9400000</ele>
        <time>2010-05-09T11:59:17Z</time>
      </trkpt>
      <trkpt lat="43.9864800" lon="7.7935330">
        <ele>610.0900000</ele>
        <time>2010-05-09T11:59:22Z</time>
      </trkpt>
      <trkpt lat="43.9864630" lon="7.7935160">
        <ele>609.1300000</ele>
        <time>2010-05-09T11:59:23Z</time>
      </trkpt>
      <trkpt lat="43.9863620" lon="7.7934580">
        <ele>606.2500000</ele>
        <time>2010-05-09T11:59:27Z</time>
      </trkpt>
      <trkpt lat="43.9862550" lon="7.7934190">
        <ele>603.8500000</ele>
        <time>2010-05-09T11:59:31Z</time>
      </trkpt>
      <trkpt lat="43.9861520" lon="7.7934170">
        <ele>600.0000000</ele>
        <time>2010-05-09T11:59:34Z</time>
      </trkpt>
      <trkpt lat="43.9861220" lon="7.7934400">
        <ele>599.5200000</ele>
        <time>2010-05-09T11:59:35Z</time>
      </trkpt>
      <trkpt lat="43.9859980" lon="7.7933850">
        <ele>594.2300000</ele>
        <time>2010-05-09T11:59:41Z</time>
      </trkpt>
      <trkpt lat="43.9860630" lon="7.7930940">
        <ele>589.9100000</ele>
        <time>2010-05-09T11:59:47Z</time>
      </trkpt>
      <trkpt lat="43.9860910" lon="7.7929750">
        <ele>587.5000000</ele>
        <time>2010-05-09T11:59:50Z</time>
      </trkpt>
      <trkpt lat="43.9860510" lon="7.7929280">
        <ele>586.0600000</ele>
        <time>2010-05-09T11:59:53Z</time>
      </trkpt>
      <trkpt lat="43.9860090" lon="7.7929480">
        <ele>585.1000000</ele>
        <time>2010-05-09T11:59:55Z</time>
      </trkpt>
      <trkpt lat="43.9859220" lon="7.7930370">
        <ele>580.7700000</ele>
        <time>2010-05-09T11:59:59Z</time>
      </trkpt>
      <trkpt lat="43.9858200" lon="7.7932000">
        <ele>577.4100000</ele>
        <time>2010-05-09T12:00:04Z</time>
      </trkpt>
      <trkpt lat="43.9858060" lon="7.7932270">
        <ele>576.9300000</ele>
        <time>2010-05-09T12:00:05Z</time>
      </trkpt>
      <trkpt lat="43.9857170" lon="7.7934010">
        <ele>573.0800000</ele>
        <time>2010-05-09T12:00:09Z</time>
      </trkpt>
      <trkpt lat="43.9856520" lon="7.7937370">
        <ele>568.7600000</ele>
        <time>2010-05-09T12:00:16Z</time>
      </trkpt>
      <trkpt lat="43.9856400" lon="7.7938120">
        <ele>567.8000000</ele>
        <time>2010-05-09T12:00:18Z</time>
      </trkpt>
      <trkpt lat="43.9855940" lon="7.7938470">
        <ele>565.8700000</ele>
        <time>2010-05-09T12:00:21Z</time>
      </trkpt>
      <trkpt lat="43.9855210" lon="7.7938130">
        <ele>562.9900000</ele>
        <time>2010-05-09T12:00:25Z</time>
      </trkpt>
      <trkpt lat="43.9854930" lon="7.7938130">
        <ele>561.5500000</ele>
        <time>2010-05-09T12:00:27Z</time>
      </trkpt>
      <trkpt lat="43.9854530" lon="7.7938310">
        <ele>558.6600000</ele>
        <time>2010-05-09T12:00:31Z</time>
      </trkpt>
      <trkpt lat="43.9853710" lon="7.7939480">
        <ele>555.3000000</ele>
        <time>2010-05-09T12:00:36Z</time>
      </trkpt>
      <trkpt lat="43.9853290" lon="7.7940530">
        <ele>552.9000000</ele>
        <time>2010-05-09T12:00:39Z</time>
      </trkpt>
      <trkpt lat="43.9852710" lon="7.7941440">
        <ele>550.9700000</ele>
        <time>2010-05-09T12:00:42Z</time>
      </trkpt>
      <trkpt lat="43.9852390" lon="7.7941590">
        <ele>549.5300000</ele>
        <time>2010-05-09T12:00:44Z</time>
      </trkpt>
      <trkpt lat="43.9851650" lon="7.7941680">
        <ele>548.0900000</ele>
        <time>2010-05-09T12:00:47Z</time>
      </trkpt>
      <trkpt lat="43.9851360" lon="7.7942240">
        <ele>547.1300000</ele>
        <time>2010-05-09T12:00:49Z</time>
      </trkpt>
      <trkpt lat="43.9851180" lon="7.7942470">
        <ele>546.6500000</ele>
        <time>2010-05-09T12:00:50Z</time>
      </trkpt>
      <trkpt lat="43.9850280" lon="7.7943550">
        <ele>542.8000000</ele>
        <time>2010-05-09T12:00:56Z</time>
      </trkpt>
      <trkpt lat="43.9849350" lon="7.7944470">
        <ele>539.9200000</ele>
        <time>2010-05-09T12:01:01Z</time>
      </trkpt>
      <trkpt lat="43.9848000" lon="7.7944370">
        <ele>535.5900000</ele>
        <time>2010-05-09T12:01:06Z</time>
      </trkpt>
      <trkpt lat="43.9847610" lon="7.7944830">
        <ele>533.6700000</ele>
        <time>2010-05-09T12:01:08Z</time>
      </trkpt>
      <trkpt lat="43.9847480" lon="7.7945700">
        <ele>531.7500000</ele>
        <time>2010-05-09T12:01:11Z</time>
      </trkpt>
      <trkpt lat="43.9846630" lon="7.7946450">
        <ele>528.3800000</ele>
        <time>2010-05-09T12:01:14Z</time>
      </trkpt>
      <trkpt lat="43.9845930" lon="7.7946660">
        <ele>527.4200000</ele>
        <time>2010-05-09T12:01:16Z</time>
      </trkpt>
      <trkpt lat="43.9845540" lon="7.7946630">
        <ele>526.4600000</ele>
        <time>2010-05-09T12:01:17Z</time>
      </trkpt>
      <trkpt lat="43.9844720" lon="7.7946310">
        <ele>524.5400000</ele>
        <time>2010-05-09T12:01:19Z</time>
      </trkpt>
      <trkpt lat="43.9842730" lon="7.7946350">
        <ele>520.2100000</ele>
        <time>2010-05-09T12:01:23Z</time>
      </trkpt>
      <trkpt lat="43.9842280" lon="7.7946450">
        <ele>519.7300000</ele>
        <time>2010-05-09T12:01:24Z</time>
      </trkpt>
      <trkpt lat="43.9841450" lon="7.7946750">
        <ele>517.8100000</ele>
        <time>2010-05-09T12:01:26Z</time>
      </trkpt>
      <trkpt lat="43.9839930" lon="7.7948260">
        <ele>513.4800000</ele>
        <time>2010-05-09T12:01:30Z</time>
      </trkpt>
      <trkpt lat="43.9839510" lon="7.7948580">
        <ele>513.4800000</ele>
        <time>2010-05-09T12:01:31Z</time>
      </trkpt>
      <trkpt lat="43.9839140" lon="7.7948710">
        <ele>513.0000000</ele>
        <time>2010-05-09T12:01:32Z</time>
      </trkpt>
      <trkpt lat="43.9838390" lon="7.7948900">
        <ele>509.6400000</ele>
        <time>2010-05-09T12:01:34Z</time>
      </trkpt>
      <trkpt lat="43.9836240" lon="7.7949530">
        <ele>505.3100000</ele>
        <time>2010-05-09T12:01:40Z</time>
      </trkpt>
      <trkpt lat="43.9834910" lon="7.7949830">
        <ele>501.9500000</ele>
        <time>2010-05-09T12:01:45Z</time>
      </trkpt>
      <trkpt lat="43.9834620" lon="7.7949990">
        <ele>500.9800000</ele>
        <time>2010-05-09T12:01:46Z</time>
      </trkpt>
      <trkpt lat="43.9832970" lon="7.7951000">
        <ele>498.1000000</ele>
        <time>2010-05-09T12:01:50Z</time>
      </trkpt>
      <trkpt lat="43.9831980" lon="7.7951650">
        <ele>496.6600000</ele>
        <time>2010-05-09T12:01:53Z</time>
      </trkpt>
      <trkpt lat="43.9830890" lon="7.7951610">
        <ele>494.2600000</ele>
        <time>2010-05-09T12:01:57Z</time>
      </trkpt>
      <trkpt lat="43.9829850" lon="7.7951780">
        <ele>491.8500000</ele>
        <time>2010-05-09T12:02:07Z</time>
      </trkpt>
      <trkpt lat="43.9829690" lon="7.7951810">
        <ele>491.8500000</ele>
        <time>2010-05-09T12:02:14Z</time>
      </trkpt>
      <trkpt lat="43.9829660" lon="7.7951440">
        <ele>489.4500000</ele>
        <time>2010-05-09T12:02:20Z</time>
      </trkpt>
      <trkpt lat="43.9829930" lon="7.7951440">
        <ele>488.0100000</ele>
        <time>2010-05-09T12:02:23Z</time>
      </trkpt>
      <trkpt lat="43.9830250" lon="7.7951070">
        <ele>485.6000000</ele>
        <time>2010-05-09T12:02:29Z</time>
      </trkpt>
      <trkpt lat="43.9829350" lon="7.7950910">
        <ele>483.2000000</ele>
        <time>2010-05-09T12:02:34Z</time>
      </trkpt>
      <trkpt lat="43.9827590" lon="7.7950090">
        <ele>478.8700000</ele>
        <time>2010-05-09T12:02:39Z</time>
      </trkpt>
      <trkpt lat="43.9825880" lon="7.7949740">
        <ele>475.9900000</ele>
        <time>2010-05-09T12:02:43Z</time>
      </trkpt>
      <trkpt lat="43.9825550" lon="7.7949920">
        <ele>475.9900000</ele>
        <time>2010-05-09T12:02:44Z</time>
      </trkpt>
      <trkpt lat="43.9824470" lon="7.7949490">
        <ele>473.1100000</ele>
        <time>2010-05-09T12:02:48Z</time>
      </trkpt>
      <trkpt lat="43.9823580" lon="7.7949410">
        <ele>471.1800000</ele>
        <time>2010-05-09T12:02:51Z</time>
      </trkpt>
      <trkpt lat="43.9822590" lon="7.7949100">
        <ele>467.3400000</ele>
        <time>2010-05-09T12:02:57Z</time>
      </trkpt>
      <trkpt lat="43.9822400" lon="7.7949080">
        <ele>466.8600000</ele>
        <time>2010-05-09T12:02:58Z</time>
      </trkpt>
      <trkpt lat="43.9821170" lon="7.7948750">
        <ele>462.5300000</ele>
        <time>2010-05-09T12:03:03Z</time>
      </trkpt>
      <trkpt lat="43.9820140" lon="7.7948260">
        <ele>459.1700000</ele>
        <time>2010-05-09T12:03:06Z</time>
      </trkpt>
      <trkpt lat="43.9818490" lon="7.7947510">
        <ele>455.3200000</ele>
        <time>2010-05-09T12:03:11Z</time>
      </trkpt>
      <trkpt lat="43.9817280" lon="7.7946730">
        <ele>451.4800000</ele>
        <time>2010-05-09T12:03:18Z</time>
      </trkpt>
      <trkpt lat="43.9816480" lon="7.7946340">
        <ele>448.5900000</ele>
        <time>2010-05-09T12:03:24Z</time>
      </trkpt>
      <trkpt lat="43.9815850" lon="7.7946350">
        <ele>446.1900000</ele>
        <time>2010-05-09T12:03:31Z</time>
      </trkpt>
      <trkpt lat="43.9815450" lon="7.7945310">
        <ele>442.8200000</ele>
        <time>2010-05-09T12:03:35Z</time>
      </trkpt>
      <trkpt lat="43.9815720" lon="7.7944580">
        <ele>441.8600000</ele>
        <time>2010-05-09T12:03:37Z</time>
      </trkpt>
      <trkpt lat="43.9815720" lon="7.7944210">
        <ele>440.9000000</ele>
        <time>2010-05-09T12:03:39Z</time>
      </trkpt>
      <trkpt lat="43.9815230" lon="7.7944570">
        <ele>439.9400000</ele>
        <time>2010-05-09T12:03:42Z</time>
      </trkpt>
      <trkpt lat="43.9814780" lon="7.7945100">
        <ele>438.5000000</ele>
        <time>2010-05-09T12:03:44Z</time>
      </trkpt>
      <trkpt lat="43.9814310" lon="7.7945660">
        <ele>436.5800000</ele>
        <time>2010-05-09T12:03:48Z</time>
      </trkpt>
      <trkpt lat="43.9814190" lon="7.7944480">
        <ele>434.6500000</ele>
        <time>2010-05-09T12:03:52Z</time>
      </trkpt>
      <trkpt lat="43.9814660" lon="7.7943810">
        <ele>433.2100000</ele>
        <time>2010-05-09T12:03:58Z</time>
      </trkpt>
      <trkpt lat="43.9813410" lon="7.7944210">
        <ele>429.8500000</ele>
        <time>2010-05-09T12:04:04Z</time>
      </trkpt>
      <trkpt lat="43.9813010" lon="7.7944330">
        <ele>428.8900000</ele>
        <time>2010-05-09T12:04:08Z</time>
      </trkpt>
      <trkpt lat="43.9813160" lon="7.7943450">
        <ele>427.9200000</ele>
        <time>2010-05-09T12:04:11Z</time>
      </trkpt>
      <trkpt lat="43.9813260" lon="7.7943060">
        <ele>426.4800000</ele>
        <time>2010-05-09T12:04:15Z</time>
      </trkpt>
      <trkpt lat="43.9813540" lon="7.7942880">
        <ele>425.0400000</ele>
        <time>2010-05-09T12:04:19Z</time>
      </trkpt>
      <trkpt lat="43.9813360" lon="7.7942780">
        <ele>424.0800000</ele>
        <time>2010-05-09T12:04:21Z</time>
      </trkpt>
      <trkpt lat="43.9812990" lon="7.7942910">
        <ele>423.6000000</ele>
        <time>2010-05-09T12:04:23Z</time>
      </trkpt>
      <trkpt lat="43.9812150" lon="7.7943930">
        <ele>421.1900000</ele>
        <time>2010-05-09T12:04:27Z</time>
      </trkpt>
      <trkpt lat="43.9811690" lon="7.7944940">
        <ele>419.2700000</ele>
        <time>2010-05-09T12:04:30Z</time>
      </trkpt>
      <trkpt lat="43.9811210" lon="7.7944590">
        <ele>416.8700000</ele>
        <time>2010-05-09T12:04:33Z</time>
      </trkpt>
      <trkpt lat="43.9810930" lon="7.7943020">
        <ele>414.4700000</ele>
        <time>2010-05-09T12:04:37Z</time>
      </trkpt>
      <trkpt lat="43.9810830" lon="7.7942930">
        <ele>419.2700000</ele>
        <time>2010-05-09T12:04:46Z</time>
      </trkpt>
      <trkpt lat="43.9810830" lon="7.7942930">
        <ele>406.7700000</ele>
        <time>2010-05-09T12:04:47Z</time>
      </trkpt>
      <trkpt lat="43.9810830" lon="7.7942930">
        <ele>409.6600000</ele>
        <time>2010-05-09T12:04:48Z</time>
      </trkpt>
      <trkpt lat="43.9810830" lon="7.7942930">
        <ele>415.9100000</ele>
        <time>2010-05-09T12:04:49Z</time>
      </trkpt>
      <trkpt lat="43.9810830" lon="7.7942930">
        <ele>411.1000000</ele>
        <time>2010-05-09T12:04:50Z</time>
      </trkpt>
      <trkpt lat="43.9810830" lon="7.7942930">
        <ele>414.4700000</ele>
        <time>2010-05-09T12:04:51Z</time>
      </trkpt>
      <trkpt lat="43.9810830" lon="7.7942930">
        <ele>412.0600000</ele>
        <time>2010-05-09T12:05:03Z</time>
      </trkpt>
      <trkpt lat="43.9810830" lon="7.7942930">
        <ele>416.3900000</ele>
        <time>2010-05-09T12:05:04Z</time>
      </trkpt>
      <trkpt lat="43.9810830" lon="7.7942930">
        <ele>415.4300000</ele>
        <time>2010-05-09T12:05:06Z</time>
      </trkpt>
    </trkseg>
  </trk>

  <trk>
    <name>TRASFERIMENTO DA PARTENZA A PS1</name>
    <extensions>
      <gpxx:TrackExtension xmlns:gpxx="http://www.garmin.com/xmlschemas/GpxExtensions/v3">
        <gpxx:DisplayColor>Yellow</gpxx:DisplayColor>
      </gpxx:TrackExtension>
    </extensions>
    <trkseg>
      <trkpt lat="43.9876580" lon="7.7769930">
        <ele>463.9700000</ele>
        <time>2010-05-09T11:39:23Z</time>
      </trkpt>
      <trkpt lat="43.9876090" lon="7.7770570">
        <ele>463.4900000</ele>
        <time>2010-05-09T11:39:24Z</time>
      </trkpt>
      <trkpt lat="43.9875600" lon="7.7771320">
        <ele>463.4900000</ele>
        <time>2010-05-09T11:39:25Z</time>
      </trkpt>
      <trkpt lat="43.9871200" lon="7.7776860">
        <ele>466.8600000</ele>
        <time>2010-05-09T11:39:33Z</time>
      </trkpt>
      <trkpt lat="43.9870570" lon="7.7777470">
        <ele>467.3400000</ele>
        <time>2010-05-09T11:39:34Z</time>
      </trkpt>
      <trkpt lat="43.9868000" lon="7.7779720">
        <ele>470.2200000</ele>
        <time>2010-05-09T11:39:38Z</time>
      </trkpt>
      <trkpt lat="43.9864870" lon="7.7782680">
        <ele>473.5900000</ele>
        <time>2010-05-09T11:39:43Z</time>
      </trkpt>
      <trkpt lat="43.9864360" lon="7.7783470">
        <ele>475.0300000</ele>
        <time>2010-05-09T11:39:44Z</time>
      </trkpt>
      <trkpt lat="43.9863920" lon="7.7784320">
        <ele>475.5100000</ele>
        <time>2010-05-09T11:39:45Z</time>
      </trkpt>
      <trkpt lat="43.9863570" lon="7.7785250">
        <ele>475.9900000</ele>
        <time>2010-05-09T11:39:46Z</time>
      </trkpt>
      <trkpt lat="43.9863280" lon="7.7786240">
        <ele>477.4300000</ele>
        <time>2010-05-09T11:39:47Z</time>
      </trkpt>
      <trkpt lat="43.9863000" lon="7.7787210">
        <ele>478.3900000</ele>
        <time>2010-05-09T11:39:48Z</time>
      </trkpt>
      <trkpt lat="43.9861910" lon="7.7791360">
        <ele>482.2400000</ele>
        <time>2010-05-09T11:39:52Z</time>
      </trkpt>
      <trkpt lat="43.9861080" lon="7.7794630">
        <ele>484.6400000</ele>
        <time>2010-05-09T11:39:55Z</time>
      </trkpt>
      <trkpt lat="43.9860960" lon="7.7795770">
        <ele>485.1200000</ele>
        <time>2010-05-09T11:39:56Z</time>
      </trkpt>
      <trkpt lat="43.9860990" lon="7.7796980">
        <ele>486.0800000</ele>
        <time>2010-05-09T11:39:57Z</time>
      </trkpt>
      <trkpt lat="43.9861160" lon="7.7798230">
        <ele>486.0800000</ele>
        <time>2010-05-09T11:39:58Z</time>
      </trkpt>
      <trkpt lat="43.9861380" lon="7.7799390">
        <ele>486.5600000</ele>
        <time>2010-05-09T11:39:59Z</time>
      </trkpt>
      <trkpt lat="43.9861650" lon="7.7801540">
        <ele>487.0500000</ele>
        <time>2010-05-09T11:40:01Z</time>
      </trkpt>
      <trkpt lat="43.9861600" lon="7.7802670">
        <ele>488.0100000</ele>
        <time>2010-05-09T11:40:02Z</time>
      </trkpt>
      <trkpt lat="43.9861410" lon="7.7803850">
        <ele>488.4900000</ele>
        <time>2010-05-09T11:40:03Z</time>
      </trkpt>
      <trkpt lat="43.9861240" lon="7.7805070">
        <ele>488.9700000</ele>
        <time>2010-05-09T11:40:04Z</time>
      </trkpt>
      <trkpt lat="43.9861170" lon="7.7806350">
        <ele>490.4100000</ele>
        <time>2010-05-09T11:40:05Z</time>
      </trkpt>
      <trkpt lat="43.9861240" lon="7.7807640">
        <ele>491.3700000</ele>
        <time>2010-05-09T11:40:06Z</time>
      </trkpt>
      <trkpt lat="43.9861400" lon="7.7808930">
        <ele>491.3700000</ele>
        <time>2010-05-09T11:40:07Z</time>
      </trkpt>
      <trkpt lat="43.9861530" lon="7.7810200">
        <ele>492.3300000</ele>
        <time>2010-05-09T11:40:08Z</time>
      </trkpt>
      <trkpt lat="43.9861550" lon="7.7811440">
        <ele>493.2900000</ele>
        <time>2010-05-09T11:40:09Z</time>
      </trkpt>
      <trkpt lat="43.9861440" lon="7.7812600">
        <ele>494.2600000</ele>
        <time>2010-05-09T11:40:10Z</time>
      </trkpt>
      <trkpt lat="43.9861160" lon="7.7813710">
        <ele>493.7700000</ele>
        <time>2010-05-09T11:40:11Z</time>
      </trkpt>
      <trkpt lat="43.9860770" lon="7.7814880">
        <ele>494.7400000</ele>
        <time>2010-05-09T11:40:12Z</time>
      </trkpt>
      <trkpt lat="43.9859340" lon="7.7818560">
        <ele>496.1800000</ele>
        <time>2010-05-09T11:40:15Z</time>
      </trkpt>
      <trkpt lat="43.9858690" lon="7.7819740">
        <ele>497.6200000</ele>
        <time>2010-05-09T11:40:16Z</time>
      </trkpt>
      <trkpt lat="43.9856050" lon="7.7824760">
        <ele>502.4300000</ele>
        <time>2010-05-09T11:40:20Z</time>
      </trkpt>
      <trkpt lat="43.9854630" lon="7.7829040">
        <ele>505.7900000</ele>
        <time>2010-05-09T11:40:23Z</time>
      </trkpt>
      <trkpt lat="43.9853640" lon="7.7833090">
        <ele>508.6700000</ele>
        <time>2010-05-09T11:40:26Z</time>
      </trkpt>
      <trkpt lat="43.9853430" lon="7.7834300">
        <ele>509.6400000</ele>
        <time>2010-05-09T11:40:27Z</time>
      </trkpt>
      <trkpt lat="43.9853430" lon="7.7835580">
        <ele>511.5600000</ele>
        <time>2010-05-09T11:40:28Z</time>
      </trkpt>
      <trkpt lat="43.9853590" lon="7.7836880">
        <ele>512.5200000</ele>
        <time>2010-05-09T11:40:29Z</time>
      </trkpt>
      <trkpt lat="43.9854500" lon="7.7840860">
        <ele>515.4000000</ele>
        <time>2010-05-09T11:40:32Z</time>
      </trkpt>
      <trkpt lat="43.9855150" lon="7.7843450">
        <ele>519.2500000</ele>
        <time>2010-05-09T11:40:34Z</time>
      </trkpt>
      <trkpt lat="43.9855570" lon="7.7844580">
        <ele>520.2100000</ele>
        <time>2010-05-09T11:40:35Z</time>
      </trkpt>
      <trkpt lat="43.9856140" lon="7.7845630">
        <ele>521.6500000</ele>
        <time>2010-05-09T11:40:36Z</time>
      </trkpt>
      <trkpt lat="43.9858190" lon="7.7848560">
        <ele>525.0200000</ele>
        <time>2010-05-09T11:40:39Z</time>
      </trkpt>
      <trkpt lat="43.9861870" lon="7.7853230">
        <ele>528.3800000</ele>
        <time>2010-05-09T11:40:44Z</time>
      </trkpt>
      <trkpt lat="43.9862330" lon="7.7854330">
        <ele>528.8600000</ele>
        <time>2010-05-09T11:40:45Z</time>
      </trkpt>
      <trkpt lat="43.9862560" lon="7.7855560">
        <ele>529.8200000</ele>
        <time>2010-05-09T11:40:46Z</time>
      </trkpt>
      <trkpt lat="43.9862730" lon="7.7856840">
        <ele>529.8200000</ele>
        <time>2010-05-09T11:40:47Z</time>
      </trkpt>
      <trkpt lat="43.9862940" lon="7.7858120">
        <ele>530.7900000</ele>
        <time>2010-05-09T11:40:48Z</time>
      </trkpt>
      <trkpt lat="43.9863220" lon="7.7859340">
        <ele>531.7500000</ele>
        <time>2010-05-09T11:40:49Z</time>
      </trkpt>
      <trkpt lat="43.9863550" lon="7.7860430">
        <ele>533.1900000</ele>
        <time>2010-05-09T11:40:50Z</time>
      </trkpt>
      <trkpt lat="43.9863790" lon="7.7861430">
        <ele>533.1900000</ele>
        <time>2010-05-09T11:40:51Z</time>
      </trkpt>
      <trkpt lat="43.9863820" lon="7.7862400">
        <ele>533.6700000</ele>
        <time>2010-05-09T11:40:52Z</time>
      </trkpt>
      <trkpt lat="43.9863610" lon="7.7863330">
        <ele>534.1500000</ele>
        <time>2010-05-09T11:40:53Z</time>
      </trkpt>
      <trkpt lat="43.9863300" lon="7.7864280">
        <ele>535.1100000</ele>
        <time>2010-05-09T11:40:54Z</time>
      </trkpt>
      <trkpt lat="43.9863060" lon="7.7865320">
        <ele>535.5900000</ele>
        <time>2010-05-09T11:40:55Z</time>
      </trkpt>
      <trkpt lat="43.9862960" lon="7.7866420">
        <ele>535.5900000</ele>
        <time>2010-05-09T11:40:56Z</time>
      </trkpt>
      <trkpt lat="43.9863070" lon="7.7867510">
        <ele>536.5500000</ele>
        <time>2010-05-09T11:40:57Z</time>
      </trkpt>
      <trkpt lat="43.9863410" lon="7.7868450">
        <ele>537.0300000</ele>
        <time>2010-05-09T11:40:58Z</time>
      </trkpt>
      <trkpt lat="43.9863930" lon="7.7869230">
        <ele>537.0300000</ele>
        <time>2010-05-09T11:40:59Z</time>
      </trkpt>
      <trkpt lat="43.9864480" lon="7.7869860">
        <ele>537.0300000</ele>
        <time>2010-05-09T11:41:00Z</time>
      </trkpt>
      <trkpt lat="43.9864870" lon="7.7870480">
        <ele>536.5500000</ele>
        <time>2010-05-09T11:41:01Z</time>
      </trkpt>
      <trkpt lat="43.9865060" lon="7.7871140">
        <ele>537.0300000</ele>
        <time>2010-05-09T11:41:02Z</time>
      </trkpt>
      <trkpt lat="43.9864970" lon="7.7871790">
        <ele>537.5100000</ele>
        <time>2010-05-09T11:41:03Z</time>
      </trkpt>
      <trkpt lat="43.9864640" lon="7.7872300">
        <ele>537.5100000</ele>
        <time>2010-05-09T11:41:04Z</time>
      </trkpt>
      <trkpt lat="43.9864160" lon="7.7872770">
        <ele>537.5100000</ele>
        <time>2010-05-09T11:41:05Z</time>
      </trkpt>
      <trkpt lat="43.9863140" lon="7.7873930">
        <ele>537.9900000</ele>
        <time>2010-05-09T11:41:07Z</time>
      </trkpt>
      <trkpt lat="43.9862760" lon="7.7874720">
        <ele>538.4800000</ele>
        <time>2010-05-09T11:41:08Z</time>
      </trkpt>
      <trkpt lat="43.9862530" lon="7.7875560">
        <ele>538.9600000</ele>
        <time>2010-05-09T11:41:09Z</time>
      </trkpt>
      <trkpt lat="43.9862060" lon="7.7878260">
        <ele>539.4400000</ele>
        <time>2010-05-09T11:41:16Z</time>
      </trkpt>
      <trkpt lat="43.9861980" lon="7.7878950">
        <ele>540.4000000</ele>
        <time>2010-05-09T11:41:18Z</time>
      </trkpt>
      <trkpt lat="43.9861820" lon="7.7880400">
        <ele>540.8800000</ele>
        <time>2010-05-09T11:41:21Z</time>
      </trkpt>
      <trkpt lat="43.9861720" lon="7.7882250">
        <ele>543.2800000</ele>
        <time>2010-05-09T11:41:23Z</time>
      </trkpt>
      <trkpt lat="43.9861720" lon="7.7886050">
        <ele>547.1300000</ele>
        <time>2010-05-09T11:41:26Z</time>
      </trkpt>
      <trkpt lat="43.9861260" lon="7.7889890">
        <ele>550.4900000</ele>
        <time>2010-05-09T11:41:29Z</time>
      </trkpt>
      <trkpt lat="43.9860950" lon="7.7891120">
        <ele>551.9300000</ele>
        <time>2010-05-09T11:41:30Z</time>
      </trkpt>
      <trkpt lat="43.9860540" lon="7.7892340">
        <ele>552.9000000</ele>
        <time>2010-05-09T11:41:31Z</time>
      </trkpt>
      <trkpt lat="43.9860130" lon="7.7893530">
        <ele>553.8600000</ele>
        <time>2010-05-09T11:41:32Z</time>
      </trkpt>
      <trkpt lat="43.9859850" lon="7.7894780">
        <ele>554.3400000</ele>
        <time>2010-05-09T11:41:33Z</time>
      </trkpt>
      <trkpt lat="43.9859740" lon="7.7896120">
        <ele>553.8600000</ele>
        <time>2010-05-09T11:41:34Z</time>
      </trkpt>
      <trkpt lat="43.9859710" lon="7.7897510">
        <ele>556.7400000</ele>
        <time>2010-05-09T11:41:35Z</time>
      </trkpt>
      <trkpt lat="43.9859250" lon="7.7901990">
        <ele>560.5900000</ele>
        <time>2010-05-09T11:41:38Z</time>
      </trkpt>
      <trkpt lat="43.9859110" lon="7.7903460">
        <ele>561.5500000</ele>
        <time>2010-05-09T11:41:39Z</time>
      </trkpt>
      <trkpt lat="43.9859050" lon="7.7906430">
        <ele>564.9100000</ele>
        <time>2010-05-09T11:41:41Z</time>
      </trkpt>
      <trkpt lat="43.9859010" lon="7.7909320">
        <ele>566.3500000</ele>
        <time>2010-05-09T11:41:43Z</time>
      </trkpt>
      <trkpt lat="43.9858810" lon="7.7910670">
        <ele>567.3200000</ele>
        <time>2010-05-09T11:41:44Z</time>
      </trkpt>
      <trkpt lat="43.9858450" lon="7.7911920">
        <ele>568.2800000</ele>
        <time>2010-05-09T11:41:45Z</time>
      </trkpt>
      <trkpt lat="43.9857960" lon="7.7913010">
        <ele>568.7600000</ele>
        <time>2010-05-09T11:41:46Z</time>
      </trkpt>
      <trkpt lat="43.9857420" lon="7.7913930">
        <ele>569.2400000</ele>
        <time>2010-05-09T11:41:47Z</time>
      </trkpt>
      <trkpt lat="43.9856950" lon="7.7914780">
        <ele>569.7200000</ele>
        <time>2010-05-09T11:41:48Z</time>
      </trkpt>
      <trkpt lat="43.9856620" lon="7.7915730">
        <ele>570.6800000</ele>
        <time>2010-05-09T11:41:49Z</time>
      </trkpt>
      <trkpt lat="43.9856480" lon="7.7916740">
        <ele>570.6800000</ele>
        <time>2010-05-09T11:41:50Z</time>
      </trkpt>
      <trkpt lat="43.9856470" lon="7.7917650">
        <ele>571.6400000</ele>
        <time>2010-05-09T11:41:51Z</time>
      </trkpt>
      <trkpt lat="43.9856520" lon="7.7918500">
        <ele>571.6400000</ele>
        <time>2010-05-09T11:41:52Z</time>
      </trkpt>
      <trkpt lat="43.9856670" lon="7.7919220">
        <ele>572.1200000</ele>
        <time>2010-05-09T11:41:53Z</time>
      </trkpt>
      <trkpt lat="43.9856990" lon="7.7919680">
        <ele>572.1200000</ele>
        <time>2010-05-09T11:41:54Z</time>
      </trkpt>
      <trkpt lat="43.9857420" lon="7.7919730">
        <ele>572.6000000</ele>
        <time>2010-05-09T11:41:55Z</time>
      </trkpt>
      <trkpt lat="43.9857800" lon="7.7919320">
        <ele>573.0800000</ele>
        <time>2010-05-09T11:41:56Z</time>
      </trkpt>
      <trkpt lat="43.9858040" lon="7.7918690">
        <ele>572.6000000</ele>
        <time>2010-05-09T11:41:57Z</time>
      </trkpt>
      <trkpt lat="43.9858180" lon="7.7918060">
        <ele>573.0800000</ele>
        <time>2010-05-09T11:41:58Z</time>
      </trkpt>
      <trkpt lat="43.9858590" lon="7.7916660">
        <ele>574.0400000</ele>
        <time>2010-05-09T11:42:00Z</time>
      </trkpt>
      <trkpt lat="43.9858980" lon="7.7915860">
        <ele>574.5300000</ele>
        <time>2010-05-09T11:42:01Z</time>
      </trkpt>
      <trkpt lat="43.9859530" lon="7.7914990">
        <ele>575.4900000</ele>
        <time>2010-05-09T11:42:02Z</time>
      </trkpt>
      <trkpt lat="43.9860850" lon="7.7912950">
        <ele>578.8500000</ele>
        <time>2010-05-09T11:42:04Z</time>
      </trkpt>
      <trkpt lat="43.9862720" lon="7.7909810">
        <ele>581.7300000</ele>
        <time>2010-05-09T11:42:07Z</time>
      </trkpt>
      <trkpt lat="43.9864680" lon="7.7906190">
        <ele>585.1000000</ele>
        <time>2010-05-09T11:42:10Z</time>
      </trkpt>
      <trkpt lat="43.9865230" lon="7.7904790">
        <ele>587.0200000</ele>
        <time>2010-05-09T11:42:11Z</time>
      </trkpt>
      <trkpt lat="43.9866780" lon="7.7900700">
        <ele>589.9100000</ele>
        <time>2010-05-09T11:42:14Z</time>
      </trkpt>
      <trkpt lat="43.9867250" lon="7.7899650">
        <ele>589.9100000</ele>
        <time>2010-05-09T11:42:15Z</time>
      </trkpt>
      <trkpt lat="43.9867840" lon="7.7897980">
        <ele>589.9100000</ele>
        <time>2010-05-09T11:42:20Z</time>
      </trkpt>
      <trkpt lat="43.9868080" lon="7.7896400">
        <ele>591.8300000</ele>
        <time>2010-05-09T11:42:24Z</time>
      </trkpt>
      <trkpt lat="43.9868130" lon="7.7895670">
        <ele>591.8300000</ele>
        <time>2010-05-09T11:42:25Z</time>
      </trkpt>
      <trkpt lat="43.9868310" lon="7.7892770">
        <ele>593.7500000</ele>
        <time>2010-05-09T11:42:29Z</time>
      </trkpt>
      <trkpt lat="43.9868460" lon="7.7891910">
        <ele>593.7500000</ele>
        <time>2010-05-09T11:42:30Z</time>
      </trkpt>
      <trkpt lat="43.9868700" lon="7.7891110">
        <ele>594.2300000</ele>
        <time>2010-05-09T11:42:31Z</time>
      </trkpt>
      <trkpt lat="43.9869030" lon="7.7890490">
        <ele>594.7100000</ele>
        <time>2010-05-09T11:42:32Z</time>
      </trkpt>
      <trkpt lat="43.9869380" lon="7.7890190">
        <ele>595.1900000</ele>
        <time>2010-05-09T11:42:33Z</time>
      </trkpt>
      <trkpt lat="43.9869790" lon="7.7890200">
        <ele>595.1900000</ele>
        <time>2010-05-09T11:42:34Z</time>
      </trkpt>
      <trkpt lat="43.9870230" lon="7.7890540">
        <ele>595.6700000</ele>
        <time>2010-05-09T11:42:35Z</time>
      </trkpt>
      <trkpt lat="43.9870520" lon="7.7891280">
        <ele>596.6400000</ele>
        <time>2010-05-09T11:42:36Z</time>
      </trkpt>
      <trkpt lat="43.9870700" lon="7.7892300">
        <ele>597.6000000</ele>
        <time>2010-05-09T11:42:37Z</time>
      </trkpt>
      <trkpt lat="43.9870820" lon="7.7893420">
        <ele>598.0800000</ele>
        <time>2010-05-09T11:42:38Z</time>
      </trkpt>
      <trkpt lat="43.9870990" lon="7.7894680">
        <ele>599.0400000</ele>
        <time>2010-05-09T11:42:39Z</time>
      </trkpt>
      <trkpt lat="43.9871220" lon="7.7896020">
        <ele>599.5200000</ele>
        <time>2010-05-09T11:42:40Z</time>
      </trkpt>
      <trkpt lat="43.9871440" lon="7.7897320">
        <ele>600.0000000</ele>
        <time>2010-05-09T11:42:41Z</time>
      </trkpt>
      <trkpt lat="43.9872340" lon="7.7902960">
        <ele>603.8500000</ele>
        <time>2010-05-09T11:42:45Z</time>
      </trkpt>
      <trkpt lat="43.9872450" lon="7.7904520">
        <ele>604.3300000</ele>
        <time>2010-05-09T11:42:46Z</time>
      </trkpt>
      <trkpt lat="43.9872450" lon="7.7906120">
        <ele>606.7300000</ele>
        <time>2010-05-09T11:42:47Z</time>
      </trkpt>
      <trkpt lat="43.9872030" lon="7.7910900">
        <ele>609.6100000</ele>
        <time>2010-05-09T11:42:50Z</time>
      </trkpt>
      <trkpt lat="43.9870830" lon="7.7916910">
        <ele>612.9800000</ele>
        <time>2010-05-09T11:42:54Z</time>
      </trkpt>
      <trkpt lat="43.9869630" lon="7.7920440">
        <ele>614.9000000</ele>
        <time>2010-05-09T11:42:57Z</time>
      </trkpt>
      <trkpt lat="43.9868590" lon="7.7922910">
        <ele>615.8600000</ele>
        <time>2010-05-09T11:43:00Z</time>
      </trkpt>
      <trkpt lat="43.9868550" lon="7.7923650">
        <ele>615.3800000</ele>
        <time>2010-05-09T11:43:01Z</time>
      </trkpt>
      <trkpt lat="43.9868790" lon="7.7924320">
        <ele>616.8200000</ele>
        <time>2010-05-09T11:43:02Z</time>
      </trkpt>
      <trkpt lat="43.9869270" lon="7.7924640">
        <ele>616.8200000</ele>
        <time>2010-05-09T11:43:03Z</time>
      </trkpt>
      <trkpt lat="43.9869830" lon="7.7924400">
        <ele>617.3000000</ele>
        <time>2010-05-09T11:43:04Z</time>
      </trkpt>
      <trkpt lat="43.9870330" lon="7.7923680">
        <ele>617.7800000</ele>
        <time>2010-05-09T11:43:05Z</time>
      </trkpt>
      <trkpt lat="43.9870770" lon="7.7922640">
        <ele>618.7500000</ele>
        <time>2010-05-09T11:43:06Z</time>
      </trkpt>
      <trkpt lat="43.9871130" lon="7.7921570">
        <ele>619.2300000</ele>
        <time>2010-05-09T11:43:07Z</time>
      </trkpt>
      <trkpt lat="43.9871490" lon="7.7920560">
        <ele>619.2300000</ele>
        <time>2010-05-09T11:43:08Z</time>
      </trkpt>
      <trkpt lat="43.9872250" lon="7.7918780">
        <ele>621.1500000</ele>
        <time>2010-05-09T11:43:10Z</time>
      </trkpt>
      <trkpt lat="43.9872800" lon="7.7917880">
        <ele>622.1100000</ele>
        <time>2010-05-09T11:43:11Z</time>
      </trkpt>
      <trkpt lat="43.9873450" lon="7.7917000">
        <ele>624.0300000</ele>
        <time>2010-05-09T11:43:12Z</time>
      </trkpt>
      <trkpt lat="43.9875650" lon="7.7914100">
        <ele>627.4000000</ele>
        <time>2010-05-09T11:43:15Z</time>
      </trkpt>
      <trkpt lat="43.9876380" lon="7.7913020">
        <ele>628.3600000</ele>
        <time>2010-05-09T11:43:16Z</time>
      </trkpt>
      <trkpt lat="43.9877040" lon="7.7911840">
        <ele>629.8000000</ele>
        <time>2010-05-09T11:43:17Z</time>
      </trkpt>
      <trkpt lat="43.9877640" lon="7.7910560">
        <ele>629.8000000</ele>
        <time>2010-05-09T11:43:18Z</time>
      </trkpt>
      <trkpt lat="43.9878140" lon="7.7909210">
        <ele>631.7200000</ele>
        <time>2010-05-09T11:43:19Z</time>
      </trkpt>
      <trkpt lat="43.9878490" lon="7.7907820">
        <ele>632.6800000</ele>
        <time>2010-05-09T11:43:20Z</time>
      </trkpt>
      <trkpt lat="43.9878710" lon="7.7906460">
        <ele>633.6500000</ele>
        <time>2010-05-09T11:43:21Z</time>
      </trkpt>
      <trkpt lat="43.9878850" lon="7.7905180">
        <ele>633.1700000</ele>
        <time>2010-05-09T11:43:22Z</time>
      </trkpt>
      <trkpt lat="43.9878910" lon="7.7903980">
        <ele>633.6500000</ele>
        <time>2010-05-09T11:43:23Z</time>
      </trkpt>
      <trkpt lat="43.9878920" lon="7.7902960">
        <ele>634.6100000</ele>
        <time>2010-05-09T11:43:24Z</time>
      </trkpt>
      <trkpt lat="43.9878930" lon="7.7902120">
        <ele>634.1300000</ele>
        <time>2010-05-09T11:43:25Z</time>
      </trkpt>
      <trkpt lat="43.9878990" lon="7.7901490">
        <ele>634.6100000</ele>
        <time>2010-05-09T11:43:26Z</time>
      </trkpt>
      <trkpt lat="43.9879180" lon="7.7900980">
        <ele>635.0900000</ele>
        <time>2010-05-09T11:43:27Z</time>
      </trkpt>
      <trkpt lat="43.9879420" lon="7.7900680">
        <ele>635.0900000</ele>
        <time>2010-05-09T11:43:28Z</time>
      </trkpt>
      <trkpt lat="43.9879710" lon="7.7900800">
        <ele>635.5700000</ele>
        <time>2010-05-09T11:43:29Z</time>
      </trkpt>
      <trkpt lat="43.9879910" lon="7.7901240">
        <ele>635.5700000</ele>
        <time>2010-05-09T11:43:30Z</time>
      </trkpt>
      <trkpt lat="43.9879880" lon="7.7901900">
        <ele>636.0500000</ele>
        <time>2010-05-09T11:43:31Z</time>
      </trkpt>
      <trkpt lat="43.9879680" lon="7.7902770">
        <ele>636.5300000</ele>
        <time>2010-05-09T11:43:32Z</time>
      </trkpt>
      <trkpt lat="43.9879500" lon="7.7903850">
        <ele>637.0100000</ele>
        <time>2010-05-09T11:43:33Z</time>
      </trkpt>
      <trkpt lat="43.9879070" lon="7.7907940">
        <ele>641.3400000</ele>
        <time>2010-05-09T11:43:36Z</time>
      </trkpt>
      <trkpt lat="43.9878910" lon="7.7910640">
        <ele>641.8200000</ele>
        <time>2010-05-09T11:43:38Z</time>
      </trkpt>
      <trkpt lat="43.9878700" lon="7.7913450">
        <ele>645.1800000</ele>
        <time>2010-05-09T11:43:40Z</time>
      </trkpt>
      <trkpt lat="43.9878380" lon="7.7914790">
        <ele>645.1800000</ele>
        <time>2010-05-09T11:43:41Z</time>
      </trkpt>
      <trkpt lat="43.9877870" lon="7.7916080">
        <ele>646.1400000</ele>
        <time>2010-05-09T11:43:42Z</time>
      </trkpt>
      <trkpt lat="43.9876150" lon="7.7920230">
        <ele>649.9900000</ele>
        <time>2010-05-09T11:43:45Z</time>
      </trkpt>
      <trkpt lat="43.9875310" lon="7.7923040">
        <ele>651.4300000</ele>
        <time>2010-05-09T11:43:47Z</time>
      </trkpt>
      <trkpt lat="43.9874160" lon="7.7926360">
        <ele>652.3900000</ele>
        <time>2010-05-09T11:43:50Z</time>
      </trkpt>
      <trkpt lat="43.9873490" lon="7.7927900">
        <ele>652.8700000</ele>
        <time>2010-05-09T11:43:52Z</time>
      </trkpt>
      <trkpt lat="43.9873400" lon="7.7928620">
        <ele>652.8700000</ele>
        <time>2010-05-09T11:43:53Z</time>
      </trkpt>
      <trkpt lat="43.9873530" lon="7.7929350">
        <ele>653.3500000</ele>
        <time>2010-05-09T11:43:54Z</time>
      </trkpt>
      <trkpt lat="43.9873900" lon="7.7929930">
        <ele>654.3100000</ele>
        <time>2010-05-09T11:43:55Z</time>
      </trkpt>
      <trkpt lat="43.9874450" lon="7.7930140">
        <ele>654.3100000</ele>
        <time>2010-05-09T11:43:56Z</time>
      </trkpt>
      <trkpt lat="43.9875010" lon="7.7929840">
        <ele>655.2800000</ele>
        <time>2010-05-09T11:43:57Z</time>
      </trkpt>
      <trkpt lat="43.9875360" lon="7.7929080">
        <ele>656.2400000</ele>
        <time>2010-05-09T11:43:58Z</time>
      </trkpt>
      <trkpt lat="43.9875520" lon="7.7928120">
        <ele>657.2000000</ele>
        <time>2010-05-09T11:43:59Z</time>
      </trkpt>
      <trkpt lat="43.9875640" lon="7.7927060">
        <ele>657.6800000</ele>
        <time>2010-05-09T11:44:00Z</time>
      </trkpt>
      <trkpt lat="43.9875840" lon="7.7925950">
        <ele>659.1200000</ele>
        <time>2010-05-09T11:44:01Z</time>
      </trkpt>
      <trkpt lat="43.9876210" lon="7.7924850">
        <ele>660.0800000</ele>
        <time>2010-05-09T11:44:02Z</time>
      </trkpt>
      <trkpt lat="43.9876680" lon="7.7923830">
        <ele>661.5200000</ele>
        <time>2010-05-09T11:44:03Z</time>
      </trkpt>
      <trkpt lat="43.9877210" lon="7.7922900">
        <ele>661.5200000</ele>
        <time>2010-05-09T11:44:04Z</time>
      </trkpt>
      <trkpt lat="43.9877770" lon="7.7922110">
        <ele>662.0100000</ele>
        <time>2010-05-09T11:44:05Z</time>
      </trkpt>
      <trkpt lat="43.9878400" lon="7.7921440">
        <ele>662.9700000</ele>
        <time>2010-05-09T11:44:06Z</time>
      </trkpt>
      <trkpt lat="43.9879110" lon="7.7920900">
        <ele>664.4100000</ele>
        <time>2010-05-09T11:44:07Z</time>
      </trkpt>
      <trkpt lat="43.9879880" lon="7.7920480">
        <ele>665.3700000</ele>
        <time>2010-05-09T11:44:08Z</time>
      </trkpt>
      <trkpt lat="43.9880720" lon="7.7920000">
        <ele>666.3300000</ele>
        <time>2010-05-09T11:44:09Z</time>
      </trkpt>
      <trkpt lat="43.9881570" lon="7.7919290">
        <ele>668.2500000</ele>
        <time>2010-05-09T11:44:10Z</time>
      </trkpt>
      <trkpt lat="43.9882360" lon="7.7918330">
        <ele>669.2200000</ele>
        <time>2010-05-09T11:44:11Z</time>
      </trkpt>
      <trkpt lat="43.9883090" lon="7.7917100">
        <ele>670.1800000</ele>
        <time>2010-05-09T11:44:12Z</time>
      </trkpt>
      <trkpt lat="43.9883750" lon="7.7915750">
        <ele>671.6200000</ele>
        <time>2010-05-09T11:44:13Z</time>
      </trkpt>
      <trkpt lat="43.9884400" lon="7.7914400">
        <ele>673.0600000</ele>
        <time>2010-05-09T11:44:14Z</time>
      </trkpt>
      <trkpt lat="43.9885910" lon="7.7911770">
        <ele>677.3900000</ele>
        <time>2010-05-09T11:44:16Z</time>
      </trkpt>
      <trkpt lat="43.9887580" lon="7.7909220">
        <ele>680.7500000</ele>
        <time>2010-05-09T11:44:18Z</time>
      </trkpt>
      <trkpt lat="43.9889440" lon="7.7906750">
        <ele>684.1200000</ele>
        <time>2010-05-09T11:44:20Z</time>
      </trkpt>
      <trkpt lat="43.9892390" lon="7.7903060">
        <ele>687.0000000</ele>
        <time>2010-05-09T11:44:23Z</time>
      </trkpt>
      <trkpt lat="43.9893250" lon="7.7901610">
        <ele>687.9600000</ele>
        <time>2010-05-09T11:44:24Z</time>
      </trkpt>
      <trkpt lat="43.9893990" lon="7.7900010">
        <ele>688.9200000</ele>
        <time>2010-05-09T11:44:25Z</time>
      </trkpt>
      <trkpt lat="43.9895310" lon="7.7896520">
        <ele>693.2500000</ele>
        <time>2010-05-09T11:44:27Z</time>
      </trkpt>
      <trkpt lat="43.9896560" lon="7.7892900">
        <ele>697.0900000</ele>
        <time>2010-05-09T11:44:29Z</time>
      </trkpt>
      <trkpt lat="43.9897210" lon="7.7891120">
        <ele>697.0900000</ele>
        <time>2010-05-09T11:44:30Z</time>
      </trkpt>
      <trkpt lat="43.9898500" lon="7.7887560">
        <ele>700.4600000</ele>
        <time>2010-05-09T11:44:32Z</time>
      </trkpt>
      <trkpt lat="43.9900410" lon="7.7882450">
        <ele>703.8200000</ele>
        <time>2010-05-09T11:44:35Z</time>
      </trkpt>
      <trkpt lat="43.9901190" lon="7.7880910">
        <ele>705.2600000</ele>
        <time>2010-05-09T11:44:36Z</time>
      </trkpt>
      <trkpt lat="43.9902080" lon="7.7879550">
        <ele>706.2300000</ele>
        <time>2010-05-09T11:44:37Z</time>
      </trkpt>
      <trkpt lat="43.9905410" lon="7.7874180">
        <ele>710.5500000</ele>
        <time>2010-05-09T11:44:41Z</time>
      </trkpt>
      <trkpt lat="43.9906760" lon="7.7871450">
        <ele>714.4000000</ele>
        <time>2010-05-09T11:44:43Z</time>
      </trkpt>
      <trkpt lat="43.9907660" lon="7.7868870">
        <ele>712.9500000</ele>
        <time>2010-05-09T11:44:45Z</time>
      </trkpt>
      <trkpt lat="43.9908140" lon="7.7866580">
        <ele>714.4000000</ele>
        <time>2010-05-09T11:44:47Z</time>
      </trkpt>
      <trkpt lat="43.9908570" lon="7.7864350">
        <ele>714.4000000</ele>
        <time>2010-05-09T11:44:50Z</time>
      </trkpt>
      <trkpt lat="43.9908820" lon="7.7864010">
        <ele>714.4000000</ele>
        <time>2010-05-09T11:44:51Z</time>
      </trkpt>
      <trkpt lat="43.9909130" lon="7.7863990">
        <ele>714.8800000</ele>
        <time>2010-05-09T11:44:52Z</time>
      </trkpt>
      <trkpt lat="43.9909430" lon="7.7864310">
        <ele>715.3600000</ele>
        <time>2010-05-09T11:44:53Z</time>
      </trkpt>
      <trkpt lat="43.9909530" lon="7.7864890">
        <ele>715.8400000</ele>
        <time>2010-05-09T11:44:54Z</time>
      </trkpt>
      <trkpt lat="43.9909380" lon="7.7865610">
        <ele>715.8400000</ele>
        <time>2010-05-09T11:44:55Z</time>
      </trkpt>
      <trkpt lat="43.9909100" lon="7.7866400">
        <ele>716.3200000</ele>
        <time>2010-05-09T11:44:56Z</time>
      </trkpt>
      <trkpt lat="43.9908920" lon="7.7867180">
        <ele>716.8000000</ele>
        <time>2010-05-09T11:44:57Z</time>
      </trkpt>
      <trkpt lat="43.9908810" lon="7.7867860">
        <ele>717.2800000</ele>
        <time>2010-05-09T11:44:58Z</time>
      </trkpt>
      <trkpt lat="43.9908630" lon="7.7869000">
        <ele>717.2800000</ele>
        <time>2010-05-09T11:45:00Z</time>
      </trkpt>
      <trkpt lat="43.9908540" lon="7.7869570">
        <ele>718.2400000</ele>
        <time>2010-05-09T11:45:01Z</time>
      </trkpt>
      <trkpt lat="43.9908390" lon="7.7870100">
        <ele>718.7200000</ele>
        <time>2010-05-09T11:45:02Z</time>
      </trkpt>
      <trkpt lat="43.9908260" lon="7.7870660">
        <ele>719.2000000</ele>
        <time>2010-05-09T11:45:03Z</time>
      </trkpt>
      <trkpt lat="43.9908140" lon="7.7871380">
        <ele>719.6800000</ele>
        <time>2010-05-09T11:45:04Z</time>
      </trkpt>
      <trkpt lat="43.9907610" lon="7.7874610">
        <ele>723.5300000</ele>
        <time>2010-05-09T11:45:07Z</time>
      </trkpt>
      <trkpt lat="43.9907510" lon="7.7877130">
        <ele>725.4500000</ele>
        <time>2010-05-09T11:45:09Z</time>
      </trkpt>
      <trkpt lat="43.9907780" lon="7.7880860">
        <ele>727.8600000</ele>
        <time>2010-05-09T11:45:12Z</time>
      </trkpt>
      <trkpt lat="43.9907880" lon="7.7882020">
        <ele>728.8200000</ele>
        <time>2010-05-09T11:45:13Z</time>
      </trkpt>
      <trkpt lat="43.9907870" lon="7.7883100">
        <ele>729.7800000</ele>
        <time>2010-05-09T11:45:14Z</time>
      </trkpt>
      <trkpt lat="43.9907710" lon="7.7884210">
        <ele>730.2600000</ele>
        <time>2010-05-09T11:45:15Z</time>
      </trkpt>
      <trkpt lat="43.9907400" lon="7.7885280">
        <ele>731.7000000</ele>
        <time>2010-05-09T11:45:16Z</time>
      </trkpt>
      <trkpt lat="43.9906940" lon="7.7886230">
        <ele>732.6600000</ele>
        <time>2010-05-09T11:45:17Z</time>
      </trkpt>
      <trkpt lat="43.9906410" lon="7.7887110">
        <ele>733.6200000</ele>
        <time>2010-05-09T11:45:18Z</time>
      </trkpt>
      <trkpt lat="43.9905890" lon="7.7888070">
        <ele>734.5800000</ele>
        <time>2010-05-09T11:45:19Z</time>
      </trkpt>
      <trkpt lat="43.9905490" lon="7.7889160">
        <ele>735.5500000</ele>
        <time>2010-05-09T11:45:20Z</time>
      </trkpt>
      <trkpt lat="43.9905230" lon="7.7890390">
        <ele>736.9900000</ele>
        <time>2010-05-09T11:45:21Z</time>
      </trkpt>
      <trkpt lat="43.9905150" lon="7.7891690">
        <ele>738.4300000</ele>
        <time>2010-05-09T11:45:22Z</time>
      </trkpt>
      <trkpt lat="43.9905220" lon="7.7893030">
        <ele>739.8700000</ele>
        <time>2010-05-09T11:45:23Z</time>
      </trkpt>
      <trkpt lat="43.9905310" lon="7.7894380">
        <ele>740.8300000</ele>
        <time>2010-05-09T11:45:24Z</time>
      </trkpt>
      <trkpt lat="43.9905260" lon="7.7897100">
        <ele>743.2400000</ele>
        <time>2010-05-09T11:45:26Z</time>
      </trkpt>
      <trkpt lat="43.9905070" lon="7.7898430">
        <ele>744.6800000</ele>
        <time>2010-05-09T11:45:27Z</time>
      </trkpt>
      <trkpt lat="43.9904770" lon="7.7899760">
        <ele>746.1200000</ele>
        <time>2010-05-09T11:45:28Z</time>
      </trkpt>
      <trkpt lat="43.9904390" lon="7.7901070">
        <ele>746.6000000</ele>
        <time>2010-05-09T11:45:29Z</time>
      </trkpt>
      <trkpt lat="43.9902730" lon="7.7906200">
        <ele>749.9700000</ele>
        <time>2010-05-09T11:45:33Z</time>
      </trkpt>
      <trkpt lat="43.9901300" lon="7.7910040">
        <ele>754.2900000</ele>
        <time>2010-05-09T11:45:36Z</time>
      </trkpt>
      <trkpt lat="43.9900230" lon="7.7912220">
        <ele>755.2500000</ele>
        <time>2010-05-09T11:45:38Z</time>
      </trkpt>
      <trkpt lat="43.9898800" lon="7.7914680">
        <ele>757.1800000</ele>
        <time>2010-05-09T11:45:41Z</time>
      </trkpt>
      <trkpt lat="43.9898570" lon="7.7915490">
        <ele>757.1800000</ele>
        <time>2010-05-09T11:45:42Z</time>
      </trkpt>
      <trkpt lat="43.9898610" lon="7.7916320">
        <ele>758.1400000</ele>
        <time>2010-05-09T11:45:43Z</time>
      </trkpt>
      <trkpt lat="43.9898930" lon="7.7916990">
        <ele>758.6200000</ele>
        <time>2010-05-09T11:45:44Z</time>
      </trkpt>
      <trkpt lat="43.9899480" lon="7.7917410">
        <ele>759.1000000</ele>
        <time>2010-05-09T11:45:45Z</time>
      </trkpt>
      <trkpt lat="43.9900110" lon="7.7917540">
        <ele>759.1000000</ele>
        <time>2010-05-09T11:45:46Z</time>
      </trkpt>
      <trkpt lat="43.9900810" lon="7.7917540">
        <ele>759.5800000</ele>
        <time>2010-05-09T11:45:47Z</time>
      </trkpt>
      <trkpt lat="43.9901560" lon="7.7917450">
        <ele>759.5800000</ele>
        <time>2010-05-09T11:45:48Z</time>
      </trkpt>
      <trkpt lat="43.9902310" lon="7.7917110">
        <ele>760.0600000</ele>
        <time>2010-05-09T11:45:49Z</time>
      </trkpt>
      <trkpt lat="43.9903020" lon="7.7916530">
        <ele>761.0200000</ele>
        <time>2010-05-09T11:45:50Z</time>
      </trkpt>
      <trkpt lat="43.9903660" lon="7.7915750">
        <ele>761.9800000</ele>
        <time>2010-05-09T11:45:51Z</time>
      </trkpt>
      <trkpt lat="43.9904310" lon="7.7914920">
        <ele>764.3900000</ele>
        <time>2010-05-09T11:45:52Z</time>
      </trkpt>
      <trkpt lat="43.9905070" lon="7.7914170">
        <ele>765.3500000</ele>
        <time>2010-05-09T11:45:53Z</time>
      </trkpt>
      <trkpt lat="43.9906030" lon="7.7913600">
        <ele>766.7900000</ele>
        <time>2010-05-09T11:45:54Z</time>
      </trkpt>
      <trkpt lat="43.9907110" lon="7.7913300">
        <ele>768.2300000</ele>
        <time>2010-05-09T11:45:55Z</time>
      </trkpt>
      <trkpt lat="43.9910670" lon="7.7913040">
        <ele>771.6000000</ele>
        <time>2010-05-09T11:45:58Z</time>
      </trkpt>
      <trkpt lat="43.9913260" lon="7.7913150">
        <ele>774.9600000</ele>
        <time>2010-05-09T11:46:00Z</time>
      </trkpt>
      <trkpt lat="43.9916950" lon="7.7913280">
        <ele>778.8100000</ele>
        <time>2010-05-09T11:46:03Z</time>
      </trkpt>
      <trkpt lat="43.9918010" lon="7.7913320">
        <ele>778.8100000</ele>
        <time>2010-05-09T11:46:04Z</time>
      </trkpt>
      <trkpt lat="43.9918940" lon="7.7913470">
        <ele>780.2500000</ele>
        <time>2010-05-09T11:46:05Z</time>
      </trkpt>
      <trkpt lat="43.9919730" lon="7.7913930">
        <ele>780.2500000</ele>
        <time>2010-05-09T11:46:06Z</time>
      </trkpt>
      <trkpt lat="43.9920430" lon="7.7914720">
        <ele>781.2100000</ele>
        <time>2010-05-09T11:46:07Z</time>
      </trkpt>
      <trkpt lat="43.9921000" lon="7.7915810">
        <ele>782.6500000</ele>
        <time>2010-05-09T11:46:08Z</time>
      </trkpt>
      <trkpt lat="43.9921410" lon="7.7917100">
        <ele>783.6100000</ele>
        <time>2010-05-09T11:46:09Z</time>
      </trkpt>
      <trkpt lat="43.9921850" lon="7.7918400">
        <ele>784.5700000</ele>
        <time>2010-05-09T11:46:10Z</time>
      </trkpt>
      <trkpt lat="43.9922320" lon="7.7919610">
        <ele>785.5300000</ele>
        <time>2010-05-09T11:46:11Z</time>
      </trkpt>
      <trkpt lat="43.9922740" lon="7.7920790">
        <ele>786.5000000</ele>
        <time>2010-05-09T11:46:12Z</time>
      </trkpt>
      <trkpt lat="43.9922970" lon="7.7922060">
        <ele>786.9800000</ele>
        <time>2010-05-09T11:46:13Z</time>
      </trkpt>
      <trkpt lat="43.9923090" lon="7.7923330">
        <ele>787.4600000</ele>
        <time>2010-05-09T11:46:14Z</time>
      </trkpt>
      <trkpt lat="43.9923140" lon="7.7924520">
        <ele>789.3800000</ele>
        <time>2010-05-09T11:46:15Z</time>
      </trkpt>
      <trkpt lat="43.9923020" lon="7.7925610">
        <ele>790.3400000</ele>
        <time>2010-05-09T11:46:16Z</time>
      </trkpt>
      <trkpt lat="43.9922690" lon="7.7926630">
        <ele>790.8200000</ele>
        <time>2010-05-09T11:46:17Z</time>
      </trkpt>
      <trkpt lat="43.9922280" lon="7.7927600">
        <ele>791.3000000</ele>
        <time>2010-05-09T11:46:18Z</time>
      </trkpt>
      <trkpt lat="43.9921940" lon="7.7928640">
        <ele>792.2600000</ele>
        <time>2010-05-09T11:46:19Z</time>
      </trkpt>
      <trkpt lat="43.9921800" lon="7.7929750">
        <ele>792.7400000</ele>
        <time>2010-05-09T11:46:20Z</time>
      </trkpt>
      <trkpt lat="43.9921980" lon="7.7930810">
        <ele>794.1900000</ele>
        <time>2010-05-09T11:46:21Z</time>
      </trkpt>
      <trkpt lat="43.9922430" lon="7.7931750">
        <ele>794.6700000</ele>
        <time>2010-05-09T11:46:22Z</time>
      </trkpt>
      <trkpt lat="43.9923040" lon="7.7932590">
        <ele>796.1100000</ele>
        <time>2010-05-09T11:46:23Z</time>
      </trkpt>
      <trkpt lat="43.9923700" lon="7.7933400">
        <ele>797.5500000</ele>
        <time>2010-05-09T11:46:24Z</time>
      </trkpt>
      <trkpt lat="43.9924350" lon="7.7934300">
        <ele>798.5100000</ele>
        <time>2010-05-09T11:46:25Z</time>
      </trkpt>
      <trkpt lat="43.9925000" lon="7.7935320">
        <ele>799.9500000</ele>
        <time>2010-05-09T11:46:26Z</time>
      </trkpt>
      <trkpt lat="43.9926900" lon="7.7938470">
        <ele>802.3600000</ele>
        <time>2010-05-09T11:46:29Z</time>
      </trkpt>
      <trkpt lat="43.9928180" lon="7.7940210">
        <ele>804.7600000</ele>
        <time>2010-05-09T11:46:31Z</time>
      </trkpt>
      <trkpt lat="43.9928890" lon="7.7940870">
        <ele>805.7200000</ele>
        <time>2010-05-09T11:46:32Z</time>
      </trkpt>
      <trkpt lat="43.9929650" lon="7.7941340">
        <ele>807.1600000</ele>
        <time>2010-05-09T11:46:33Z</time>
      </trkpt>
      <trkpt lat="43.9930400" lon="7.7941660">
        <ele>807.6400000</ele>
        <time>2010-05-09T11:46:34Z</time>
      </trkpt>
      <trkpt lat="43.9931080" lon="7.7941890">
        <ele>808.1300000</ele>
        <time>2010-05-09T11:46:35Z</time>
      </trkpt>
      <trkpt lat="43.9933030" lon="7.7942980">
        <ele>808.1300000</ele>
        <time>2010-05-09T11:46:42Z</time>
      </trkpt>
      <trkpt lat="43.9933070" lon="7.7943000">
        <ele>807.6400000</ele>
        <time>2010-05-09T11:47:12Z</time>
      </trkpt>
      <trkpt lat="43.9932840" lon="7.7942920">
        <ele>806.2000000</ele>
        <time>2010-05-09T11:47:53Z</time>
      </trkpt>
      <trkpt lat="43.9932480" lon="7.7942620">
        <ele>811.4900000</ele>
        <time>2010-05-09T11:48:01Z</time>
      </trkpt>
      <trkpt lat="43.9932480" lon="7.7942620">
        <ele>806.2000000</ele>
        <time>2010-05-09T11:48:02Z</time>
      </trkpt>
      <trkpt lat="43.9932480" lon="7.7942620">
        <ele>812.9300000</ele>
        <time>2010-05-09T11:48:05Z</time>
      </trkpt>
      <trkpt lat="43.9932480" lon="7.7942620">
        <ele>801.4000000</ele>
        <time>2010-05-09T11:48:06Z</time>
      </trkpt>
      <trkpt lat="43.9932480" lon="7.7942620">
        <ele>808.6100000</ele>
        <time>2010-05-09T11:48:07Z</time>
      </trkpt>
      <trkpt lat="43.9932480" lon="7.7942620">
        <ele>804.2800000</ele>
        <time>2010-05-09T11:48:08Z</time>
      </trkpt>
      <trkpt lat="43.9932480" lon="7.7942620">
        <ele>808.1300000</ele>
        <time>2010-05-09T11:48:09Z</time>
      </trkpt>
      <trkpt lat="43.9932480" lon="7.7942620">
        <ele>812.4500000</ele>
        <time>2010-05-09T11:48:11Z</time>
      </trkpt>
      <trkpt lat="43.9932480" lon="7.7942620">
        <ele>806.2000000</ele>
        <time>2010-05-09T11:48:12Z</time>
      </trkpt>
      <trkpt lat="43.9932480" lon="7.7942620">
        <ele>803.3200000</ele>
        <time>2010-05-09T11:48:19Z</time>
      </trkpt>
      <trkpt lat="43.9932480" lon="7.7942620">
        <ele>797.0700000</ele>
        <time>2010-05-09T11:48:21Z</time>
      </trkpt>
      <trkpt lat="43.9932480" lon="7.7942620">
        <ele>792.2600000</ele>
        <time>2010-05-09T11:48:22Z</time>
      </trkpt>
      <trkpt lat="43.9932480" lon="7.7942620">
        <ele>808.6100000</ele>
        <time>2010-05-09T11:48:23Z</time>
      </trkpt>
      <trkpt lat="43.9932480" lon="7.7942620">
        <ele>806.6800000</ele>
        <time>2010-05-09T11:48:24Z</time>
      </trkpt>
      <trkpt lat="43.9932480" lon="7.7942620">
        <ele>811.9700000</ele>
        <time>2010-05-09T11:48:27Z</time>
      </trkpt>
      <trkpt lat="43.9932480" lon="7.7942620">
        <ele>806.6800000</ele>
        <time>2010-05-09T11:48:28Z</time>
      </trkpt>
      <trkpt lat="43.9932480" lon="7.7942620">
        <ele>778.3200000</ele>
        <time>2010-05-09T11:48:29Z</time>
      </trkpt>
      <trkpt lat="43.9932480" lon="7.7942620">
        <ele>809.5700000</ele>
        <time>2010-05-09T11:48:30Z</time>
      </trkpt>
      <trkpt lat="43.9932480" lon="7.7942620">
        <ele>829.2700000</ele>
        <time>2010-05-09T11:48:31Z</time>
      </trkpt>
      <trkpt lat="43.9932480" lon="7.7942620">
        <ele>806.2000000</ele>
        <time>2010-05-09T11:48:32Z</time>
      </trkpt>
      <trkpt lat="43.9932480" lon="7.7942620">
        <ele>806.2000000</ele>
        <time>2010-05-09T11:48:33Z</time>
      </trkpt>
      <trkpt lat="43.9932480" lon="7.7942620">
        <ele>811.9700000</ele>
        <time>2010-05-09T11:48:35Z</time>
      </trkpt>
      <trkpt lat="43.9932480" lon="7.7942620">
        <ele>825.9100000</ele>
        <time>2010-05-09T11:48:36Z</time>
      </trkpt>
      <trkpt lat="43.9932480" lon="7.7942620">
        <ele>808.6100000</ele>
        <time>2010-05-09T11:48:37Z</time>
      </trkpt>
      <trkpt lat="43.9932470" lon="7.7942630">
        <ele>815.3400000</ele>
        <time>2010-05-09T11:48:43Z</time>
      </trkpt>
      <trkpt lat="43.9932470" lon="7.7942630">
        <ele>819.6600000</ele>
        <time>2010-05-09T11:48:44Z</time>
      </trkpt>
      <trkpt lat="43.9932470" lon="7.7942630">
        <ele>806.6800000</ele>
        <time>2010-05-09T11:48:45Z</time>
      </trkpt>
      <trkpt lat="43.9932470" lon="7.7942630">
        <ele>805.7200000</ele>
        <time>2010-05-09T11:48:47Z</time>
      </trkpt>
      <trkpt lat="43.9932470" lon="7.7942630">
        <ele>810.0500000</ele>
        <time>2010-05-09T11:48:59Z</time>
      </trkpt>
      <trkpt lat="43.9932470" lon="7.7942630">
        <ele>806.6800000</ele>
        <time>2010-05-09T11:49:00Z</time>
      </trkpt>
      <trkpt lat="43.9932470" lon="7.7942630">
        <ele>806.6800000</ele>
        <time>2010-05-09T11:49:01Z</time>
      </trkpt>
      <trkpt lat="43.9933720" lon="7.7942400">
        <ele>806.2000000</ele>
        <time>2010-05-09T11:49:06Z</time>
      </trkpt>
      <trkpt lat="43.9932790" lon="7.7942630">
        <ele>811.4900000</ele>
        <time>2010-05-09T11:49:13Z</time>
      </trkpt>
      <trkpt lat="43.9932700" lon="7.7942510">
        <ele>807.6400000</ele>
        <time>2010-05-09T11:49:14Z</time>
      </trkpt>
      <trkpt lat="43.9932750" lon="7.7942300">
        <ele>808.6100000</ele>
        <time>2010-05-09T11:49:19Z</time>
      </trkpt>
      <trkpt lat="43.9932760" lon="7.7942310">
        <ele>804.2800000</ele>
        <time>2010-05-09T11:49:20Z</time>
      </trkpt>
      <trkpt lat="43.9932810" lon="7.7942330">
        <ele>806.6800000</ele>
        <time>2010-05-09T11:49:21Z</time>
      </trkpt>
      <trkpt lat="43.9932890" lon="7.7942360">
        <ele>802.3600000</ele>
        <time>2010-05-09T11:49:23Z</time>
      </trkpt>
      <trkpt lat="43.9932920" lon="7.7942360">
        <ele>806.6800000</ele>
        <time>2010-05-09T11:49:24Z</time>
      </trkpt>
      <trkpt lat="43.9932960" lon="7.7942350">
        <ele>810.5300000</ele>
        <time>2010-05-09T11:49:26Z</time>
      </trkpt>
      <trkpt lat="43.9932960" lon="7.7942350">
        <ele>810.0500000</ele>
        <time>2010-05-09T11:49:27Z</time>
      </trkpt>
      <trkpt lat="43.9932970" lon="7.7942340">
        <ele>805.7200000</ele>
        <time>2010-05-09T11:49:28Z</time>
      </trkpt>
      <trkpt lat="43.9932970" lon="7.7942340">
        <ele>802.3600000</ele>
        <time>2010-05-09T11:49:29Z</time>
      </trkpt>
      <trkpt lat="43.9932970" lon="7.7942350">
        <ele>810.5300000</ele>
        <time>2010-05-09T11:49:30Z</time>
      </trkpt>
    </trkseg>
  </trk>

  <trk>
    <name>TRASFERIMENTO DA PS1 AD ARRIVO</name>
    <extensions>
      <gpxx:TrackExtension xmlns:gpxx="http://www.garmin.com/xmlschemas/GpxExtensions/v3">
        <gpxx:DisplayColor>Yellow</gpxx:DisplayColor>
      </gpxx:TrackExtension>
    </extensions>
    <trkseg>
      <trkpt lat="43.9810830" lon="7.7942930">
        <ele>411.5800000</ele>
        <time>2010-05-09T12:05:07Z</time>
      </trkpt>
      <trkpt lat="43.9810720" lon="7.7942340">
        <ele>413.9800000</ele>
        <time>2010-05-09T12:05:23Z</time>
      </trkpt>
      <trkpt lat="43.9809710" lon="7.7942050">
        <ele>410.1400000</ele>
        <time>2010-05-09T12:05:28Z</time>
      </trkpt>
      <trkpt lat="43.9809520" lon="7.7942000">
        <ele>409.6600000</ele>
        <time>2010-05-09T12:05:29Z</time>
      </trkpt>
      <trkpt lat="43.9809550" lon="7.7941540">
        <ele>409.6600000</ele>
        <time>2010-05-09T12:05:33Z</time>
      </trkpt>
      <trkpt lat="43.9809870" lon="7.7941480">
        <ele>409.6600000</ele>
        <time>2010-05-09T12:05:36Z</time>
      </trkpt>
      <trkpt lat="43.9811110" lon="7.7941330">
        <ele>409.6600000</ele>
        <time>2010-05-09T12:05:48Z</time>
      </trkpt>
      <trkpt lat="43.9811050" lon="7.7941400">
        <ele>415.4300000</ele>
        <time>2010-05-09T12:09:24Z</time>
      </trkpt>
      <trkpt lat="43.9811050" lon="7.7941400">
        <ele>409.6600000</ele>
        <time>2010-05-09T12:09:25Z</time>
      </trkpt>
      <trkpt lat="43.9810950" lon="7.7941330">
        <ele>408.7000000</ele>
        <time>2010-05-09T12:10:35Z</time>
      </trkpt>
      <trkpt lat="43.9811030" lon="7.7940900">
        <ele>408.2200000</ele>
        <time>2010-05-09T12:16:44Z</time>
      </trkpt>
      <trkpt lat="43.9813760" lon="7.7939980">
        <ele>407.7400000</ele>
        <time>2010-05-09T12:16:56Z</time>
      </trkpt>
      <trkpt lat="43.9818050" lon="7.7940340">
        <ele>407.7400000</ele>
        <time>2010-05-09T12:17:10Z</time>
      </trkpt>
      <trkpt lat="43.9821960" lon="7.7940160">
        <ele>408.2200000</ele>
        <time>2010-05-09T12:17:23Z</time>
      </trkpt>
      <trkpt lat="43.9825970" lon="7.7938610">
        <ele>408.7000000</ele>
        <time>2010-05-09T12:17:36Z</time>
      </trkpt>
      <trkpt lat="43.9830830" lon="7.7935990">
        <ele>410.6200000</ele>
        <time>2010-05-09T12:17:53Z</time>
      </trkpt>
      <trkpt lat="43.9834450" lon="7.7932820">
        <ele>413.5000000</ele>
        <time>2010-05-09T12:18:08Z</time>
      </trkpt>
      <trkpt lat="43.9836680" lon="7.7929970">
        <ele>414.9500000</ele>
        <time>2010-05-09T12:18:19Z</time>
      </trkpt>
      <trkpt lat="43.9838300" lon="7.7926300">
        <ele>418.3100000</ele>
        <time>2010-05-09T12:18:30Z</time>
      </trkpt>
      <trkpt lat="43.9838690" lon="7.7921570">
        <ele>420.2300000</ele>
        <time>2010-05-09T12:18:42Z</time>
      </trkpt>
      <trkpt lat="43.9838380" lon="7.7917110">
        <ele>421.1900000</ele>
        <time>2010-05-09T12:18:53Z</time>
      </trkpt>
      <trkpt lat="43.9836900" lon="7.7910590">
        <ele>422.6400000</ele>
        <time>2010-05-09T12:19:10Z</time>
      </trkpt>
      <trkpt lat="43.9834690" lon="7.7904220">
        <ele>425.0400000</ele>
        <time>2010-05-09T12:19:27Z</time>
      </trkpt>
      <trkpt lat="43.9832880" lon="7.7898860">
        <ele>426.9600000</ele>
        <time>2010-05-09T12:19:42Z</time>
      </trkpt>
      <trkpt lat="43.9833310" lon="7.7892590">
        <ele>429.8500000</ele>
        <time>2010-05-09T12:19:57Z</time>
      </trkpt>
      <trkpt lat="43.9835850" lon="7.7888400">
        <ele>432.2500000</ele>
        <time>2010-05-09T12:20:10Z</time>
      </trkpt>
      <trkpt lat="43.9840050" lon="7.7884390">
        <ele>434.1700000</ele>
        <time>2010-05-09T12:20:26Z</time>
      </trkpt>
      <trkpt lat="43.9843900" lon="7.7879580">
        <ele>435.1300000</ele>
        <time>2010-05-09T12:20:42Z</time>
      </trkpt>
      <trkpt lat="43.9847600" lon="7.7874700">
        <ele>437.5400000</ele>
        <time>2010-05-09T12:20:56Z</time>
      </trkpt>
      <trkpt lat="43.9848730" lon="7.7868840">
        <ele>438.0200000</ele>
        <time>2010-05-09T12:21:08Z</time>
      </trkpt>
      <trkpt lat="43.9849530" lon="7.7861090">
        <ele>440.4200000</ele>
        <time>2010-05-09T12:21:23Z</time>
      </trkpt>
      <trkpt lat="43.9849030" lon="7.7851290">
        <ele>441.3800000</ele>
        <time>2010-05-09T12:21:42Z</time>
      </trkpt>
      <trkpt lat="43.9847680" lon="7.7840480">
        <ele>442.3400000</ele>
        <time>2010-05-09T12:22:03Z</time>
      </trkpt>
      <trkpt lat="43.9846470" lon="7.7830900">
        <ele>443.7900000</ele>
        <time>2010-05-09T12:22:22Z</time>
      </trkpt>
      <trkpt lat="43.9849330" lon="7.7823500">
        <ele>444.2700000</ele>
        <time>2010-05-09T12:22:38Z</time>
      </trkpt>
      <trkpt lat="43.9854110" lon="7.7817440">
        <ele>445.7100000</ele>
        <time>2010-05-09T12:22:54Z</time>
      </trkpt>
      <trkpt lat="43.9857470" lon="7.7812850">
        <ele>447.6300000</ele>
        <time>2010-05-09T12:23:06Z</time>
      </trkpt>
      <trkpt lat="43.9857580" lon="7.7812340">
        <ele>447.6300000</ele>
        <time>2010-05-09T12:23:07Z</time>
      </trkpt>
      <trkpt lat="43.9857670" lon="7.7811800">
        <ele>447.1500000</ele>
        <time>2010-05-09T12:23:08Z</time>
      </trkpt>
      <trkpt lat="43.9858040" lon="7.7809390">
        <ele>447.6300000</ele>
        <time>2010-05-09T12:23:12Z</time>
      </trkpt>
      <trkpt lat="43.9858340" lon="7.7802480">
        <ele>448.1100000</ele>
        <time>2010-05-09T12:23:24Z</time>
      </trkpt>
      <trkpt lat="43.9858900" lon="7.7791810">
        <ele>448.5900000</ele>
        <time>2010-05-09T12:23:42Z</time>
      </trkpt>
      <trkpt lat="43.9860500" lon="7.7787530">
        <ele>449.0700000</ele>
        <time>2010-05-09T12:23:50Z</time>
      </trkpt>
      <trkpt lat="43.9862760" lon="7.7783040">
        <ele>449.5500000</ele>
        <time>2010-05-09T12:23:59Z</time>
      </trkpt>
      <trkpt lat="43.9863750" lon="7.7781690">
        <ele>449.5500000</ele>
        <time>2010-05-09T12:24:02Z</time>
      </trkpt>
      <trkpt lat="43.9867760" lon="7.7777710">
        <ele>450.5200000</ele>
        <time>2010-05-09T12:24:13Z</time>
      </trkpt>
      <trkpt lat="43.9870370" lon="7.7775220">
        <ele>451.0000000</ele>
        <time>2010-05-09T12:24:20Z</time>
      </trkpt>
      <trkpt lat="43.9871870" lon="7.7773800">
        <ele>451.0000000</ele>
        <time>2010-05-09T12:24:24Z</time>
      </trkpt>
      <trkpt lat="43.9873720" lon="7.7771590">
        <ele>451.4800000</ele>
        <time>2010-05-09T12:24:30Z</time>
      </trkpt>
      <trkpt lat="43.9873730" lon="7.7771090">
        <ele>451.4800000</ele>
        <time>2010-05-09T12:24:31Z</time>
      </trkpt>
      <trkpt lat="43.9873510" lon="7.7770780">
        <ele>451.4800000</ele>
        <time>2010-05-09T12:24:32Z</time>
      </trkpt>
    </trkseg>
  </trk>

</gpx>
